Time,TemperatureF,DewpointF,PressureIn,WindDirection,WindDirectionDegrees,WindSpeedMPH,WindSpeedGustMPH,Humidity,HourlyPrecipIn,Conditions,Clouds,dailyrainin,SoftwareType,DateUTC
2014-01-23 00:00:00,-4.1,-12.3,30.38,North,0,1.3,1.3,67,0.00,,,0.00,VWS V14.01,2014-01-23 06:00:00,
2014-01-23 00:01:00,-4.1,-12.3,30.38,North,0,1.3,1.3,67,0.00,,,0.00,VWS V14.01,2014-01-23 06:01:00,
2014-01-23 00:02:00,-4.1,-12.3,30.38,NNW,338,0.0,1.3,67,0.00,,,0.00,VWS V14.01,2014-01-23 06:02:00,
2014-01-23 00:03:00,-4.1,-12.3,30.39,NNW,338,0.0,0.0,67,0.00,,,0.00,VWS V14.01,2014-01-23 06:03:00,
2014-01-23 00:04:00,-4.1,-12.6,30.39,NNW,338,7.3,7.3,66,0.00,,,0.00,VWS V14.01,2014-01-23 06:04:00,
2014-01-23 00:05:00,-4.1,-12.6,30.39,NNW,338,7.3,7.3,66,0.00,,,0.00,VWS V14.01,2014-01-23 06:05:00,
2014-01-23 00:06:00,-4.1,-12.6,30.39,NNW,338,7.3,7.3,66,0.00,,,0.00,VWS V14.01,2014-01-23 06:06:00,
2014-01-23 00:07:00,-4.0,-12.5,30.39,NW,315,6.4,6.4,66,0.00,,,0.00,VWS V14.01,2014-01-23 06:07:00,
2014-01-23 00:08:00,-4.1,-12.6,30.39,NNW,338,10.0,10.0,66,0.00,,,0.00,VWS V14.01,2014-01-23 06:08:00,
2014-01-23 00:09:00,-4.1,-12.6,30.39,NNW,338,10.0,10.0,66,0.00,,,0.00,VWS V14.01,2014-01-23 06:09:00,
2014-01-23 00:10:00,-4.1,-12.6,30.39,NNW,338,9.3,10.0,66,0.00,,,0.00,VWS V14.01,2014-01-23 06:10:00,
2014-01-23 00:11:00,-4.1,-12.6,30.39,NNW,338,9.3,9.3,66,0.00,,,0.00,VWS V14.01,2014-01-23 06:11:00,
2014-01-23 00:12:00,-4.1,-12.6,30.40,North,0,6.4,9.3,66,0.00,,,0.00,VWS V14.01,2014-01-23 06:12:00,
2014-01-23 00:13:00,-4.1,-12.6,30.40,North,0,6.4,6.4,66,0.00,,,0.00,VWS V14.01,2014-01-23 06:13:00,
2014-01-23 00:14:00,-4.1,-12.6,30.40,WNW,292,6.9,6.9,66,0.00,,,0.00,VWS V14.01,2014-01-23 06:14:00,
2014-01-23 00:15:00,-4.1,-12.6,30.39,WNW,292,6.9,6.9,66,0.00,,,0.00,VWS V14.01,2014-01-23 06:15:00,
2014-01-23 00:16:00,-4.1,-12.6,30.39,WNW,292,6.9,6.9,66,0.00,,,0.00,VWS V14.01,2014-01-23 06:16:00,
2014-01-23 00:17:00,-4.1,-12.6,30.39,NW,315,7.3,7.3,66,0.00,,,0.00,VWS V14.01,2014-01-23 06:17:00,
2014-01-23 00:18:00,-4.1,-12.6,30.39,NW,315,7.3,7.3,66,0.00,,,0.00,VWS V14.01,2014-01-23 06:18:00,
2014-01-23 00:19:00,-4.1,-12.6,30.40,WNW,292,0.4,7.3,66,0.00,,,0.00,VWS V14.01,2014-01-23 06:19:00,
2014-01-23 00:20:00,-4.1,-12.6,30.40,WNW,292,0.4,0.4,66,0.00,,,0.00,VWS V14.01,2014-01-23 06:20:00,
2014-01-23 00:21:00,-4.1,-12.6,30.40,WNW,292,0.4,0.4,66,0.00,,,0.00,VWS V14.01,2014-01-23 06:21:00,
2014-01-23 00:22:00,-4.1,-12.6,30.40,NNW,338,1.7,1.7,66,0.00,,,0.00,VWS V14.01,2014-01-23 06:22:00,
2014-01-23 00:23:00,-4.1,-12.6,30.40,NE,45,3.1,3.1,66,0.00,,,0.00,VWS V14.01,2014-01-23 06:23:00,
2014-01-23 00:24:00,-4.1,-12.6,30.40,NE,45,3.1,3.1,66,0.00,,,0.00,VWS V14.01,2014-01-23 06:24:00,
2014-01-23 00:25:00,-4.1,-12.6,30.40,NNW,338,0.8,3.1,66,0.00,,,0.00,VWS V14.01,2014-01-23 06:25:00,
2014-01-23 00:26:00,-4.1,-12.6,30.40,NNW,338,0.8,0.8,66,0.00,,,0.00,VWS V14.01,2014-01-23 06:26:00,
2014-01-23 00:27:00,-4.3,-12.8,30.40,NNW,338,1.1,1.1,66,0.00,,,0.00,VWS V14.01,2014-01-23 06:27:00,
2014-01-23 00:28:00,-4.3,-12.8,30.40,NNW,338,1.1,1.1,66,0.00,,,0.00,VWS V14.01,2014-01-23 06:28:00,
2014-01-23 00:29:00,-4.3,-12.8,30.40,NW,315,10.0,10.0,66,0.00,,,0.00,VWS V14.01,2014-01-23 06:29:00,
2014-01-23 00:30:00,-4.3,-12.8,30.40,NW,315,10.0,10.0,66,0.00,,,0.00,VWS V14.01,2014-01-23 06:30:00,
2014-01-23 00:31:00,-4.3,-12.8,30.40,NW,315,10.0,10.0,66,0.00,,,0.00,VWS V14.01,2014-01-23 06:31:00,
2014-01-23 00:32:00,-4.3,-12.8,30.40,NNW,338,1.5,10.0,66,0.00,,,0.00,VWS V14.01,2014-01-23 06:32:00,
2014-01-23 00:33:00,-4.3,-12.8,30.40,NNW,338,1.5,1.5,66,0.00,,,0.00,VWS V14.01,2014-01-23 06:33:00,
2014-01-23 00:34:00,-4.3,-12.8,30.40,WNW,292,9.8,9.8,66,0.00,,,0.00,VWS V14.01,2014-01-23 06:34:00,
2014-01-23 00:35:00,-4.3,-12.8,30.40,WNW,292,9.8,9.8,66,0.00,,,0.00,VWS V14.01,2014-01-23 06:35:00,
2014-01-23 00:36:00,-4.3,-12.8,30.40,WNW,292,9.8,9.8,66,0.00,,,0.00,VWS V14.01,2014-01-23 06:36:00,
2014-01-23 00:37:00,-4.3,-12.8,30.41,WNW,292,5.5,5.5,66,0.00,,,0.00,VWS V14.01,2014-01-23 06:37:00,
2014-01-23 00:38:00,-4.3,-12.8,30.40,NNW,338,0.0,5.5,66,0.00,,,0.00,VWS V14.01,2014-01-23 06:38:00,
2014-01-23 00:39:00,-4.3,-12.8,30.40,NNW,338,0.0,0.0,66,0.00,,,0.00,VWS V14.01,2014-01-23 06:39:00,
2014-01-23 00:40:00,-4.3,-12.8,30.40,NNW,338,10.0,10.0,66,0.00,,,0.00,VWS V14.01,2014-01-23 06:40:00,
2014-01-23 00:41:00,-4.3,-12.8,30.40,NNW,338,10.0,10.0,66,0.00,,,0.00,VWS V14.01,2014-01-23 06:41:00,
2014-01-23 00:42:00,-4.3,-12.8,30.40,NW,315,0.0,10.0,66,0.00,,,0.00,VWS V14.01,2014-01-23 06:42:00,
2014-01-23 00:43:00,-4.3,-12.8,30.40,NW,315,0.0,0.0,66,0.00,,,0.00,VWS V14.01,2014-01-23 06:43:00,
2014-01-23 00:44:00,-4.3,-12.8,30.40,West,270,11.1,11.1,66,0.00,,,0.00,VWS V14.01,2014-01-23 06:44:00,
2014-01-23 00:45:00,-4.3,-12.8,30.41,West,270,11.1,11.1,66,0.00,,,0.00,VWS V14.01,2014-01-23 06:45:00,
2014-01-23 00:46:00,-4.3,-12.8,30.41,West,270,11.1,11.1,66,0.00,,,0.00,VWS V14.01,2014-01-23 06:46:00,
2014-01-23 00:47:00,-4.1,-12.6,30.41,NNW,338,3.8,11.1,66,0.00,,,0.00,VWS V14.01,2014-01-23 06:47:00,
2014-01-23 00:48:00,-4.1,-12.6,30.40,NNW,338,3.8,3.8,66,0.00,,,0.00,VWS V14.01,2014-01-23 06:48:00,
2014-01-23 00:49:00,-4.3,-12.8,30.41,NNW,338,5.3,5.3,66,0.00,,,0.00,VWS V14.01,2014-01-23 06:49:00,
2014-01-23 00:50:00,-4.3,-12.8,30.41,NNW,338,5.3,5.3,66,0.00,,,0.00,VWS V14.01,2014-01-23 06:50:00,
2014-01-23 00:51:00,-4.3,-12.8,30.41,NNW,338,5.3,5.3,66,0.00,,,0.00,VWS V14.01,2014-01-23 06:51:00,
2014-01-23 00:52:00,-4.3,-12.8,30.41,NNE,22,5.1,5.1,66,0.00,,,0.00,VWS V14.01,2014-01-23 06:52:00,
2014-01-23 00:53:00,-4.3,-12.8,30.41,NNW,338,6.2,6.2,66,0.00,,,0.00,VWS V14.01,2014-01-23 06:53:00,
2014-01-23 00:54:00,-4.3,-12.8,30.41,NNW,338,6.2,6.2,66,0.00,,,0.00,VWS V14.01,2014-01-23 06:54:00,
2014-01-23 00:55:00,-4.3,-12.8,30.41,NNE,22,5.8,6.2,66,0.00,,,0.00,VWS V14.01,2014-01-23 06:55:00,
2014-01-23 00:56:00,-4.3,-12.8,30.41,NNE,22,5.8,5.8,66,0.00,,,0.00,VWS V14.01,2014-01-23 06:56:00,
2014-01-23 00:57:00,-4.3,-12.8,30.41,NNW,338,9.1,9.1,66,0.00,,,0.00,VWS V14.01,2014-01-23 06:57:00,
2014-01-23 00:58:00,-4.3,-12.8,30.41,NNW,338,9.1,9.1,66,0.00,,,0.00,VWS V14.01,2014-01-23 06:58:00,
2014-01-23 00:59:00,-4.3,-12.8,30.41,North,0,1.7,9.1,66,0.00,,,0.00,VWS V14.01,2014-01-23 06:59:00,
2014-01-23 01:00:00,-4.3,-12.8,30.41,North,0,1.7,1.7,66,0.00,,,0.00,VWS V14.01,2014-01-23 07:00:00,
2014-01-23 01:01:00,-4.3,-12.8,30.41,North,0,1.7,1.7,66,0.00,,,0.00,VWS V14.01,2014-01-23 07:01:00,
2014-01-23 01:02:00,-4.3,-12.8,30.41,NNW,338,5.5,5.5,66,0.00,,,0.00,VWS V14.01,2014-01-23 07:02:00,
2014-01-23 01:03:00,-4.3,-12.8,30.41,NNW,338,5.5,5.5,66,0.00,,,0.00,VWS V14.01,2014-01-23 07:03:00,
2014-01-23 01:04:00,-4.3,-12.8,30.42,NNW,338,4.6,5.5,66,0.00,,,0.00,VWS V14.01,2014-01-23 07:04:00,
2014-01-23 01:05:00,-4.3,-12.8,30.42,NNW,338,4.6,4.6,66,0.00,,,0.00,VWS V14.01,2014-01-23 07:05:00,
2014-01-23 01:06:00,-4.3,-12.8,30.42,NNW,338,4.6,4.6,66,0.00,,,0.00,VWS V14.01,2014-01-23 07:06:00,
2014-01-23 01:07:00,-4.3,-12.8,30.42,NW,315,5.5,5.5,66,0.00,,,0.00,VWS V14.01,2014-01-23 07:07:00,
2014-01-23 01:08:00,-4.3,-12.8,30.42,NNE,22,1.3,5.5,66,0.00,,,0.00,VWS V14.01,2014-01-23 07:08:00,
2014-01-23 01:09:00,-4.3,-12.8,30.42,NNE,22,1.3,1.3,66,0.00,,,0.00,VWS V14.01,2014-01-23 07:09:00,
2014-01-23 01:10:00,-4.3,-12.8,30.41,North,0,6.2,6.2,66,0.00,,,0.00,VWS V14.01,2014-01-23 07:10:00,
2014-01-23 01:11:00,-4.3,-12.8,30.41,North,0,6.2,6.2,66,0.00,,,0.00,VWS V14.01,2014-01-23 07:11:00,
2014-01-23 01:12:00,-4.7,-13.1,30.41,NW,315,7.6,7.6,66,0.00,,,0.00,VWS V14.01,2014-01-23 07:12:00,
2014-01-23 01:13:00,-4.7,-13.1,30.41,NW,315,7.6,7.6,66,0.00,,,0.00,VWS V14.01,2014-01-23 07:13:00,
2014-01-23 01:14:00,-4.7,-13.1,30.41,NNW,338,6.0,7.6,66,0.00,,,0.00,VWS V14.01,2014-01-23 07:14:00,
2014-01-23 01:15:00,-4.7,-13.1,30.41,NNW,338,6.0,6.0,66,0.00,,,0.00,VWS V14.01,2014-01-23 07:15:00,
2014-01-23 01:16:00,-4.7,-13.1,30.41,NNW,338,6.0,6.0,66,0.00,,,0.00,VWS V14.01,2014-01-23 07:16:00,
2014-01-23 01:17:00,-4.7,-13.1,30.41,NNW,338,10.2,10.2,66,0.00,,,0.00,VWS V14.01,2014-01-23 07:17:00,
2014-01-23 01:18:00,-4.7,-13.1,30.42,NNW,338,10.2,10.2,66,0.00,,,0.00,VWS V14.01,2014-01-23 07:18:00,
2014-01-23 01:19:00,-4.7,-12.9,30.42,NNW,338,9.8,10.2,67,0.00,,,0.00,VWS V14.01,2014-01-23 07:19:00,
2014-01-23 01:20:00,-4.7,-12.9,30.42,NNW,338,9.8,9.8,67,0.00,,,0.00,VWS V14.01,2014-01-23 07:20:00,
2014-01-23 01:21:00,-4.7,-12.9,30.42,NNW,338,9.8,9.8,67,0.00,,,0.00,VWS V14.01,2014-01-23 07:21:00,
2014-01-23 01:22:00,-4.7,-12.9,30.42,WNW,292,0.0,0.0,67,0.00,,,0.00,VWS V14.01,2014-01-23 07:22:00,
2014-01-23 01:23:00,-4.7,-12.9,30.42,NNE,22,0.0,0.0,67,0.00,,,0.00,VWS V14.01,2014-01-23 07:23:00,
2014-01-23 01:24:00,-4.7,-12.9,30.42,NNE,22,0.0,0.0,67,0.00,,,0.00,VWS V14.01,2014-01-23 07:24:00,
2014-01-23 01:25:00,-4.7,-12.9,30.42,NNW,338,7.8,7.8,67,0.00,,,0.00,VWS V14.01,2014-01-23 07:25:00,
2014-01-23 01:26:00,-4.7,-12.9,30.42,NNW,338,7.8,7.8,67,0.00,,,0.00,VWS V14.01,2014-01-23 07:26:00,
2014-01-23 01:27:00,-4.7,-12.9,30.42,NNW,338,7.8,7.8,67,0.00,,,0.00,VWS V14.01,2014-01-23 07:27:00,
2014-01-23 01:28:00,-4.7,-12.9,30.42,WNW,292,0.0,7.8,67,0.00,,,0.00,VWS V14.01,2014-01-23 07:28:00,
2014-01-23 01:29:00,-4.7,-12.9,30.42,WNW,292,6.4,6.4,67,0.00,,,0.00,VWS V14.01,2014-01-23 07:29:00,
2014-01-23 01:30:00,-4.7,-12.9,30.42,WNW,292,6.4,6.4,67,0.00,,,0.00,VWS V14.01,2014-01-23 07:30:00,
2014-01-23 01:31:00,-4.7,-12.9,30.42,WNW,292,6.4,6.4,67,0.00,,,0.00,VWS V14.01,2014-01-23 07:31:00,
2014-01-23 01:32:00,-4.7,-12.9,30.43,NNW,338,14.5,14.5,67,0.00,,,0.00,VWS V14.01,2014-01-23 07:32:00,
2014-01-23 01:33:00,-4.7,-12.9,30.43,NNW,338,14.5,14.5,67,0.00,,,0.00,VWS V14.01,2014-01-23 07:33:00,
2014-01-23 01:34:00,-4.7,-12.9,30.43,North,0,6.4,14.5,67,0.00,,,0.00,VWS V14.01,2014-01-23 07:34:00,
2014-01-23 01:35:00,-4.7,-12.9,30.43,North,0,6.4,6.4,67,0.00,,,0.00,VWS V14.01,2014-01-23 07:35:00,
2014-01-23 01:36:00,-4.7,-12.9,30.43,North,0,6.4,6.4,67,0.00,,,0.00,VWS V14.01,2014-01-23 07:36:00,
2014-01-23 01:37:00,-4.7,-12.9,30.43,NNW,338,2.9,2.9,67,0.00,,,0.00,VWS V14.01,2014-01-23 07:37:00,
2014-01-23 01:38:00,-4.7,-12.9,30.43,NW,315,6.4,6.4,67,0.00,,,0.00,VWS V14.01,2014-01-23 07:38:00,
2014-01-23 01:39:00,-4.7,-12.9,30.43,NW,315,6.4,6.4,67,0.00,,,0.00,VWS V14.01,2014-01-23 07:39:00,
2014-01-23 01:40:00,-4.7,-12.9,30.43,WNW,292,6.2,6.4,67,0.00,,,0.00,VWS V14.01,2014-01-23 07:40:00,
2014-01-23 01:41:00,-4.7,-12.9,30.43,WNW,292,6.2,6.2,67,0.00,,,0.00,VWS V14.01,2014-01-23 07:41:00,
2014-01-23 01:42:00,-4.7,-12.9,30.43,NNW,338,5.1,6.2,67,0.00,,,0.00,VWS V14.01,2014-01-23 07:42:00,
2014-01-23 01:43:00,-4.7,-12.9,30.43,NNW,338,5.1,5.1,67,0.00,,,0.00,VWS V14.01,2014-01-23 07:43:00,
2014-01-23 01:44:00,-4.7,-12.9,30.43,North,0,5.5,5.5,67,0.00,,,0.00,VWS V14.01,2014-01-23 07:44:00,
2014-01-23 01:45:00,-4.7,-12.9,30.44,North,0,5.5,5.5,67,0.00,,,0.00,VWS V14.01,2014-01-23 07:45:00,
2014-01-23 01:46:00,-4.7,-12.9,30.44,North,0,5.5,5.5,67,0.00,,,0.00,VWS V14.01,2014-01-23 07:46:00,
2014-01-23 01:47:00,-4.7,-12.9,30.43,NNW,338,1.3,1.3,67,0.00,,,0.00,VWS V14.01,2014-01-23 07:47:00,
2014-01-23 01:48:00,-4.7,-12.9,30.43,NNW,338,1.3,1.3,67,0.00,,,0.00,VWS V14.01,2014-01-23 07:48:00,
2014-01-23 01:49:00,-4.9,-13.0,30.43,NW,315,12.0,12.0,67,0.00,,,0.00,VWS V14.01,2014-01-23 07:49:00,
2014-01-23 01:50:00,-4.9,-13.0,30.44,NW,315,12.0,12.0,67,0.00,,,0.00,VWS V14.01,2014-01-23 07:50:00,
2014-01-23 01:51:00,-4.9,-13.0,30.44,NW,315,12.0,12.0,67,0.00,,,0.00,VWS V14.01,2014-01-23 07:51:00,
2014-01-23 01:52:00,-4.7,-12.9,30.44,North,0,0.0,0.0,67,0.00,,,0.00,VWS V14.01,2014-01-23 07:52:00,
2014-01-23 01:53:00,-4.9,-13.0,30.44,North,0,11.6,11.6,67,0.00,,,0.00,VWS V14.01,2014-01-23 07:53:00,
2014-01-23 01:54:00,-4.9,-13.0,30.44,North,0,11.6,11.6,67,0.00,,,0.00,VWS V14.01,2014-01-23 07:54:00,
2014-01-23 01:55:00,-4.9,-13.0,30.44,NNW,338,7.3,11.6,67,0.00,,,0.00,VWS V14.01,2014-01-23 07:55:00,
2014-01-23 01:56:00,-4.9,-13.0,30.44,NNW,338,7.3,7.3,67,0.00,,,0.00,VWS V14.01,2014-01-23 07:56:00,
2014-01-23 01:57:00,-5.0,-13.1,30.44,North,0,4.2,7.3,67,0.00,,,0.00,VWS V14.01,2014-01-23 07:57:00,
2014-01-23 01:58:00,-5.0,-13.1,30.44,North,0,4.2,4.2,67,0.00,,,0.00,VWS V14.01,2014-01-23 07:58:00,
2014-01-23 01:59:00,-5.0,-13.1,30.44,North,0,10.2,10.2,67,0.00,,,0.00,VWS V14.01,2014-01-23 07:59:00,
2014-01-23 02:00:00,-5.0,-13.1,30.44,North,0,10.2,10.2,67,0.00,,,0.00,VWS V14.01,2014-01-23 08:00:00,
2014-01-23 02:01:00,-5.0,-13.1,30.44,North,0,10.2,10.2,67,0.00,,,0.00,VWS V14.01,2014-01-23 08:01:00,
2014-01-23 02:02:00,-5.0,-13.1,30.44,NNE,22,4.9,4.9,67,0.00,,,0.00,VWS V14.01,2014-01-23 08:02:00,
2014-01-23 02:03:00,-5.0,-13.1,30.44,NNE,22,4.9,4.9,67,0.00,,,0.00,VWS V14.01,2014-01-23 08:03:00,
2014-01-23 02:04:00,-5.0,-13.1,30.44,North,0,0.6,4.9,67,0.00,,,0.00,VWS V14.01,2014-01-23 08:04:00,
2014-01-23 02:05:00,-5.0,-13.1,30.44,North,0,0.6,0.6,67,0.00,,,0.00,VWS V14.01,2014-01-23 08:05:00,
2014-01-23 02:06:00,-5.0,-13.1,30.44,North,0,0.6,0.6,67,0.00,,,0.00,VWS V14.01,2014-01-23 08:06:00,
2014-01-23 02:07:00,-5.0,-13.1,30.44,WNW,292,7.1,7.1,67,0.00,,,0.00,VWS V14.01,2014-01-23 08:07:00,
2014-01-23 02:08:00,-4.9,-13.0,30.44,WNW,292,1.3,7.1,67,0.00,,,0.00,VWS V14.01,2014-01-23 08:08:00,
2014-01-23 02:09:00,-4.9,-13.0,30.44,WNW,292,1.3,1.3,67,0.00,,,0.00,VWS V14.01,2014-01-23 08:09:00,
2014-01-23 02:10:00,-5.0,-13.1,30.44,SSW,202,0.6,1.3,67,0.00,,,0.00,VWS V14.01,2014-01-23 08:10:00,
2014-01-23 02:11:00,-5.0,-13.1,30.44,SSW,202,0.6,0.6,67,0.00,,,0.00,VWS V14.01,2014-01-23 08:11:00,
2014-01-23 02:12:00,-5.0,-13.1,30.44,NNW,338,4.2,4.2,67,0.00,,,0.00,VWS V14.01,2014-01-23 08:12:00,
2014-01-23 02:13:00,-5.0,-13.1,30.45,NNW,338,4.2,4.2,67,0.00,,,0.00,VWS V14.01,2014-01-23 08:13:00,
2014-01-23 02:14:00,-5.0,-13.1,30.45,NW,315,5.3,5.3,67,0.00,,,0.00,VWS V14.01,2014-01-23 08:14:00,
2014-01-23 02:15:00,-5.0,-13.1,30.45,NW,315,5.3,5.3,67,0.00,,,0.00,VWS V14.01,2014-01-23 08:15:00,
2014-01-23 02:16:00,-5.0,-13.1,30.45,NW,315,5.3,5.3,67,0.00,,,0.00,VWS V14.01,2014-01-23 08:16:00,
2014-01-23 02:17:00,-5.2,-13.3,30.45,WNW,292,5.5,5.5,67,0.00,,,0.00,VWS V14.01,2014-01-23 08:17:00,
2014-01-23 02:18:00,-5.2,-13.3,30.45,WNW,292,5.5,5.5,67,0.00,,,0.00,VWS V14.01,2014-01-23 08:18:00,
2014-01-23 02:19:00,-5.2,-13.3,30.45,West,270,6.7,6.7,67,0.00,,,0.00,VWS V14.01,2014-01-23 08:19:00,
2014-01-23 02:20:00,-5.2,-13.3,30.45,West,270,6.7,6.7,67,0.00,,,0.00,VWS V14.01,2014-01-23 08:20:00,
2014-01-23 02:21:00,-5.2,-13.3,30.45,West,270,6.7,6.7,67,0.00,,,0.00,VWS V14.01,2014-01-23 08:21:00,
2014-01-23 02:22:00,-5.2,-13.3,30.45,WNW,292,7.3,7.3,67,0.00,,,0.00,VWS V14.01,2014-01-23 08:22:00,
2014-01-23 02:23:00,-5.2,-13.3,30.45,NW,315,1.7,7.3,67,0.00,,,0.00,VWS V14.01,2014-01-23 08:23:00,
2014-01-23 02:24:00,-5.2,-13.3,30.45,NW,315,1.7,1.7,67,0.00,,,0.00,VWS V14.01,2014-01-23 08:24:00,
2014-01-23 02:25:00,-5.2,-13.3,30.45,NW,315,3.8,3.8,67,0.00,,,0.00,VWS V14.01,2014-01-23 08:25:00,
2014-01-23 02:26:00,-5.2,-13.3,30.45,NW,315,3.8,3.8,67,0.00,,,0.00,VWS V14.01,2014-01-23 08:26:00,
2014-01-23 02:27:00,-5.2,-13.3,30.45,NW,315,8.7,8.7,67,0.00,,,0.00,VWS V14.01,2014-01-23 08:27:00,
2014-01-23 02:28:00,-5.2,-13.3,30.45,NW,315,8.7,8.7,67,0.00,,,0.00,VWS V14.01,2014-01-23 08:28:00,
2014-01-23 02:29:00,-5.2,-13.3,30.45,WNW,292,4.6,8.7,67,0.00,,,0.00,VWS V14.01,2014-01-23 08:29:00,
2014-01-23 02:30:00,-5.2,-13.3,30.45,WNW,292,4.6,4.6,67,0.00,,,0.00,VWS V14.01,2014-01-23 08:30:00,
2014-01-23 02:31:00,-5.2,-13.3,30.45,WNW,292,4.6,4.6,67,0.00,,,0.00,VWS V14.01,2014-01-23 08:31:00,
2014-01-23 02:32:00,-5.4,-13.5,30.45,WNW,292,11.8,11.8,67,0.00,,,0.00,VWS V14.01,2014-01-23 08:32:00,
2014-01-23 02:33:00,-5.4,-13.5,30.45,WNW,292,11.8,11.8,67,0.00,,,0.00,VWS V14.01,2014-01-23 08:33:00,
2014-01-23 02:34:00,-5.4,-13.2,30.45,WNW,292,10.9,11.8,68,0.00,,,0.00,VWS V14.01,2014-01-23 08:34:00,
2014-01-23 02:35:00,-5.4,-13.2,30.45,WNW,292,10.9,10.9,68,0.00,,,0.00,VWS V14.01,2014-01-23 08:35:00,
2014-01-23 02:36:00,-5.4,-13.2,30.45,WNW,292,10.9,10.9,68,0.00,,,0.00,VWS V14.01,2014-01-23 08:36:00,
2014-01-23 02:37:00,-5.2,-13.0,30.45,WNW,292,7.8,7.8,68,0.00,,,0.00,VWS V14.01,2014-01-23 08:37:00,
2014-01-23 02:38:00,-5.2,-13.0,30.45,North,0,5.5,7.8,68,0.00,,,0.00,VWS V14.01,2014-01-23 08:38:00,
2014-01-23 02:39:00,-5.2,-13.0,30.45,North,0,5.5,5.5,68,0.00,,,0.00,VWS V14.01,2014-01-23 08:39:00,
2014-01-23 02:40:00,-5.2,-13.0,30.45,WNW,292,9.3,9.3,68,0.00,,,0.00,VWS V14.01,2014-01-23 08:40:00,
2014-01-23 02:41:00,-5.2,-13.0,30.45,WNW,292,9.3,9.3,68,0.00,,,0.00,VWS V14.01,2014-01-23 08:41:00,
2014-01-23 02:42:00,-5.2,-13.0,30.45,WNW,292,4.4,9.3,68,0.00,,,0.00,VWS V14.01,2014-01-23 08:42:00,
2014-01-23 02:43:00,-5.2,-13.0,30.45,WNW,292,4.4,4.4,68,0.00,,,0.00,VWS V14.01,2014-01-23 08:43:00,
2014-01-23 02:44:00,-5.4,-13.2,30.45,WNW,292,5.1,5.1,68,0.00,,,0.00,VWS V14.01,2014-01-23 08:44:00,
2014-01-23 02:45:00,-5.4,-13.2,30.45,WNW,292,5.1,5.1,68,0.00,,,0.00,VWS V14.01,2014-01-23 08:45:00,
2014-01-23 02:46:00,-5.4,-13.2,30.45,WNW,292,5.1,5.1,68,0.00,,,0.00,VWS V14.01,2014-01-23 08:46:00,
2014-01-23 02:47:00,-5.4,-13.2,30.45,North,0,7.3,7.3,68,0.00,,,0.00,VWS V14.01,2014-01-23 08:47:00,
2014-01-23 02:48:00,-5.4,-13.2,30.46,North,0,7.3,7.3,68,0.00,,,0.00,VWS V14.01,2014-01-23 08:48:00,
2014-01-23 02:49:00,-5.4,-13.2,30.46,WNW,292,2.9,7.3,68,0.00,,,0.00,VWS V14.01,2014-01-23 08:49:00,
2014-01-23 02:50:00,-5.4,-13.2,30.45,WNW,292,2.9,2.9,68,0.00,,,0.00,VWS V14.01,2014-01-23 08:50:00,
2014-01-23 02:51:00,-5.4,-13.2,30.45,WNW,292,2.9,2.9,68,0.00,,,0.00,VWS V14.01,2014-01-23 08:51:00,
2014-01-23 02:52:00,-5.4,-13.2,30.46,NW,315,2.0,2.9,68,0.00,,,0.00,VWS V14.01,2014-01-23 08:52:00,
2014-01-23 02:53:00,-5.4,-13.2,30.46,WNW,292,4.9,4.9,68,0.00,,,0.00,VWS V14.01,2014-01-23 08:53:00,
2014-01-23 02:54:00,-5.4,-13.2,30.46,WNW,292,4.9,4.9,68,0.00,,,0.00,VWS V14.01,2014-01-23 08:54:00,
2014-01-23 02:55:00,-5.4,-13.2,30.46,NW,315,0.0,4.9,68,0.00,,,0.00,VWS V14.01,2014-01-23 08:55:00,
2014-01-23 02:56:00,-5.4,-13.2,30.46,NW,315,0.0,0.0,68,0.00,,,0.00,VWS V14.01,2014-01-23 08:56:00,
2014-01-23 02:57:00,-5.4,-13.2,30.46,NNW,338,0.0,0.0,68,0.00,,,0.00,VWS V14.01,2014-01-23 08:57:00,
2014-01-23 02:58:00,-5.4,-13.2,30.46,NNW,338,0.0,0.0,68,0.00,,,0.00,VWS V14.01,2014-01-23 08:58:00,
2014-01-23 02:59:00,-5.4,-13.2,30.47,North,0,0.0,0.0,68,0.00,,,0.00,VWS V14.01,2014-01-23 08:59:00,
2014-01-23 03:00:00,-5.4,-13.2,30.47,North,0,0.0,0.0,68,0.00,,,0.00,VWS V14.01,2014-01-23 09:00:00,
2014-01-23 03:01:00,-5.4,-13.2,30.47,North,0,0.0,0.0,68,0.00,,,0.00,VWS V14.01,2014-01-23 09:01:00,
2014-01-23 03:02:00,-5.6,-13.4,30.47,NNW,338,0.8,0.8,68,0.00,,,0.00,VWS V14.01,2014-01-23 09:02:00,
2014-01-23 03:03:00,-5.6,-13.4,30.47,NNW,338,0.8,0.8,68,0.00,,,0.00,VWS V14.01,2014-01-23 09:03:00,
2014-01-23 03:04:00,-5.6,-13.4,30.47,NW,315,3.8,3.8,68,0.00,,,0.00,VWS V14.01,2014-01-23 09:04:00,
2014-01-23 03:05:00,-5.6,-13.4,30.47,NW,315,3.8,3.8,68,0.00,,,0.00,VWS V14.01,2014-01-23 09:05:00,
2014-01-23 03:06:00,-5.6,-13.4,30.47,NW,315,3.8,3.8,68,0.00,,,0.00,VWS V14.01,2014-01-23 09:06:00,
2014-01-23 03:07:00,-5.6,-13.4,30.47,WNW,292,8.0,8.0,68,0.00,,,0.00,VWS V14.01,2014-01-23 09:07:00,
2014-01-23 03:08:00,-5.6,-13.4,30.47,NW,315,0.0,8.0,68,0.00,,,0.00,VWS V14.01,2014-01-23 09:08:00,
2014-01-23 03:09:00,-5.6,-13.4,30.47,NW,315,0.0,0.0,68,0.00,,,0.00,VWS V14.01,2014-01-23 09:09:00,
2014-01-23 03:10:00,-5.6,-13.4,30.47,WNW,292,5.1,5.1,68,0.00,,,0.00,VWS V14.01,2014-01-23 09:10:00,
2014-01-23 03:11:00,-5.6,-13.4,30.47,WNW,292,5.1,5.1,68,0.00,,,0.00,VWS V14.01,2014-01-23 09:11:00,
2014-01-23 03:12:00,-5.6,-13.4,30.47,North,0,2.4,5.1,68,0.00,,,0.00,VWS V14.01,2014-01-23 09:12:00,
2014-01-23 03:13:00,-5.6,-13.4,30.47,North,0,2.4,2.4,68,0.00,,,0.00,VWS V14.01,2014-01-23 09:13:00,
2014-01-23 03:14:00,-5.8,-13.6,30.47,North,0,3.1,3.1,68,0.00,,,0.00,VWS V14.01,2014-01-23 09:14:00,
2014-01-23 03:15:00,-5.8,-13.6,30.47,North,0,3.1,3.1,68,0.00,,,0.00,VWS V14.01,2014-01-23 09:15:00,
2014-01-23 03:16:00,-5.8,-13.6,30.47,WNW,292,4.6,4.6,68,0.00,,,0.00,VWS V14.01,2014-01-23 09:16:00,
2014-01-23 03:17:00,-5.8,-13.6,30.47,WNW,292,4.6,4.6,68,0.00,,,0.00,VWS V14.01,2014-01-23 09:17:00,
2014-01-23 03:18:00,-5.8,-13.6,30.47,WNW,292,4.6,4.6,68,0.00,,,0.00,VWS V14.01,2014-01-23 09:18:00,
2014-01-23 03:19:00,-5.8,-13.6,30.47,WNW,292,0.0,4.6,68,0.00,,,0.00,VWS V14.01,2014-01-23 09:19:00,
2014-01-23 03:20:00,-5.8,-13.6,30.47,WNW,292,0.0,0.0,68,0.00,,,0.00,VWS V14.01,2014-01-23 09:20:00,
2014-01-23 03:21:00,-5.8,-13.6,30.47,NW,315,3.8,3.8,68,0.00,,,0.00,VWS V14.01,2014-01-23 09:21:00,
2014-01-23 03:22:00,-5.8,-13.6,30.48,NW,315,3.8,3.8,68,0.00,,,0.00,VWS V14.01,2014-01-23 09:22:00,
2014-01-23 03:23:00,-5.8,-13.6,30.48,WNW,292,6.4,6.4,68,0.00,,,0.00,VWS V14.01,2014-01-23 09:23:00,
2014-01-23 03:24:00,-5.8,-13.6,30.48,WNW,292,6.4,6.4,68,0.00,,,0.00,VWS V14.01,2014-01-23 09:24:00,
2014-01-23 03:25:00,-5.8,-13.6,30.48,WNW,292,6.0,6.0,68,0.00,,,0.00,VWS V14.01,2014-01-23 09:25:00,
2014-01-23 03:26:00,-5.8,-13.6,30.48,WNW,292,6.0,6.0,68,0.00,,,0.00,VWS V14.01,2014-01-23 09:26:00,
2014-01-23 03:27:00,-5.6,-13.4,30.48,WNW,292,4.2,6.0,68,0.00,,,0.00,VWS V14.01,2014-01-23 09:27:00,
2014-01-23 03:28:00,-5.6,-13.4,30.48,WNW,292,4.2,4.2,68,0.00,,,0.00,VWS V14.01,2014-01-23 09:28:00,
2014-01-23 03:29:00,-5.6,-13.4,30.48,WNW,292,9.1,9.1,68,0.00,,,0.00,VWS V14.01,2014-01-23 09:29:00,
2014-01-23 03:30:00,-5.6,-13.4,30.48,WNW,292,9.1,9.1,68,0.00,,,0.00,VWS V14.01,2014-01-23 09:30:00,
2014-01-23 03:31:00,-5.6,-13.4,30.48,NW,315,6.9,9.1,68,0.00,,,0.00,VWS V14.01,2014-01-23 09:31:00,
2014-01-23 03:32:00,-5.6,-13.4,30.48,NW,315,6.9,6.9,68,0.00,,,0.00,VWS V14.01,2014-01-23 09:32:00,
2014-01-23 03:33:00,-5.6,-13.4,30.48,NW,315,6.9,6.9,68,0.00,,,0.00,VWS V14.01,2014-01-23 09:33:00,
2014-01-23 03:34:00,-5.8,-13.6,30.48,WNW,292,4.0,6.9,68,0.00,,,0.00,VWS V14.01,2014-01-23 09:34:00,
2014-01-23 03:35:00,-5.8,-13.6,30.48,WNW,292,4.0,4.0,68,0.00,,,0.00,VWS V14.01,2014-01-23 09:35:00,
2014-01-23 03:36:00,-5.8,-13.6,30.48,WNW,292,6.9,6.9,68,0.00,,,0.00,VWS V14.01,2014-01-23 09:36:00,
2014-01-23 03:37:00,-5.8,-13.6,30.48,WNW,292,6.9,6.9,68,0.00,,,0.00,VWS V14.01,2014-01-23 09:37:00,
2014-01-23 03:38:00,-5.8,-13.6,30.48,NW,315,8.0,8.0,68,0.00,,,0.00,VWS V14.01,2014-01-23 09:38:00,
2014-01-23 03:39:00,-5.8,-13.6,30.48,NW,315,8.0,8.0,68,0.00,,,0.00,VWS V14.01,2014-01-23 09:39:00,
2014-01-23 03:40:00,-5.8,-13.6,30.48,WNW,292,3.8,3.8,68,0.00,,,0.00,VWS V14.01,2014-01-23 09:40:00,
2014-01-23 03:41:00,-5.8,-13.6,30.48,WNW,292,3.8,3.8,68,0.00,,,0.00,VWS V14.01,2014-01-23 09:41:00,
2014-01-23 03:42:00,-5.9,-13.7,30.48,NW,315,4.0,4.0,68,0.00,,,0.00,VWS V14.01,2014-01-23 09:42:00,
2014-01-23 03:43:00,-5.9,-13.7,30.48,NW,315,4.0,4.0,68,0.00,,,0.00,VWS V14.01,2014-01-23 09:43:00,
2014-01-23 03:44:00,-5.9,-13.7,30.48,NNE,22,0.0,4.0,68,0.00,,,0.00,VWS V14.01,2014-01-23 09:44:00,
2014-01-23 03:45:00,-5.9,-13.7,30.48,NNE,22,0.0,0.0,68,0.00,,,0.00,VWS V14.01,2014-01-23 09:45:00,
2014-01-23 03:46:00,-5.9,-13.7,30.48,WNW,292,0.0,0.0,68,0.00,,,0.00,VWS V14.01,2014-01-23 09:46:00,
2014-01-23 03:47:00,-5.9,-13.7,30.48,WNW,292,0.0,0.0,68,0.00,,,0.00,VWS V14.01,2014-01-23 09:47:00,
2014-01-23 03:48:00,-5.9,-13.7,30.48,WNW,292,0.0,0.0,68,0.00,,,0.00,VWS V14.01,2014-01-23 09:48:00,
2014-01-23 03:49:00,-5.9,-13.7,30.48,NW,315,5.1,5.1,68,0.00,,,0.00,VWS V14.01,2014-01-23 09:49:00,
2014-01-23 03:50:00,-5.9,-13.7,30.48,NW,315,5.1,5.1,68,0.00,,,0.00,VWS V14.01,2014-01-23 09:50:00,
2014-01-23 03:51:00,-5.9,-13.7,30.48,WNW,292,7.1,7.1,68,0.00,,,0.00,VWS V14.01,2014-01-23 09:51:00,
2014-01-23 03:52:00,-5.9,-13.7,30.48,WNW,292,7.1,7.1,68,0.00,,,0.00,VWS V14.01,2014-01-23 09:52:00,
2014-01-23 03:53:00,-6.1,-13.9,30.48,NW,315,8.0,8.0,68,0.00,,,0.00,VWS V14.01,2014-01-23 09:53:00,
2014-01-23 03:54:00,-6.1,-13.9,30.48,NW,315,8.0,8.0,68,0.00,,,0.00,VWS V14.01,2014-01-23 09:54:00,
2014-01-23 03:55:00,-6.1,-13.6,30.48,WNW,292,8.0,8.0,69,0.00,,,0.00,VWS V14.01,2014-01-23 09:55:00,
2014-01-23 03:56:00,-6.1,-13.6,30.48,WNW,292,8.0,8.0,69,0.00,,,0.00,VWS V14.01,2014-01-23 09:56:00,
2014-01-23 03:57:00,-6.3,-13.8,30.48,WNW,292,9.8,9.8,69,0.00,,,0.00,VWS V14.01,2014-01-23 09:57:00,
2014-01-23 03:58:00,-6.3,-13.8,30.48,WNW,292,9.8,9.8,69,0.00,,,0.00,VWS V14.01,2014-01-23 09:58:00,
2014-01-23 03:59:00,-6.5,-14.0,30.48,WNW,292,8.5,9.8,69,0.00,,,0.00,VWS V14.01,2014-01-23 09:59:00,
2014-01-23 04:00:00,-6.5,-14.0,30.48,WNW,292,8.5,8.5,69,0.00,,,0.00,VWS V14.01,2014-01-23 10:00:00,
2014-01-23 04:01:00,-6.5,-14.0,30.48,WNW,292,8.5,8.5,69,0.00,,,0.00,VWS V14.01,2014-01-23 10:01:00,
2014-01-23 04:02:00,-6.5,-14.0,30.49,WNW,292,8.5,8.5,69,0.00,,,0.00,VWS V14.01,2014-01-23 10:02:00,
2014-01-23 04:03:00,-6.5,-14.0,30.49,WNW,292,8.5,8.5,69,0.00,,,0.00,VWS V14.01,2014-01-23 10:03:00,
2014-01-23 04:04:00,-6.7,-14.2,30.49,WNW,292,6.4,8.5,69,0.00,,,0.00,VWS V14.01,2014-01-23 10:04:00,
2014-01-23 04:05:00,-6.7,-14.2,30.49,WNW,292,6.4,6.4,69,0.00,,,0.00,VWS V14.01,2014-01-23 10:05:00,
2014-01-23 04:06:00,-6.8,-14.3,30.49,WNW,292,4.4,6.4,69,0.00,,,0.00,VWS V14.01,2014-01-23 10:06:00,
2014-01-23 04:07:00,-6.8,-14.3,30.49,WNW,292,4.4,4.4,69,0.00,,,0.00,VWS V14.01,2014-01-23 10:07:00,
2014-01-23 04:08:00,-7.2,-14.7,30.49,West,270,8.7,8.7,69,0.00,,,0.00,VWS V14.01,2014-01-23 10:08:00,
2014-01-23 04:09:00,-7.2,-14.7,30.49,West,270,8.7,8.7,69,0.00,,,0.00,VWS V14.01,2014-01-23 10:09:00,
2014-01-23 04:10:00,-7.4,-14.9,30.49,West,270,10.9,10.9,69,0.00,,,0.00,VWS V14.01,2014-01-23 10:10:00,
2014-01-23 04:11:00,-7.4,-14.9,30.49,West,270,10.9,10.9,69,0.00,,,0.00,VWS V14.01,2014-01-23 10:11:00,
2014-01-23 04:12:00,-7.7,-14.9,30.49,WNW,292,6.9,10.9,70,0.00,,,0.00,VWS V14.01,2014-01-23 10:12:00,
2014-01-23 04:13:00,-7.7,-14.9,30.49,WNW,292,6.9,6.9,70,0.00,,,0.00,VWS V14.01,2014-01-23 10:13:00,
2014-01-23 04:14:00,-7.7,-14.9,30.49,WNW,292,10.0,10.0,70,0.00,,,0.00,VWS V14.01,2014-01-23 10:14:00,
2014-01-23 04:15:00,-7.7,-14.9,30.49,WNW,292,10.0,10.0,70,0.00,,,0.00,VWS V14.01,2014-01-23 10:15:00,
2014-01-23 04:16:00,-7.7,-14.9,30.49,WNW,292,6.7,10.0,70,0.00,,,0.00,VWS V14.01,2014-01-23 10:16:00,
2014-01-23 04:17:00,-7.9,-14.8,30.49,WNW,292,6.7,6.7,71,0.00,,,0.00,VWS V14.01,2014-01-23 10:17:00,
2014-01-23 04:18:00,-7.9,-14.8,30.50,WNW,292,6.7,6.7,71,0.00,,,0.00,VWS V14.01,2014-01-23 10:18:00,
2014-01-23 04:19:00,-7.9,-14.8,30.50,West,270,4.9,6.7,71,0.00,,,0.00,VWS V14.01,2014-01-23 10:19:00,
2014-01-23 04:20:00,-7.9,-14.8,30.50,West,270,4.9,4.9,71,0.00,,,0.00,VWS V14.01,2014-01-23 10:20:00,
2014-01-23 04:21:00,-8.1,-15.0,30.50,WNW,292,11.4,11.4,71,0.00,,,0.00,VWS V14.01,2014-01-23 10:21:00,
2014-01-23 04:22:00,-8.1,-15.0,30.49,WNW,292,11.4,11.4,71,0.00,,,0.00,VWS V14.01,2014-01-23 10:22:00,
2014-01-23 04:23:00,-8.3,-15.2,30.50,WNW,292,5.1,11.4,71,0.00,,,0.00,VWS V14.01,2014-01-23 10:23:00,
2014-01-23 04:24:00,-8.3,-15.2,30.50,WNW,292,5.1,5.1,71,0.00,,,0.00,VWS V14.01,2014-01-23 10:24:00,
2014-01-23 04:25:00,-8.3,-15.2,30.50,WNW,292,7.1,7.1,71,0.00,,,0.00,VWS V14.01,2014-01-23 10:25:00,
2014-01-23 04:26:00,-8.3,-15.2,30.51,WNW,292,7.1,7.1,71,0.00,,,0.00,VWS V14.01,2014-01-23 10:26:00,
2014-01-23 04:27:00,-8.5,-15.4,30.50,WNW,292,10.5,10.5,71,0.00,,,0.00,VWS V14.01,2014-01-23 10:27:00,
2014-01-23 04:28:00,-8.5,-15.4,30.50,WNW,292,10.5,10.5,71,0.00,,,0.00,VWS V14.01,2014-01-23 10:28:00,
2014-01-23 04:29:00,-8.5,-15.1,30.50,WNW,292,3.3,10.5,72,0.00,,,0.00,VWS V14.01,2014-01-23 10:29:00,
2014-01-23 04:30:00,-8.5,-15.1,30.50,WNW,292,3.3,3.3,72,0.00,,,0.00,VWS V14.01,2014-01-23 10:30:00,
2014-01-23 04:31:00,-8.5,-15.1,30.50,WNW,292,3.1,3.3,72,0.00,,,0.00,VWS V14.01,2014-01-23 10:31:00,
2014-01-23 04:32:00,-8.5,-15.1,30.50,WNW,292,3.1,3.1,72,0.00,,,0.00,VWS V14.01,2014-01-23 10:32:00,
2014-01-23 04:33:00,-8.5,-15.1,30.50,WNW,292,3.1,3.1,72,0.00,,,0.00,VWS V14.01,2014-01-23 10:33:00,
2014-01-23 04:34:00,-8.6,-15.2,30.51,WNW,292,5.8,5.8,72,0.00,,,0.00,VWS V14.01,2014-01-23 10:34:00,
2014-01-23 04:35:00,-8.6,-15.2,30.51,WNW,292,5.8,5.8,72,0.00,,,0.00,VWS V14.01,2014-01-23 10:35:00,
2014-01-23 04:36:00,-8.6,-15.2,30.51,WNW,292,10.7,10.7,72,0.00,,,0.00,VWS V14.01,2014-01-23 10:36:00,
2014-01-23 04:37:00,-8.6,-15.2,30.51,WNW,292,10.7,10.7,72,0.00,,,0.00,VWS V14.01,2014-01-23 10:37:00,
2014-01-23 04:38:00,-8.6,-15.2,30.51,WNW,292,8.9,10.7,72,0.00,,,0.00,VWS V14.01,2014-01-23 10:38:00,
2014-01-23 04:39:00,-8.6,-15.2,30.51,WNW,292,8.9,8.9,72,0.00,,,0.00,VWS V14.01,2014-01-23 10:39:00,
2014-01-23 04:40:00,-8.8,-15.4,30.51,WNW,292,11.4,11.4,72,0.00,,,0.00,VWS V14.01,2014-01-23 10:40:00,
2014-01-23 04:41:00,-8.8,-15.4,30.51,WNW,292,11.4,11.4,72,0.00,,,0.00,VWS V14.01,2014-01-23 10:41:00,
2014-01-23 04:42:00,-8.8,-15.4,30.51,WNW,292,7.6,11.4,72,0.00,,,0.00,VWS V14.01,2014-01-23 10:42:00,
2014-01-23 04:43:00,-8.8,-15.4,30.51,WNW,292,7.6,7.6,72,0.00,,,0.00,VWS V14.01,2014-01-23 10:43:00,
2014-01-23 04:44:00,-8.8,-15.4,30.51,West,270,12.0,12.0,72,0.00,,,0.00,VWS V14.01,2014-01-23 10:44:00,
2014-01-23 04:45:00,-8.8,-15.4,30.51,West,270,12.0,12.0,72,0.00,,,0.00,VWS V14.01,2014-01-23 10:45:00,
2014-01-23 04:46:00,-8.8,-15.4,30.51,WNW,292,4.4,12.0,72,0.00,,,0.00,VWS V14.01,2014-01-23 10:46:00,
2014-01-23 04:47:00,-8.8,-15.4,30.51,WNW,292,4.4,4.4,72,0.00,,,0.00,VWS V14.01,2014-01-23 10:47:00,
2014-01-23 04:48:00,-8.8,-15.4,30.51,WNW,292,4.4,4.4,72,0.00,,,0.00,VWS V14.01,2014-01-23 10:48:00,
2014-01-23 04:49:00,-8.8,-15.4,30.51,WNW,292,5.3,5.3,72,0.00,,,0.00,VWS V14.01,2014-01-23 10:49:00,
2014-01-23 04:50:00,-8.8,-15.4,30.51,WNW,292,5.3,5.3,72,0.00,,,0.00,VWS V14.01,2014-01-23 10:50:00,
2014-01-23 04:51:00,-8.8,-15.4,30.51,WNW,292,6.9,6.9,72,0.00,,,0.00,VWS V14.01,2014-01-23 10:51:00,
2014-01-23 04:52:00,-8.8,-15.4,30.52,WNW,292,6.9,6.9,72,0.00,,,0.00,VWS V14.01,2014-01-23 10:52:00,
2014-01-23 04:53:00,-8.6,-15.2,30.51,NW,315,7.1,7.1,72,0.00,,,0.00,VWS V14.01,2014-01-23 10:53:00,
2014-01-23 04:54:00,-8.6,-15.2,30.52,NW,315,7.1,7.1,72,0.00,,,0.00,VWS V14.01,2014-01-23 10:54:00,
2014-01-23 04:55:00,-8.6,-15.2,30.51,WNW,292,7.1,7.1,72,0.00,,,0.00,VWS V14.01,2014-01-23 10:55:00,
2014-01-23 04:56:00,-8.6,-15.2,30.51,WNW,292,7.1,7.1,72,0.00,,,0.00,VWS V14.01,2014-01-23 10:56:00,
2014-01-23 04:57:00,-8.6,-15.2,30.52,WNW,292,8.7,8.7,72,0.00,,,0.00,VWS V14.01,2014-01-23 10:57:00,
2014-01-23 04:58:00,-8.6,-15.2,30.52,WNW,292,8.7,8.7,72,0.00,,,0.00,VWS V14.01,2014-01-23 10:58:00,
2014-01-23 04:59:00,-8.5,-15.1,30.52,WNW,292,8.0,8.7,72,0.00,,,0.00,VWS V14.01,2014-01-23 10:59:00,
2014-01-23 05:00:00,-8.5,-15.1,30.52,WNW,292,8.0,8.0,72,0.00,,,0.00,VWS V14.01,2014-01-23 11:00:00,
2014-01-23 05:01:00,-8.5,-15.1,30.52,WNW,292,8.0,8.0,72,0.00,,,0.00,VWS V14.01,2014-01-23 11:01:00,
2014-01-23 05:02:00,-8.5,-15.1,30.52,WNW,292,8.0,8.0,72,0.00,,,0.00,VWS V14.01,2014-01-23 11:02:00,
2014-01-23 05:03:00,-8.5,-15.1,30.52,WNW,292,8.0,8.0,72,0.00,,,0.00,VWS V14.01,2014-01-23 11:03:00,
2014-01-23 05:04:00,-7.9,-14.5,30.52,WNW,292,10.7,10.7,72,0.00,,,0.00,VWS V14.01,2014-01-23 11:04:00,
2014-01-23 05:05:00,-7.9,-14.5,30.52,WNW,292,10.7,10.7,72,0.00,,,0.00,VWS V14.01,2014-01-23 11:05:00,
2014-01-23 05:06:00,-7.9,-14.5,30.52,WNW,292,7.6,10.7,72,0.00,,,0.00,VWS V14.01,2014-01-23 11:06:00,
2014-01-23 05:07:00,-7.9,-14.5,30.52,WNW,292,7.6,7.6,72,0.00,,,0.00,VWS V14.01,2014-01-23 11:07:00,
2014-01-23 05:08:00,-7.7,-14.6,30.52,NW,315,11.4,11.4,71,0.00,,,0.00,VWS V14.01,2014-01-23 11:08:00,
2014-01-23 05:09:00,-7.7,-14.6,30.52,NW,315,11.4,11.4,71,0.00,,,0.00,VWS V14.01,2014-01-23 11:09:00,
2014-01-23 05:10:00,-7.7,-14.6,30.52,WNW,292,16.7,16.7,71,0.00,,,0.00,VWS V14.01,2014-01-23 11:10:00,
2014-01-23 05:11:00,-7.7,-14.6,30.53,WNW,292,16.7,16.7,71,0.00,,,0.00,VWS V14.01,2014-01-23 11:11:00,
2014-01-23 05:12:00,-7.7,-14.6,30.52,NW,315,5.1,16.7,71,0.00,,,0.00,VWS V14.01,2014-01-23 11:12:00,
2014-01-23 05:13:00,-7.7,-14.6,30.53,NW,315,5.1,5.1,71,0.00,,,0.00,VWS V14.01,2014-01-23 11:13:00,
2014-01-23 05:14:00,-7.7,-14.6,30.53,WNW,292,10.9,10.9,71,0.00,,,0.00,VWS V14.01,2014-01-23 11:14:00,
2014-01-23 05:15:00,-7.7,-14.6,30.52,WNW,292,10.9,10.9,71,0.00,,,0.00,VWS V14.01,2014-01-23 11:15:00,
2014-01-23 05:16:00,-7.7,-14.6,30.52,WNW,292,9.6,10.9,71,0.00,,,0.00,VWS V14.01,2014-01-23 11:16:00,
2014-01-23 05:17:00,-7.7,-14.6,30.52,WNW,292,9.6,9.6,71,0.00,,,0.00,VWS V14.01,2014-01-23 11:17:00,
2014-01-23 05:18:00,-7.7,-14.6,30.52,WNW,292,9.6,9.6,71,0.00,,,0.00,VWS V14.01,2014-01-23 11:18:00,
2014-01-23 05:19:00,-7.7,-14.6,30.53,NW,315,5.1,9.6,71,0.00,,,0.00,VWS V14.01,2014-01-23 11:19:00,
2014-01-23 05:20:00,-7.7,-14.6,30.53,NW,315,5.1,5.1,71,0.00,,,0.00,VWS V14.01,2014-01-23 11:20:00,
2014-01-23 05:21:00,-7.7,-14.6,30.53,NNW,338,5.5,5.5,71,0.00,,,0.00,VWS V14.01,2014-01-23 11:21:00,
2014-01-23 05:22:00,-7.7,-14.6,30.53,NNW,338,5.5,5.5,71,0.00,,,0.00,VWS V14.01,2014-01-23 11:22:00,
2014-01-23 05:23:00,-7.7,-14.6,30.53,WNW,292,14.5,14.5,71,0.00,,,0.00,VWS V14.01,2014-01-23 11:23:00,
2014-01-23 05:24:00,-7.7,-14.6,30.53,WNW,292,14.5,14.5,71,0.00,,,0.00,VWS V14.01,2014-01-23 11:24:00,
2014-01-23 05:25:00,-7.7,-14.6,30.53,NW,315,12.0,12.0,71,0.00,,,0.00,VWS V14.01,2014-01-23 11:25:00,
2014-01-23 05:26:00,-7.7,-14.6,30.53,NW,315,12.0,12.0,71,0.00,,,0.00,VWS V14.01,2014-01-23 11:26:00,
2014-01-23 05:27:00,-7.7,-14.6,30.52,WNW,292,17.2,17.2,71,0.00,,,0.00,VWS V14.01,2014-01-23 11:27:00,
2014-01-23 05:28:00,-7.7,-14.6,30.53,WNW,292,17.2,17.2,71,0.00,,,0.00,VWS V14.01,2014-01-23 11:28:00,
2014-01-23 05:29:00,-7.7,-14.6,30.53,NW,315,5.8,17.2,71,0.00,,,0.00,VWS V14.01,2014-01-23 11:29:00,
2014-01-23 05:30:00,-7.7,-14.6,30.53,NW,315,5.8,5.8,71,0.00,,,0.00,VWS V14.01,2014-01-23 11:30:00,
2014-01-23 05:31:00,-7.7,-14.6,30.53,WNW,292,7.3,7.3,71,0.00,,,0.00,VWS V14.01,2014-01-23 11:31:00,
2014-01-23 05:32:00,-7.7,-14.6,30.53,WNW,292,7.3,7.3,71,0.00,,,0.00,VWS V14.01,2014-01-23 11:32:00,
2014-01-23 05:33:00,-7.7,-14.6,30.53,WNW,292,7.3,7.3,71,0.00,,,0.00,VWS V14.01,2014-01-23 11:33:00,
2014-01-23 05:34:00,-7.7,-14.6,30.53,WNW,292,8.0,8.0,71,0.00,,,0.00,VWS V14.01,2014-01-23 11:34:00,
2014-01-23 05:35:00,-7.7,-14.6,30.53,WNW,292,8.0,8.0,71,0.00,,,0.00,VWS V14.01,2014-01-23 11:35:00,
2014-01-23 05:36:00,-7.7,-14.6,30.53,NNW,338,8.5,8.5,71,0.00,,,0.00,VWS V14.01,2014-01-23 11:36:00,
2014-01-23 05:37:00,-7.7,-14.6,30.53,NNW,338,8.5,8.5,71,0.00,,,0.00,VWS V14.01,2014-01-23 11:37:00,
2014-01-23 05:38:00,-7.7,-14.6,30.54,NW,315,6.2,8.5,71,0.00,,,0.00,VWS V14.01,2014-01-23 11:38:00,
2014-01-23 05:39:00,-7.7,-14.6,30.54,NW,315,6.2,6.2,71,0.00,,,0.00,VWS V14.01,2014-01-23 11:39:00,
2014-01-23 05:40:00,-7.7,-14.6,30.54,NNW,338,10.0,10.0,71,0.00,,,0.00,VWS V14.01,2014-01-23 11:40:00,
2014-01-23 05:41:00,-7.7,-14.6,30.54,NNW,338,10.0,10.0,71,0.00,,,0.00,VWS V14.01,2014-01-23 11:41:00,
2014-01-23 05:42:00,-7.7,-14.6,30.54,NNW,338,8.0,10.0,71,0.00,,,0.00,VWS V14.01,2014-01-23 11:42:00,
2014-01-23 05:43:00,-7.7,-14.6,30.54,NNW,338,8.0,8.0,71,0.00,,,0.00,VWS V14.01,2014-01-23 11:43:00,
2014-01-23 05:44:00,-7.7,-14.6,30.54,WNW,292,10.7,10.7,71,0.00,,,0.00,VWS V14.01,2014-01-23 11:44:00,
2014-01-23 05:45:00,-7.7,-14.6,30.54,WNW,292,10.7,10.7,71,0.00,,,0.00,VWS V14.01,2014-01-23 11:45:00,
2014-01-23 05:46:00,-7.7,-14.6,30.54,WNW,292,2.0,10.7,71,0.00,,,0.00,VWS V14.01,2014-01-23 11:46:00,
2014-01-23 05:47:00,-7.7,-14.6,30.54,WNW,292,2.0,2.0,71,0.00,,,0.00,VWS V14.01,2014-01-23 11:47:00,
2014-01-23 05:48:00,-7.7,-14.6,30.55,WNW,292,10.9,10.9,71,0.00,,,0.00,VWS V14.01,2014-01-23 11:48:00,
2014-01-23 05:49:00,-7.7,-14.6,30.55,WNW,292,10.9,10.9,71,0.00,,,0.00,VWS V14.01,2014-01-23 11:49:00,
2014-01-23 05:50:00,-7.7,-14.6,30.55,WNW,292,10.9,10.9,71,0.00,,,0.00,VWS V14.01,2014-01-23 11:50:00,
2014-01-23 05:51:00,-7.7,-14.6,30.55,NNW,338,4.0,10.9,71,0.00,,,0.00,VWS V14.01,2014-01-23 11:51:00,
2014-01-23 05:52:00,-7.7,-14.6,30.55,NNW,338,4.0,4.0,71,0.00,,,0.00,VWS V14.01,2014-01-23 11:52:00,
2014-01-23 05:53:00,-7.7,-14.6,30.55,WNW,292,12.5,12.5,71,0.00,,,0.00,VWS V14.01,2014-01-23 11:53:00,
2014-01-23 05:54:00,-7.7,-14.6,30.55,WNW,292,12.5,12.5,71,0.00,,,0.00,VWS V14.01,2014-01-23 11:54:00,
2014-01-23 05:55:00,-7.7,-14.6,30.55,WNW,292,3.1,3.1,71,0.00,,,0.00,VWS V14.01,2014-01-23 11:55:00,
2014-01-23 05:56:00,-7.7,-14.6,30.55,WNW,292,3.1,3.1,71,0.00,,,0.00,VWS V14.01,2014-01-23 11:56:00,
2014-01-23 05:57:00,-7.7,-14.6,30.55,NNW,338,10.9,10.9,71,0.00,,,0.00,VWS V14.01,2014-01-23 11:57:00,
2014-01-23 05:58:00,-7.7,-14.6,30.55,NNW,338,10.9,10.9,71,0.00,,,0.00,VWS V14.01,2014-01-23 11:58:00,
2014-01-23 05:59:00,-7.7,-14.6,30.55,WNW,292,2.2,10.9,71,0.00,,,0.00,VWS V14.01,2014-01-23 11:59:00,
2014-01-23 06:00:00,-7.7,-14.6,30.55,WNW,292,2.2,2.2,71,0.00,,,0.00,VWS V14.01,2014-01-23 12:00:00,
2014-01-23 06:01:00,-7.7,-14.6,30.55,WNW,292,2.2,2.2,71,0.00,,,0.00,VWS V14.01,2014-01-23 12:01:00,
2014-01-23 06:02:00,-7.7,-14.6,30.55,WNW,292,2.2,2.2,71,0.00,,,0.00,VWS V14.01,2014-01-23 12:02:00,
2014-01-23 06:03:00,-7.7,-14.6,30.55,NNW,338,0.0,2.2,71,0.00,,,0.00,VWS V14.01,2014-01-23 12:03:00,
2014-01-23 06:04:00,-7.9,-14.8,30.55,WNW,292,11.4,11.4,71,0.00,,,0.00,VWS V14.01,2014-01-23 12:04:00,
2014-01-23 06:05:00,-7.9,-14.8,30.55,WNW,292,11.4,11.4,71,0.00,,,0.00,VWS V14.01,2014-01-23 12:05:00,
2014-01-23 06:06:00,-7.7,-14.6,30.55,NW,315,4.2,11.4,71,0.00,,,0.00,VWS V14.01,2014-01-23 12:06:00,
2014-01-23 06:07:00,-7.7,-14.6,30.55,NW,315,4.2,4.2,71,0.00,,,0.00,VWS V14.01,2014-01-23 12:07:00,
2014-01-23 06:08:00,-7.7,-14.6,30.56,NW,315,5.8,5.8,71,0.00,,,0.00,VWS V14.01,2014-01-23 12:08:00,
2014-01-23 06:09:00,-7.7,-14.6,30.56,NW,315,5.8,5.8,71,0.00,,,0.00,VWS V14.01,2014-01-23 12:09:00,
2014-01-23 06:10:00,-7.9,-14.8,30.56,WSW,248,8.2,8.2,71,0.00,,,0.00,VWS V14.01,2014-01-23 12:10:00,
2014-01-23 06:11:00,-7.9,-14.8,30.56,WSW,248,8.2,8.2,71,0.00,,,0.00,VWS V14.01,2014-01-23 12:11:00,
2014-01-23 06:12:00,-7.9,-14.8,30.56,NW,315,14.5,14.5,71,0.00,,,0.00,VWS V14.01,2014-01-23 12:12:00,
2014-01-23 06:13:00,-7.9,-14.8,30.56,NW,315,14.5,14.5,71,0.00,,,0.00,VWS V14.01,2014-01-23 12:13:00,
2014-01-23 06:14:00,-7.9,-14.8,30.56,NNW,338,4.6,14.5,71,0.00,,,0.00,VWS V14.01,2014-01-23 12:14:00,
2014-01-23 06:15:00,-7.9,-14.8,30.56,NNW,338,4.6,4.6,71,0.00,,,0.00,VWS V14.01,2014-01-23 12:15:00,
2014-01-23 06:16:00,-7.9,-14.8,30.56,WNW,292,5.3,5.3,71,0.00,,,0.00,VWS V14.01,2014-01-23 12:16:00,
2014-01-23 06:17:00,-7.9,-14.8,30.56,WNW,292,5.3,5.3,71,0.00,,,0.00,VWS V14.01,2014-01-23 12:17:00,
2014-01-23 06:18:00,-7.9,-14.8,30.56,NW,315,2.0,5.3,71,0.00,,,0.00,VWS V14.01,2014-01-23 12:18:00,
2014-01-23 06:19:00,-7.9,-14.8,30.57,NW,315,2.0,2.0,71,0.00,,,0.00,VWS V14.01,2014-01-23 12:19:00,
2014-01-23 06:20:00,-7.9,-14.8,30.57,NW,315,2.0,2.0,71,0.00,,,0.00,VWS V14.01,2014-01-23 12:20:00,
2014-01-23 06:21:00,-7.9,-14.8,30.57,WNW,292,1.3,2.0,71,0.00,,,0.00,VWS V14.01,2014-01-23 12:21:00,
2014-01-23 06:22:00,-7.9,-14.8,30.57,WNW,292,1.3,1.3,71,0.00,,,0.00,VWS V14.01,2014-01-23 12:22:00,
2014-01-23 06:23:00,-7.9,-14.8,30.57,WNW,292,5.5,5.5,71,0.00,,,0.00,VWS V14.01,2014-01-23 12:23:00,
2014-01-23 06:24:00,-7.9,-14.8,30.57,WNW,292,5.5,5.5,71,0.00,,,0.00,VWS V14.01,2014-01-23 12:24:00,
2014-01-23 06:25:00,-7.9,-14.8,30.57,NNW,338,8.0,8.0,71,0.00,,,0.00,VWS V14.01,2014-01-23 12:25:00,
2014-01-23 06:26:00,-7.9,-14.8,30.57,NNW,338,8.0,8.0,71,0.00,,,0.00,VWS V14.01,2014-01-23 12:26:00,
2014-01-23 06:27:00,-8.3,-15.2,30.57,NW,315,0.0,8.0,71,0.00,,,0.00,VWS V14.01,2014-01-23 12:27:00,
2014-01-23 06:28:00,-8.3,-15.2,30.57,NW,315,0.0,0.0,71,0.00,,,0.00,VWS V14.01,2014-01-23 12:28:00,
2014-01-23 06:29:00,-8.3,-15.2,30.57,WNW,292,13.4,13.4,71,0.00,,,0.00,VWS V14.01,2014-01-23 12:29:00,
2014-01-23 06:30:00,-8.3,-15.2,30.57,WNW,292,13.4,13.4,71,0.00,,,0.00,VWS V14.01,2014-01-23 12:30:00,
2014-01-23 06:31:00,-8.3,-15.2,30.57,North,0,13.8,13.8,71,0.00,,,0.00,VWS V14.01,2014-01-23 12:31:00,
2014-01-23 06:32:00,-8.3,-15.2,30.57,North,0,13.8,13.8,71,0.00,,,0.00,VWS V14.01,2014-01-23 12:32:00,
2014-01-23 06:33:00,-8.3,-15.2,30.57,North,0,13.8,13.8,71,0.00,,,0.00,VWS V14.01,2014-01-23 12:33:00,
2014-01-23 06:34:00,-8.3,-15.2,30.57,WNW,292,4.2,13.8,71,0.00,,,0.00,VWS V14.01,2014-01-23 12:34:00,
2014-01-23 06:35:00,-8.3,-15.2,30.57,WNW,292,4.2,4.2,71,0.00,,,0.00,VWS V14.01,2014-01-23 12:35:00,
2014-01-23 06:36:00,-8.3,-15.2,30.57,WNW,292,7.8,7.8,71,0.00,,,0.00,VWS V14.01,2014-01-23 12:36:00,
2014-01-23 06:37:00,-8.3,-15.2,30.57,WNW,292,7.8,7.8,71,0.00,,,0.00,VWS V14.01,2014-01-23 12:37:00,
2014-01-23 06:38:00,-8.3,-15.2,30.57,WNW,292,6.2,7.8,71,0.00,,,0.00,VWS V14.01,2014-01-23 12:38:00,
2014-01-23 06:39:00,-8.3,-15.2,30.57,WNW,292,6.2,6.2,71,0.00,,,0.00,VWS V14.01,2014-01-23 12:39:00,
2014-01-23 06:40:00,-8.3,-15.2,30.57,NNW,338,5.1,5.1,71,0.00,,,0.00,VWS V14.01,2014-01-23 12:40:00,
2014-01-23 06:41:00,-8.3,-15.2,30.57,NNW,338,5.1,5.1,71,0.00,,,0.00,VWS V14.01,2014-01-23 12:41:00,
2014-01-23 06:42:00,-8.3,-15.2,30.57,NW,315,3.3,5.1,71,0.00,,,0.00,VWS V14.01,2014-01-23 12:42:00,
2014-01-23 06:43:00,-8.3,-15.2,30.57,NW,315,3.3,3.3,71,0.00,,,0.00,VWS V14.01,2014-01-23 12:43:00,
2014-01-23 06:44:00,-8.3,-15.2,30.57,NW,315,3.3,3.3,71,0.00,,,0.00,VWS V14.01,2014-01-23 12:44:00,
2014-01-23 06:45:00,-8.3,-15.2,30.57,North,0,2.6,2.6,71,0.00,,,0.00,VWS V14.01,2014-01-23 12:45:00,
2014-01-23 06:46:00,-8.3,-15.2,30.58,NW,315,6.4,6.4,71,0.00,,,0.00,VWS V14.01,2014-01-23 12:46:00,
2014-01-23 06:47:00,-8.5,-15.4,30.58,NW,315,6.4,6.4,71,0.00,,,0.00,VWS V14.01,2014-01-23 12:47:00,
2014-01-23 06:48:00,-8.5,-15.4,30.58,WNW,292,0.0,6.4,71,0.00,,,0.00,VWS V14.01,2014-01-23 12:48:00,
2014-01-23 06:49:00,-8.5,-15.4,30.58,WNW,292,0.0,0.0,71,0.00,,,0.00,VWS V14.01,2014-01-23 12:49:00,
2014-01-23 06:50:00,-8.5,-15.4,30.58,WNW,292,0.0,0.0,71,0.00,,,0.00,VWS V14.01,2014-01-23 12:50:00,
2014-01-23 06:51:00,-8.5,-15.4,30.58,NW,315,0.0,0.0,71,0.00,,,0.00,VWS V14.01,2014-01-23 12:51:00,
2014-01-23 06:52:00,-8.5,-15.4,30.58,NW,315,0.0,0.0,71,0.00,,,0.00,VWS V14.01,2014-01-23 12:52:00,
2014-01-23 06:53:00,-8.5,-15.4,30.58,North,0,3.8,3.8,71,0.00,,,0.00,VWS V14.01,2014-01-23 12:53:00,
2014-01-23 06:54:00,-8.5,-15.4,30.59,North,0,3.8,3.8,71,0.00,,,0.00,VWS V14.01,2014-01-23 12:54:00,
2014-01-23 06:55:00,-8.5,-15.4,30.59,NW,315,1.5,1.5,71,0.00,,,0.00,VWS V14.01,2014-01-23 12:55:00,
2014-01-23 06:56:00,-8.5,-15.4,30.59,NW,315,1.5,1.5,71,0.00,,,0.00,VWS V14.01,2014-01-23 12:56:00,
2014-01-23 06:57:00,-8.5,-15.4,30.59,North,0,5.3,5.3,71,0.00,,,0.00,VWS V14.01,2014-01-23 12:57:00,
2014-01-23 06:58:00,-8.5,-15.4,30.59,North,0,5.3,5.3,71,0.00,,,0.00,VWS V14.01,2014-01-23 12:58:00,
2014-01-23 06:59:00,-8.5,-15.4,30.59,North,0,5.3,5.3,71,0.00,,,0.00,VWS V14.01,2014-01-23 12:59:00,
2014-01-23 07:00:00,-8.6,-15.4,30.59,North,0,4.4,4.4,71,0.00,,,0.00,VWS V14.01,2014-01-23 13:00:00,
2014-01-23 07:01:00,-8.6,-15.4,30.59,North,0,4.4,4.4,71,0.00,,,0.00,VWS V14.01,2014-01-23 13:01:00,
2014-01-23 07:02:00,-8.6,-15.4,30.59,WNW,292,3.5,4.4,71,0.00,,,0.00,VWS V14.01,2014-01-23 13:02:00,
2014-01-23 07:03:00,-8.6,-15.4,30.59,WNW,292,3.5,3.5,71,0.00,,,0.00,VWS V14.01,2014-01-23 13:03:00,
2014-01-23 07:04:00,-8.6,-15.4,30.59,NNE,22,0.2,3.5,71,0.00,,,0.00,VWS V14.01,2014-01-23 13:04:00,
2014-01-23 07:05:00,-8.6,-15.4,30.59,NNE,22,0.2,0.2,71,0.00,,,0.00,VWS V14.01,2014-01-23 13:05:00,
2014-01-23 07:06:00,-8.8,-15.6,30.59,WNW,292,3.5,3.5,71,0.00,,,0.00,VWS V14.01,2014-01-23 13:06:00,
2014-01-23 07:07:00,-8.8,-15.6,30.59,WNW,292,3.5,3.5,71,0.00,,,0.00,VWS V14.01,2014-01-23 13:07:00,
2014-01-23 07:08:00,-8.8,-15.6,30.59,North,0,6.9,6.9,71,0.00,,,0.00,VWS V14.01,2014-01-23 13:08:00,
2014-01-23 07:09:00,-8.8,-15.6,30.59,North,0,6.9,6.9,71,0.00,,,0.00,VWS V14.01,2014-01-23 13:09:00,
2014-01-23 07:10:00,-8.8,-15.6,30.59,WNW,292,8.9,8.9,71,0.00,,,0.00,VWS V14.01,2014-01-23 13:10:00,
2014-01-23 07:11:00,-8.8,-15.6,30.59,WNW,292,8.9,8.9,71,0.00,,,0.00,VWS V14.01,2014-01-23 13:11:00,
2014-01-23 07:12:00,-8.8,-15.6,30.59,NNE,22,3.8,8.9,71,0.00,,,0.00,VWS V14.01,2014-01-23 13:12:00,
2014-01-23 07:13:00,-8.8,-15.6,30.59,NNE,22,3.8,3.8,71,0.00,,,0.00,VWS V14.01,2014-01-23 13:13:00,
2014-01-23 07:14:00,-8.8,-15.6,30.59,NNW,338,0.0,3.8,71,0.00,,,0.00,VWS V14.01,2014-01-23 13:14:00,
2014-01-23 07:15:00,-8.8,-15.6,30.59,NNW,338,0.0,0.0,71,0.00,,,0.00,VWS V14.01,2014-01-23 13:15:00,
2014-01-23 07:16:00,-8.8,-15.6,30.59,NW,315,6.2,6.2,71,0.00,,,0.00,VWS V14.01,2014-01-23 13:16:00,
2014-01-23 07:17:00,-8.8,-15.6,30.59,NW,315,6.2,6.2,71,0.00,,,0.00,VWS V14.01,2014-01-23 13:17:00,
2014-01-23 07:18:00,-8.8,-15.6,30.59,NW,315,6.2,6.2,71,0.00,,,0.00,VWS V14.01,2014-01-23 13:18:00,
2014-01-23 07:19:00,-8.8,-15.6,30.59,NW,315,1.7,6.2,71,0.00,,,0.00,VWS V14.01,2014-01-23 13:19:00,
2014-01-23 07:20:00,-8.8,-15.6,30.59,NW,315,1.7,1.7,71,0.00,,,0.00,VWS V14.01,2014-01-23 13:20:00,
2014-01-23 07:21:00,-8.8,-15.6,30.59,WNW,292,2.0,2.0,71,0.00,,,0.00,VWS V14.01,2014-01-23 13:21:00,
2014-01-23 07:22:00,-8.8,-15.6,30.60,WNW,292,2.0,2.0,71,0.00,,,0.00,VWS V14.01,2014-01-23 13:22:00,
2014-01-23 07:23:00,-8.8,-15.6,30.60,NNW,338,13.4,13.4,71,0.00,,,0.00,VWS V14.01,2014-01-23 13:23:00,
2014-01-23 07:24:00,-8.8,-15.6,30.60,NNW,338,13.4,13.4,71,0.00,,,0.00,VWS V14.01,2014-01-23 13:24:00,
2014-01-23 07:25:00,-8.8,-15.6,30.60,WNW,292,2.6,2.6,71,0.00,,,0.00,VWS V14.01,2014-01-23 13:25:00,
2014-01-23 07:26:00,-8.8,-15.6,30.60,WNW,292,2.6,2.6,71,0.00,,,0.00,VWS V14.01,2014-01-23 13:26:00,
2014-01-23 07:27:00,-8.8,-15.6,30.60,NNW,338,12.7,12.7,71,0.00,,,0.00,VWS V14.01,2014-01-23 13:27:00,
2014-01-23 07:28:00,-8.8,-15.6,30.60,NNW,338,12.7,12.7,71,0.00,,,0.00,VWS V14.01,2014-01-23 13:28:00,
2014-01-23 07:29:00,-8.8,-15.6,30.60,ENE,68,1.1,12.7,71,0.00,,,0.00,VWS V14.01,2014-01-23 13:29:00,
2014-01-23 07:30:00,-8.8,-15.6,30.60,ENE,68,1.1,1.1,71,0.00,,,0.00,VWS V14.01,2014-01-23 13:30:00,
2014-01-23 07:31:00,-8.8,-15.6,30.60,NNW,338,5.8,5.8,71,0.00,,,0.00,VWS V14.01,2014-01-23 13:31:00,
2014-01-23 07:32:00,-8.8,-15.6,30.60,NNW,338,5.8,5.8,71,0.00,,,0.00,VWS V14.01,2014-01-23 13:32:00,
2014-01-23 07:33:00,-8.8,-15.6,30.60,NNW,338,11.8,11.8,71,0.00,,,0.00,VWS V14.01,2014-01-23 13:33:00,
2014-01-23 07:34:00,-8.8,-15.6,30.60,NNW,338,11.8,11.8,71,0.00,,,0.00,VWS V14.01,2014-01-23 13:34:00,
2014-01-23 07:35:00,-8.8,-15.6,30.61,NNW,338,11.8,11.8,71,0.00,,,0.00,VWS V14.01,2014-01-23 13:35:00,
2014-01-23 07:36:00,-8.8,-15.6,30.60,WNW,292,6.9,11.8,71,0.00,,,0.00,VWS V14.01,2014-01-23 13:36:00,
2014-01-23 07:37:00,-8.8,-15.6,30.60,WNW,292,6.9,6.9,71,0.00,,,0.00,VWS V14.01,2014-01-23 13:37:00,
2014-01-23 07:38:00,-8.8,-15.6,30.60,WNW,292,1.3,6.9,71,0.00,,,0.00,VWS V14.01,2014-01-23 13:38:00,
2014-01-23 07:39:00,-8.8,-15.6,30.61,WNW,292,1.3,1.3,71,0.00,,,0.00,VWS V14.01,2014-01-23 13:39:00,
2014-01-23 07:40:00,-8.8,-15.6,30.61,NNW,338,0.6,1.3,71,0.00,,,0.00,VWS V14.01,2014-01-23 13:40:00,
2014-01-23 07:41:00,-8.8,-15.6,30.60,NNW,338,0.6,0.6,71,0.00,,,0.00,VWS V14.01,2014-01-23 13:41:00,
2014-01-23 07:42:00,-8.8,-15.6,30.60,North,0,2.6,2.6,71,0.00,,,0.00,VWS V14.01,2014-01-23 13:42:00,
2014-01-23 07:43:00,-8.8,-15.6,30.61,North,0,2.6,2.6,71,0.00,,,0.00,VWS V14.01,2014-01-23 13:43:00,
2014-01-23 07:44:00,-8.8,-15.6,30.60,WNW,292,1.1,2.6,71,0.00,,,0.00,VWS V14.01,2014-01-23 13:44:00,
2014-01-23 07:45:00,-8.8,-15.6,30.61,WNW,292,1.1,1.1,71,0.00,,,0.00,VWS V14.01,2014-01-23 13:45:00,
2014-01-23 07:46:00,-8.8,-15.6,30.61,NNE,22,1.5,1.5,71,0.00,,,0.00,VWS V14.01,2014-01-23 13:46:00,
2014-01-23 07:47:00,-8.8,-15.6,30.61,NNE,22,1.5,1.5,71,0.00,,,0.00,VWS V14.01,2014-01-23 13:47:00,
2014-01-23 07:48:00,-8.8,-15.6,30.61,NNE,22,1.5,1.5,71,0.00,,,0.00,VWS V14.01,2014-01-23 13:48:00,
2014-01-23 07:49:00,-8.8,-15.6,30.61,NNW,338,12.9,12.9,71,0.00,,,0.00,VWS V14.01,2014-01-23 13:49:00,
2014-01-23 07:50:00,-8.8,-15.6,30.61,NNW,338,12.9,12.9,71,0.00,,,0.00,VWS V14.01,2014-01-23 13:50:00,
2014-01-23 07:51:00,-8.8,-15.6,30.61,NW,315,2.9,12.9,71,0.00,,,0.00,VWS V14.01,2014-01-23 13:51:00,
2014-01-23 07:52:00,-8.8,-15.6,30.61,NW,315,2.9,2.9,71,0.00,,,0.00,VWS V14.01,2014-01-23 13:52:00,
2014-01-23 07:53:00,-8.8,-15.6,30.61,WNW,292,6.4,6.4,71,0.00,,,0.00,VWS V14.01,2014-01-23 13:53:00,
2014-01-23 07:54:00,-8.8,-15.6,30.61,WNW,292,6.4,6.4,71,0.00,,,0.00,VWS V14.01,2014-01-23 13:54:00,
2014-01-23 07:55:00,-8.8,-15.6,30.61,NW,315,7.3,7.3,71,0.00,,,0.00,VWS V14.01,2014-01-23 13:55:00,
2014-01-23 07:56:00,-8.8,-15.6,30.61,NW,315,7.3,7.3,71,0.00,,,0.00,VWS V14.01,2014-01-23 13:56:00,
2014-01-23 07:57:00,-8.8,-15.6,30.61,NW,315,4.2,7.3,71,0.00,,,0.00,VWS V14.01,2014-01-23 13:57:00,
2014-01-23 07:58:00,-8.8,-15.6,30.61,NW,315,4.2,4.2,71,0.00,,,0.00,VWS V14.01,2014-01-23 13:58:00,
2014-01-23 07:59:00,-8.8,-15.6,30.61,NW,315,6.7,6.7,71,0.00,,,0.00,VWS V14.01,2014-01-23 13:59:00,
2014-01-23 08:00:00,-8.8,-15.6,30.61,NW,315,6.7,6.7,71,0.00,,,0.00,VWS V14.01,2014-01-23 14:00:00,
2014-01-23 08:01:00,-8.8,-15.6,30.61,NW,315,6.7,6.7,71,0.00,,,0.00,VWS V14.01,2014-01-23 14:01:00,
2014-01-23 08:02:00,-8.8,-15.9,30.62,WNW,292,11.4,11.4,70,0.00,,,0.00,VWS V14.01,2014-01-23 14:02:00,
2014-01-23 08:03:00,-8.8,-15.9,30.62,WNW,292,11.4,11.4,70,0.00,,,0.00,VWS V14.01,2014-01-23 14:03:00,
2014-01-23 08:04:00,-8.8,-15.9,30.62,WNW,292,2.2,11.4,70,0.00,,,0.00,VWS V14.01,2014-01-23 14:04:00,
2014-01-23 08:05:00,-8.8,-15.9,30.62,WNW,292,2.2,2.2,70,0.00,,,0.00,VWS V14.01,2014-01-23 14:05:00,
2014-01-23 08:06:00,-8.6,-15.7,30.62,NNE,22,0.8,2.2,70,0.00,,,0.00,VWS V14.01,2014-01-23 14:06:00,
2014-01-23 08:07:00,-8.6,-15.7,30.62,NNE,22,0.8,0.8,70,0.00,,,0.00,VWS V14.01,2014-01-23 14:07:00,
2014-01-23 08:08:00,-8.6,-15.7,30.62,WNW,292,6.9,6.9,70,0.00,,,0.00,VWS V14.01,2014-01-23 14:08:00,
2014-01-23 08:09:00,-8.6,-15.7,30.62,WNW,292,6.9,6.9,70,0.00,,,0.00,VWS V14.01,2014-01-23 14:09:00,
2014-01-23 08:10:00,-8.6,-15.7,30.62,WNW,292,6.9,6.9,70,0.00,,,0.00,VWS V14.01,2014-01-23 14:10:00,
2014-01-23 08:11:00,-8.6,-15.7,30.62,WNW,292,1.5,1.5,70,0.00,,,0.00,VWS V14.01,2014-01-23 14:11:00,
2014-01-23 08:12:00,-8.6,-15.7,30.62,WNW,292,10.0,10.0,70,0.00,,,0.00,VWS V14.01,2014-01-23 14:12:00,
2014-01-23 08:13:00,-8.6,-15.7,30.62,WNW,292,10.0,10.0,70,0.00,,,0.00,VWS V14.01,2014-01-23 14:13:00,
2014-01-23 08:14:00,-8.6,-15.7,30.62,WNW,292,12.3,12.3,70,0.00,,,0.00,VWS V14.01,2014-01-23 14:14:00,
2014-01-23 08:15:00,-8.6,-15.7,30.62,WNW,292,12.3,12.3,70,0.00,,,0.00,VWS V14.01,2014-01-23 14:15:00,
2014-01-23 08:16:00,-8.6,-15.7,30.62,WNW,292,6.0,12.3,70,0.00,,,0.00,VWS V14.01,2014-01-23 14:16:00,
2014-01-23 08:17:00,-8.5,-15.6,30.62,WNW,292,6.0,6.0,70,0.00,,,0.00,VWS V14.01,2014-01-23 14:17:00,
2014-01-23 08:18:00,-8.5,-15.6,30.62,WNW,292,6.0,6.0,70,0.00,,,0.00,VWS V14.01,2014-01-23 14:18:00,
2014-01-23 08:19:00,-8.5,-15.6,30.63,NW,315,4.0,6.0,70,0.00,,,0.00,VWS V14.01,2014-01-23 14:19:00,
2014-01-23 08:20:00,-8.5,-15.6,30.63,NW,315,4.0,4.0,70,0.00,,,0.00,VWS V14.01,2014-01-23 14:20:00,
2014-01-23 08:21:00,-8.3,-15.4,30.63,NNW,338,10.5,10.5,70,0.00,,,0.00,VWS V14.01,2014-01-23 14:21:00,
2014-01-23 08:22:00,-8.3,-15.4,30.62,NNW,338,10.5,10.5,70,0.00,,,0.00,VWS V14.01,2014-01-23 14:22:00,
2014-01-23 08:23:00,-8.3,-15.4,30.62,North,0,7.6,10.5,70,0.00,,,0.00,VWS V14.01,2014-01-23 14:23:00,
2014-01-23 08:24:00,-8.3,-15.4,30.62,North,0,7.6,7.6,70,0.00,,,0.00,VWS V14.01,2014-01-23 14:24:00,
2014-01-23 08:25:00,-8.3,-15.4,30.62,North,0,7.6,7.6,70,0.00,,,0.00,VWS V14.01,2014-01-23 14:25:00,
2014-01-23 08:26:00,-8.3,-15.4,30.62,NW,315,6.9,6.9,70,0.00,,,0.00,VWS V14.01,2014-01-23 14:26:00,
2014-01-23 08:27:00,-8.3,-15.4,30.62,WNW,292,10.2,10.2,70,0.00,,,0.00,VWS V14.01,2014-01-23 14:27:00,
2014-01-23 08:28:00,-8.3,-15.4,30.63,WNW,292,10.2,10.2,70,0.00,,,0.00,VWS V14.01,2014-01-23 14:28:00,
2014-01-23 08:29:00,-8.3,-15.4,30.62,North,0,0.0,10.2,70,0.00,,,0.00,VWS V14.01,2014-01-23 14:29:00,
2014-01-23 08:30:00,-8.3,-15.4,30.62,North,0,0.0,0.0,70,0.00,,,0.00,VWS V14.01,2014-01-23 14:30:00,
2014-01-23 08:31:00,-8.3,-15.4,30.63,WNW,292,3.8,3.8,70,0.00,,,0.00,VWS V14.01,2014-01-23 14:31:00,
2014-01-23 08:32:00,-7.9,-15.1,30.63,WNW,292,3.8,3.8,70,0.00,,,0.00,VWS V14.01,2014-01-23 14:32:00,
2014-01-23 08:33:00,-7.9,-15.1,30.62,WNW,292,3.8,3.8,70,0.00,,,0.00,VWS V14.01,2014-01-23 14:33:00,
2014-01-23 08:34:00,-6.1,-13.6,30.63,WNW,292,4.6,4.6,69,0.00,,,0.00,VWS V14.01,2014-01-23 14:34:00,
2014-01-23 08:35:00,-6.1,-13.6,30.63,WNW,292,4.6,4.6,69,0.00,,,0.00,VWS V14.01,2014-01-23 14:35:00,
2014-01-23 08:36:00,-4.3,-12.5,30.63,WNW,292,10.2,10.2,67,0.00,,,0.00,VWS V14.01,2014-01-23 14:36:00,
2014-01-23 08:37:00,-4.3,-12.5,30.63,WNW,292,10.2,10.2,67,0.00,,,0.00,VWS V14.01,2014-01-23 14:37:00,
2014-01-23 08:38:00,-3.8,-12.6,30.63,WNW,292,5.3,10.2,65,0.00,,,0.00,VWS V14.01,2014-01-23 14:38:00,
2014-01-23 08:39:00,-3.8,-12.6,30.63,WNW,292,5.3,5.3,65,0.00,,,0.00,VWS V14.01,2014-01-23 14:39:00,
2014-01-23 08:40:00,-3.8,-12.6,30.63,WNW,292,5.3,5.3,65,0.00,,,0.00,VWS V14.01,2014-01-23 14:40:00,
2014-01-23 08:41:00,-3.4,-12.8,30.63,NNE,22,6.7,6.7,63,0.00,,,0.00,VWS V14.01,2014-01-23 14:41:00,
2014-01-23 08:42:00,-3.2,-12.6,30.63,WNW,292,15.8,15.8,63,0.00,,,0.00,VWS V14.01,2014-01-23 14:42:00,
2014-01-23 08:43:00,-3.2,-12.6,30.63,WNW,292,15.8,15.8,63,0.00,,,0.00,VWS V14.01,2014-01-23 14:43:00,
2014-01-23 08:44:00,-3.2,-12.6,30.64,NW,315,14.5,15.8,63,0.00,,,0.00,VWS V14.01,2014-01-23 14:44:00,
2014-01-23 08:45:00,-3.2,-12.6,30.64,NW,315,14.5,14.5,63,0.00,,,0.00,VWS V14.01,2014-01-23 14:45:00,
2014-01-23 08:46:00,-3.2,-13.0,30.64,WNW,292,6.0,14.5,62,0.00,,,0.00,VWS V14.01,2014-01-23 14:46:00,
2014-01-23 08:47:00,-2.9,-13.0,30.64,WNW,292,6.0,6.0,61,0.00,,,0.00,VWS V14.01,2014-01-23 14:47:00,
2014-01-23 08:48:00,-2.9,-13.0,30.64,WNW,292,6.0,6.0,61,0.00,,,0.00,VWS V14.01,2014-01-23 14:48:00,
2014-01-23 08:49:00,-2.7,-12.8,30.64,WNW,292,10.9,10.9,61,0.00,,,0.00,VWS V14.01,2014-01-23 14:49:00,
2014-01-23 08:50:00,-2.7,-12.8,30.64,WNW,292,10.9,10.9,61,0.00,,,0.00,VWS V14.01,2014-01-23 14:50:00,
2014-01-23 08:51:00,-2.5,-12.9,30.64,NW,315,4.6,10.9,60,0.00,,,0.00,VWS V14.01,2014-01-23 14:51:00,
2014-01-23 08:52:00,-2.5,-12.9,30.64,NW,315,4.6,4.6,60,0.00,,,0.00,VWS V14.01,2014-01-23 14:52:00,
2014-01-23 08:53:00,-2.7,-13.1,30.64,WNW,292,4.0,4.6,60,0.00,,,0.00,VWS V14.01,2014-01-23 14:53:00,
2014-01-23 08:54:00,-2.7,-13.1,30.64,WNW,292,4.0,4.0,60,0.00,,,0.00,VWS V14.01,2014-01-23 14:54:00,
2014-01-23 08:55:00,-2.7,-13.1,30.64,WNW,292,4.0,4.0,60,0.00,,,0.00,VWS V14.01,2014-01-23 14:55:00,
2014-01-23 08:56:00,-2.9,-13.3,30.64,WNW,292,6.2,6.2,60,0.00,,,0.00,VWS V14.01,2014-01-23 14:56:00,
2014-01-23 08:57:00,-2.7,-13.1,30.64,WNW,292,7.8,7.8,60,0.00,,,0.00,VWS V14.01,2014-01-23 14:57:00,
2014-01-23 08:58:00,-2.7,-13.1,30.64,WNW,292,7.8,7.8,60,0.00,,,0.00,VWS V14.01,2014-01-23 14:58:00,
2014-01-23 08:59:00,-2.9,-13.3,30.64,North,0,5.1,7.8,60,0.00,,,0.00,VWS V14.01,2014-01-23 14:59:00,
2014-01-23 09:00:00,-2.9,-13.3,30.64,North,0,5.1,5.1,60,0.00,,,0.00,VWS V14.01,2014-01-23 15:00:00,
2014-01-23 09:01:00,-2.9,-13.3,30.65,North,0,5.1,5.1,60,0.00,,,0.00,VWS V14.01,2014-01-23 15:01:00,
2014-01-23 09:02:00,-3.1,-13.5,30.65,NW,315,10.2,10.2,60,0.00,,,0.00,VWS V14.01,2014-01-23 15:02:00,
2014-01-23 09:03:00,-3.1,-13.5,30.65,NW,315,10.2,10.2,60,0.00,,,0.00,VWS V14.01,2014-01-23 15:03:00,
2014-01-23 09:04:00,-2.9,-13.3,30.65,WNW,292,8.7,10.2,60,0.00,,,0.00,VWS V14.01,2014-01-23 15:04:00,
2014-01-23 09:05:00,-2.9,-13.3,30.65,WNW,292,8.7,8.7,60,0.00,,,0.00,VWS V14.01,2014-01-23 15:05:00,
2014-01-23 09:06:00,-2.9,-13.3,30.65,WNW,292,4.2,8.7,60,0.00,,,0.00,VWS V14.01,2014-01-23 15:06:00,
2014-01-23 09:07:00,-2.9,-13.3,30.64,WNW,292,4.2,4.2,60,0.00,,,0.00,VWS V14.01,2014-01-23 15:07:00,
2014-01-23 09:08:00,-3.1,-13.5,30.65,WNW,292,12.5,12.5,60,0.00,,,0.00,VWS V14.01,2014-01-23 15:08:00,
2014-01-23 09:09:00,-3.1,-13.5,30.65,WNW,292,12.5,12.5,60,0.00,,,0.00,VWS V14.01,2014-01-23 15:09:00,
2014-01-23 09:10:00,-3.1,-13.5,30.65,WNW,292,12.5,12.5,60,0.00,,,0.00,VWS V14.01,2014-01-23 15:10:00,
2014-01-23 09:11:00,-3.1,-13.5,30.65,West,270,1.3,1.3,60,0.00,,,0.00,VWS V14.01,2014-01-23 15:11:00,
2014-01-23 09:12:00,-2.7,-13.1,30.64,WNW,292,10.0,10.0,60,0.00,,,0.00,VWS V14.01,2014-01-23 15:12:00,
2014-01-23 09:13:00,-2.7,-13.1,30.65,WNW,292,10.0,10.0,60,0.00,,,0.00,VWS V14.01,2014-01-23 15:13:00,
2014-01-23 09:14:00,-2.7,-13.1,30.65,NW,315,5.5,10.0,60,0.00,,,0.00,VWS V14.01,2014-01-23 15:14:00,
2014-01-23 09:15:00,-2.7,-13.1,30.65,NW,315,5.5,5.5,60,0.00,,,0.00,VWS V14.01,2014-01-23 15:15:00,
2014-01-23 09:16:00,-2.5,-12.9,30.65,WNW,292,7.8,7.8,60,0.00,,,0.00,VWS V14.01,2014-01-23 15:16:00,
2014-01-23 09:17:00,-2.3,-12.8,30.65,WNW,292,7.8,7.8,60,0.00,,,0.00,VWS V14.01,2014-01-23 15:17:00,
2014-01-23 09:18:00,-2.3,-12.8,30.65,WNW,292,7.8,7.8,60,0.00,,,0.00,VWS V14.01,2014-01-23 15:18:00,
2014-01-23 09:19:00,-2.0,-12.5,30.65,NNW,338,2.9,7.8,60,0.00,,,0.00,VWS V14.01,2014-01-23 15:19:00,
2014-01-23 09:20:00,-2.0,-12.5,30.65,NNW,338,2.9,2.9,60,0.00,,,0.00,VWS V14.01,2014-01-23 15:20:00,
2014-01-23 09:21:00,-1.8,-12.3,30.64,NW,315,12.9,12.9,60,0.00,,,0.00,VWS V14.01,2014-01-23 15:21:00,
2014-01-23 09:22:00,-1.8,-12.3,30.64,NW,315,12.9,12.9,60,0.00,,,0.00,VWS V14.01,2014-01-23 15:22:00,
2014-01-23 09:23:00,-2.2,-13.0,30.65,NW,315,9.1,12.9,59,0.00,,,0.00,VWS V14.01,2014-01-23 15:23:00,
2014-01-23 09:24:00,-2.2,-13.0,30.65,NW,315,9.1,9.1,59,0.00,,,0.00,VWS V14.01,2014-01-23 15:24:00,
2014-01-23 09:25:00,-2.2,-13.0,30.65,NW,315,9.1,9.1,59,0.00,,,0.00,VWS V14.01,2014-01-23 15:25:00,
2014-01-23 09:26:00,-1.8,-12.3,30.65,West,270,10.9,10.9,60,0.00,,,0.00,VWS V14.01,2014-01-23 15:26:00,
2014-01-23 09:27:00,-1.6,-12.4,30.65,NNW,338,2.2,10.9,59,0.00,,,0.00,VWS V14.01,2014-01-23 15:27:00,
2014-01-23 09:28:00,-1.6,-12.4,30.65,NNW,338,2.2,2.2,59,0.00,,,0.00,VWS V14.01,2014-01-23 15:28:00,
2014-01-23 09:29:00,-1.4,-12.2,30.66,North,0,11.4,11.4,59,0.00,,,0.00,VWS V14.01,2014-01-23 15:29:00,
2014-01-23 09:30:00,-1.4,-12.2,30.66,North,0,11.4,11.4,59,0.00,,,0.00,VWS V14.01,2014-01-23 15:30:00,
2014-01-23 09:31:00,-1.4,-12.2,30.66,NW,315,3.3,11.4,59,0.00,,,0.00,VWS V14.01,2014-01-23 15:31:00,
2014-01-23 09:32:00,-1.4,-12.2,30.66,NW,315,3.3,3.3,59,0.00,,,0.00,VWS V14.01,2014-01-23 15:32:00,
2014-01-23 09:33:00,-1.4,-12.2,30.66,NW,315,3.3,3.3,59,0.00,,,0.00,VWS V14.01,2014-01-23 15:33:00,
2014-01-23 09:34:00,-1.4,-12.2,30.66,WNW,292,13.6,13.6,59,0.00,,,0.00,VWS V14.01,2014-01-23 15:34:00,
2014-01-23 09:35:00,-1.4,-12.2,30.66,WNW,292,13.6,13.6,59,0.00,,,0.00,VWS V14.01,2014-01-23 15:35:00,
2014-01-23 09:36:00,-1.6,-12.8,30.66,WNW,292,5.8,13.6,58,0.00,,,0.00,VWS V14.01,2014-01-23 15:36:00,
2014-01-23 09:37:00,-1.6,-12.8,30.66,WNW,292,5.8,5.8,58,0.00,,,0.00,VWS V14.01,2014-01-23 15:37:00,
2014-01-23 09:38:00,-1.6,-12.4,30.66,WNW,292,3.8,5.8,59,0.00,,,0.00,VWS V14.01,2014-01-23 15:38:00,
2014-01-23 09:39:00,-1.6,-12.4,30.66,WNW,292,3.8,3.8,59,0.00,,,0.00,VWS V14.01,2014-01-23 15:39:00,
2014-01-23 09:40:00,-1.6,-12.4,30.66,WNW,292,3.8,3.8,59,0.00,,,0.00,VWS V14.01,2014-01-23 15:40:00,
2014-01-23 09:41:00,-1.4,-12.6,30.66,NNW,338,9.3,9.3,58,0.00,,,0.00,VWS V14.01,2014-01-23 15:41:00,
2014-01-23 09:42:00,-1.6,-12.8,30.66,NW,315,14.3,14.3,58,0.00,,,0.00,VWS V14.01,2014-01-23 15:42:00,
2014-01-23 09:43:00,-1.6,-12.8,30.66,NW,315,14.3,14.3,58,0.00,,,0.00,VWS V14.01,2014-01-23 15:43:00,
2014-01-23 09:44:00,-1.6,-12.8,30.66,NW,315,10.5,14.3,58,0.00,,,0.00,VWS V14.01,2014-01-23 15:44:00,
2014-01-23 09:45:00,-1.6,-12.8,30.66,NW,315,10.5,10.5,58,0.00,,,0.00,VWS V14.01,2014-01-23 15:45:00,
2014-01-23 09:46:00,-1.6,-12.8,30.67,NNW,338,8.7,10.5,58,0.00,,,0.00,VWS V14.01,2014-01-23 15:46:00,
2014-01-23 09:47:00,-1.6,-12.8,30.67,NNW,338,8.7,8.7,58,0.00,,,0.00,VWS V14.01,2014-01-23 15:47:00,
2014-01-23 09:48:00,-1.6,-12.8,30.66,NNW,338,8.7,8.7,58,0.00,,,0.00,VWS V14.01,2014-01-23 15:48:00,
2014-01-23 09:49:00,-1.4,-12.6,30.67,North,0,3.3,8.7,58,0.00,,,0.00,VWS V14.01,2014-01-23 15:49:00,
2014-01-23 09:50:00,-1.4,-12.6,30.67,North,0,3.3,3.3,58,0.00,,,0.00,VWS V14.01,2014-01-23 15:50:00,
2014-01-23 09:51:00,-0.9,-12.1,30.67,West,270,8.2,8.2,58,0.00,,,0.00,VWS V14.01,2014-01-23 15:51:00,
2014-01-23 09:52:00,-0.9,-12.1,30.67,West,270,8.2,8.2,58,0.00,,,0.00,VWS V14.01,2014-01-23 15:52:00,
2014-01-23 09:53:00,-0.7,-11.9,30.67,NNW,338,5.5,8.2,58,0.00,,,0.00,VWS V14.01,2014-01-23 15:53:00,
2014-01-23 09:54:00,-0.7,-11.9,30.67,NNW,338,5.5,5.5,58,0.00,,,0.00,VWS V14.01,2014-01-23 15:54:00,
2014-01-23 09:55:00,-0.5,-11.7,30.67,NW,315,9.6,9.6,58,0.00,,,0.00,VWS V14.01,2014-01-23 15:55:00,
2014-01-23 09:56:00,-0.5,-11.7,30.67,NW,315,9.6,9.6,58,0.00,,,0.00,VWS V14.01,2014-01-23 15:56:00,
2014-01-23 09:57:00,-0.2,-11.4,30.67,NNW,338,5.8,9.6,58,0.00,,,0.00,VWS V14.01,2014-01-23 15:57:00,
2014-01-23 09:58:00,-0.2,-11.4,30.67,NNW,338,5.8,5.8,58,0.00,,,0.00,VWS V14.01,2014-01-23 15:58:00,
2014-01-23 09:59:00,-0.2,-11.8,30.67,NNW,338,0.0,0.0,57,0.00,,,0.00,VWS V14.01,2014-01-23 15:59:00,
2014-01-23 10:00:00,0.1,-11.5,30.68,NE,45,6.7,6.7,57,0.00,,,0.00,VWS V14.01,2014-01-23 16:00:00,
2014-01-23 10:01:00,0.1,-11.5,30.67,North,0,10.9,10.9,57,0.00,,,0.00,VWS V14.01,2014-01-23 16:01:00,
2014-01-23 10:02:00,0.3,-11.3,30.67,North,0,10.9,10.9,57,0.00,,,0.00,VWS V14.01,2014-01-23 16:02:00,
2014-01-23 10:03:00,0.3,-11.3,30.67,North,0,10.9,10.9,57,0.00,,,0.00,VWS V14.01,2014-01-23 16:03:00,
2014-01-23 10:04:00,0.3,-11.7,30.68,WNW,292,6.0,6.0,56,0.00,,,0.00,VWS V14.01,2014-01-23 16:04:00,
2014-01-23 10:05:00,0.3,-11.7,30.67,WNW,292,6.0,6.0,56,0.00,,,0.00,VWS V14.01,2014-01-23 16:05:00,
2014-01-23 10:06:00,0.1,-11.9,30.68,NW,315,8.0,8.0,56,0.00,,,0.00,VWS V14.01,2014-01-23 16:06:00,
2014-01-23 10:07:00,0.1,-11.9,30.67,NW,315,8.0,8.0,56,0.00,,,0.00,VWS V14.01,2014-01-23 16:07:00,
2014-01-23 10:08:00,0.1,-11.9,30.67,NW,315,8.0,8.0,56,0.00,,,0.00,VWS V14.01,2014-01-23 16:08:00,
2014-01-23 10:09:00,0.1,-11.9,30.67,NW,315,8.0,8.0,56,0.00,,,0.00,VWS V14.01,2014-01-23 16:09:00,
2014-01-23 10:10:00,0.1,-11.9,30.68,WNW,292,2.0,6.2,56,0.00,,,0.00,VWS V14.01,2014-01-23 16:10:00,
2014-01-23 10:11:00,0.1,-11.9,30.68,WNW,292,2.0,2.0,56,0.00,,,0.00,VWS V14.01,2014-01-23 16:11:00,
2014-01-23 10:12:00,0.5,-11.5,30.68,WNW,292,8.2,8.2,56,0.00,,,0.00,VWS V14.01,2014-01-23 16:12:00,
2014-01-23 10:13:00,0.5,-11.5,30.68,WNW,292,8.2,8.2,56,0.00,,,0.00,VWS V14.01,2014-01-23 16:13:00,
2014-01-23 10:14:00,0.8,-11.2,30.68,NW,315,2.2,2.2,56,0.00,,,0.00,VWS V14.01,2014-01-23 16:14:00,
2014-01-23 10:15:00,0.8,-11.2,30.68,NW,315,2.2,2.2,56,0.00,,,0.00,VWS V14.01,2014-01-23 16:15:00,
2014-01-23 10:16:00,0.8,-11.2,30.68,North,0,0.0,2.2,56,0.00,,,0.00,VWS V14.01,2014-01-23 16:16:00,
2014-01-23 10:17:00,0.8,-11.2,30.68,North,0,0.0,0.0,56,0.00,,,0.00,VWS V14.01,2014-01-23 16:17:00,
2014-01-23 10:18:00,0.8,-11.2,30.68,North,0,0.0,0.0,56,0.00,,,0.00,VWS V14.01,2014-01-23 16:18:00,
2014-01-23 10:19:00,1.2,-10.8,30.68,WNW,292,6.0,6.0,56,0.00,,,0.00,VWS V14.01,2014-01-23 16:19:00,
2014-01-23 10:20:00,1.2,-10.8,30.68,WNW,292,6.0,6.0,56,0.00,,,0.00,VWS V14.01,2014-01-23 16:20:00,
2014-01-23 10:21:00,1.2,-10.8,30.69,NW,315,4.9,6.0,56,0.00,,,0.00,VWS V14.01,2014-01-23 16:21:00,
2014-01-23 10:22:00,1.2,-10.8,30.69,NW,315,4.9,4.9,56,0.00,,,0.00,VWS V14.01,2014-01-23 16:22:00,
2014-01-23 10:23:00,1.2,-11.2,30.69,North,0,7.3,7.3,55,0.00,,,0.00,VWS V14.01,2014-01-23 16:23:00,
2014-01-23 10:24:00,1.2,-11.2,30.69,North,0,7.3,7.3,55,0.00,,,0.00,VWS V14.01,2014-01-23 16:24:00,
2014-01-23 10:25:00,1.4,-10.6,30.69,North,0,0.0,7.3,56,0.00,,,0.00,VWS V14.01,2014-01-23 16:25:00,
2014-01-23 10:26:00,1.4,-10.6,30.69,North,0,0.0,0.0,56,0.00,,,0.00,VWS V14.01,2014-01-23 16:26:00,
2014-01-23 10:27:00,1.2,-11.2,30.69,NW,315,8.7,8.7,55,0.00,,,0.00,VWS V14.01,2014-01-23 16:27:00,
2014-01-23 10:28:00,1.2,-11.2,30.69,NW,315,8.7,8.7,55,0.00,,,0.00,VWS V14.01,2014-01-23 16:28:00,
2014-01-23 10:29:00,1.2,-11.2,30.69,NW,315,4.9,4.9,55,0.00,,,0.00,VWS V14.01,2014-01-23 16:29:00,
2014-01-23 10:30:00,1.4,-11.0,30.69,NW,315,4.9,4.9,55,0.00,,,0.00,VWS V14.01,2014-01-23 16:30:00,
2014-01-23 10:31:00,1.2,-11.6,30.69,WNW,292,3.3,4.9,54,0.00,,,0.00,VWS V14.01,2014-01-23 16:31:00,
2014-01-23 10:32:00,1.2,-11.6,30.69,WNW,292,3.3,3.3,54,0.00,,,0.00,VWS V14.01,2014-01-23 16:32:00,
2014-01-23 10:33:00,1.2,-11.6,30.69,WNW,292,3.3,3.3,54,0.00,,,0.00,VWS V14.01,2014-01-23 16:33:00,
2014-01-23 10:34:00,1.2,-11.2,30.69,WNW,292,11.6,11.6,55,0.00,,,0.00,VWS V14.01,2014-01-23 16:34:00,
2014-01-23 10:35:00,1.2,-11.2,30.69,WNW,292,11.6,11.6,55,0.00,,,0.00,VWS V14.01,2014-01-23 16:35:00,
2014-01-23 10:36:00,1.5,-10.9,30.69,NE,45,6.7,11.6,55,0.00,,,0.00,VWS V14.01,2014-01-23 16:36:00,
2014-01-23 10:37:00,1.5,-10.9,30.69,NE,45,6.7,6.7,55,0.00,,,0.00,VWS V14.01,2014-01-23 16:37:00,
2014-01-23 10:38:00,1.2,-11.2,30.69,NW,315,4.9,6.7,55,0.00,,,0.00,VWS V14.01,2014-01-23 16:38:00,
2014-01-23 10:39:00,1.2,-11.2,30.69,NW,315,4.9,4.9,55,0.00,,,0.00,VWS V14.01,2014-01-23 16:39:00,
2014-01-23 10:40:00,1.2,-11.6,30.69,NNW,338,5.3,5.3,54,0.00,,,0.00,VWS V14.01,2014-01-23 16:40:00,
2014-01-23 10:41:00,1.2,-11.6,30.69,NNW,338,5.3,5.3,54,0.00,,,0.00,VWS V14.01,2014-01-23 16:41:00,
2014-01-23 10:42:00,1.0,-11.8,30.69,West,270,8.9,8.9,54,0.00,,,0.00,VWS V14.01,2014-01-23 16:42:00,
2014-01-23 10:43:00,1.0,-11.8,30.69,West,270,8.9,8.9,54,0.00,,,0.00,VWS V14.01,2014-01-23 16:43:00,
2014-01-23 10:44:00,0.5,-11.9,30.70,WNW,292,6.0,6.0,55,0.00,,,0.00,VWS V14.01,2014-01-23 16:44:00,
2014-01-23 10:45:00,0.5,-11.9,30.70,WNW,292,6.0,6.0,55,0.00,,,0.00,VWS V14.01,2014-01-23 16:45:00,
2014-01-23 10:46:00,0.5,-11.5,30.69,WNW,292,6.0,6.0,56,0.00,,,0.00,VWS V14.01,2014-01-23 16:46:00,
2014-01-23 10:47:00,1.2,-10.8,30.69,WNW,292,4.9,6.0,56,0.00,,,0.00,VWS V14.01,2014-01-23 16:47:00,
2014-01-23 10:48:00,1.2,-10.8,30.70,WNW,292,4.9,4.9,56,0.00,,,0.00,VWS V14.01,2014-01-23 16:48:00,
2014-01-23 10:49:00,1.4,-11.0,30.70,NNW,338,0.8,0.8,55,0.00,,,0.00,VWS V14.01,2014-01-23 16:49:00,
2014-01-23 10:50:00,1.4,-11.0,30.70,NNW,338,0.8,0.8,55,0.00,,,0.00,VWS V14.01,2014-01-23 16:50:00,
2014-01-23 10:51:00,1.7,-10.7,30.69,WNW,292,7.8,7.8,55,0.00,,,0.00,VWS V14.01,2014-01-23 16:51:00,
2014-01-23 10:52:00,1.7,-10.7,30.69,WNW,292,7.8,7.8,55,0.00,,,0.00,VWS V14.01,2014-01-23 16:52:00,
2014-01-23 10:53:00,1.9,-10.5,30.70,East,90,0.0,7.8,55,0.00,,,0.00,VWS V14.01,2014-01-23 16:53:00,
2014-01-23 10:54:00,1.9,-10.5,30.69,East,90,0.0,0.0,55,0.00,,,0.00,VWS V14.01,2014-01-23 16:54:00,
2014-01-23 10:55:00,1.9,-10.5,30.70,NW,315,10.9,10.9,55,0.00,,,0.00,VWS V14.01,2014-01-23 16:55:00,
2014-01-23 10:56:00,1.9,-10.5,30.70,NW,315,10.9,10.9,55,0.00,,,0.00,VWS V14.01,2014-01-23 16:56:00,
2014-01-23 10:57:00,1.5,-11.3,30.70,NW,315,5.8,10.9,54,0.00,,,0.00,VWS V14.01,2014-01-23 16:57:00,
2014-01-23 10:58:00,1.5,-11.3,30.70,NW,315,5.8,5.8,54,0.00,,,0.00,VWS V14.01,2014-01-23 16:58:00,
2014-01-23 10:59:00,1.5,-10.9,30.69,WNW,292,7.1,7.1,55,0.00,,,0.00,VWS V14.01,2014-01-23 16:59:00,
2014-01-23 11:00:00,1.5,-10.9,30.69,WNW,292,7.1,7.1,55,0.00,,,0.00,VWS V14.01,2014-01-23 17:00:00,
2014-01-23 11:01:00,1.5,-10.9,30.70,NW,315,0.0,7.1,55,0.00,,,0.00,VWS V14.01,2014-01-23 17:01:00,
2014-01-23 11:02:00,1.9,-10.5,30.70,NW,315,0.0,0.0,55,0.00,,,0.00,VWS V14.01,2014-01-23 17:02:00,
2014-01-23 11:03:00,1.9,-10.5,30.69,NW,315,0.0,0.0,55,0.00,,,0.00,VWS V14.01,2014-01-23 17:03:00,
2014-01-23 11:04:00,2.1,-10.4,30.70,West,270,6.2,6.2,55,0.00,,,0.00,VWS V14.01,2014-01-23 17:04:00,
2014-01-23 11:05:00,2.1,-10.4,30.69,West,270,6.2,6.2,55,0.00,,,0.00,VWS V14.01,2014-01-23 17:05:00,
2014-01-23 11:06:00,1.9,-10.9,30.69,WNW,292,5.3,6.2,54,0.00,,,0.00,VWS V14.01,2014-01-23 17:06:00,
2014-01-23 11:07:00,1.9,-10.9,30.69,WNW,292,5.3,5.3,54,0.00,,,0.00,VWS V14.01,2014-01-23 17:07:00,
2014-01-23 11:08:00,1.5,-11.3,30.69,WNW,292,3.8,5.3,54,0.00,,,0.00,VWS V14.01,2014-01-23 17:08:00,
2014-01-23 11:09:00,1.5,-11.3,30.69,WNW,292,3.8,3.8,54,0.00,,,0.00,VWS V14.01,2014-01-23 17:09:00,
2014-01-23 11:10:00,1.5,-10.9,30.69,NW,315,4.6,4.6,55,0.00,,,0.00,VWS V14.01,2014-01-23 17:10:00,
2014-01-23 11:11:00,1.5,-10.9,30.69,NW,315,4.6,4.6,55,0.00,,,0.00,VWS V14.01,2014-01-23 17:11:00,
2014-01-23 11:12:00,1.9,-10.5,30.69,North,0,8.0,8.0,55,0.00,,,0.00,VWS V14.01,2014-01-23 17:12:00,
2014-01-23 11:13:00,1.9,-10.5,30.70,North,0,8.0,8.0,55,0.00,,,0.00,VWS V14.01,2014-01-23 17:13:00,
2014-01-23 11:14:00,1.9,-10.5,30.70,WNW,292,6.0,6.0,55,0.00,,,0.00,VWS V14.01,2014-01-23 17:14:00,
2014-01-23 11:15:00,1.7,-11.1,30.69,WNW,292,6.0,6.0,54,0.00,,,0.00,VWS V14.01,2014-01-23 17:15:00,
2014-01-23 11:16:00,1.2,-11.2,30.69,NW,315,7.3,7.3,55,0.00,,,0.00,VWS V14.01,2014-01-23 17:16:00,
2014-01-23 11:17:00,1.2,-11.2,30.69,NW,315,7.3,7.3,55,0.00,,,0.00,VWS V14.01,2014-01-23 17:17:00,
2014-01-23 11:18:00,1.2,-11.2,30.70,NW,315,7.3,7.3,55,0.00,,,0.00,VWS V14.01,2014-01-23 17:18:00,
2014-01-23 11:19:00,1.2,-11.2,30.69,WNW,292,11.6,11.6,55,0.00,,,0.00,VWS V14.01,2014-01-23 17:19:00,
2014-01-23 11:20:00,1.2,-11.2,30.69,WNW,292,11.6,11.6,55,0.00,,,0.00,VWS V14.01,2014-01-23 17:20:00,
2014-01-23 11:21:00,1.7,-10.4,30.69,West,270,1.3,11.6,56,0.00,,,0.00,VWS V14.01,2014-01-23 17:21:00,
2014-01-23 11:22:00,1.7,-10.4,30.69,West,270,1.3,1.3,56,0.00,,,0.00,VWS V14.01,2014-01-23 17:22:00,
2014-01-23 11:23:00,2.3,-10.2,30.69,NW,315,5.8,5.8,55,0.00,,,0.00,VWS V14.01,2014-01-23 17:23:00,
2014-01-23 11:24:00,2.3,-10.2,30.69,NW,315,5.8,5.8,55,0.00,,,0.00,VWS V14.01,2014-01-23 17:24:00,
2014-01-23 11:25:00,2.1,-10.7,30.69,NNW,338,4.6,5.8,54,0.00,,,0.00,VWS V14.01,2014-01-23 17:25:00,
2014-01-23 11:26:00,2.1,-10.7,30.70,NNW,338,4.6,4.6,54,0.00,,,0.00,VWS V14.01,2014-01-23 17:26:00,
2014-01-23 11:27:00,1.4,-11.4,30.70,WNW,292,6.4,6.4,54,0.00,,,0.00,VWS V14.01,2014-01-23 17:27:00,
2014-01-23 11:28:00,1.4,-11.4,30.69,WNW,292,6.4,6.4,54,0.00,,,0.00,VWS V14.01,2014-01-23 17:28:00,
2014-01-23 11:29:00,0.3,-12.0,30.69,WNW,292,5.3,5.3,55,0.00,,,0.00,VWS V14.01,2014-01-23 17:29:00,
2014-01-23 11:30:00,0.3,-12.0,30.69,WNW,292,5.3,5.3,55,0.00,,,0.00,VWS V14.01,2014-01-23 17:30:00,
2014-01-23 11:31:00,0.3,-11.7,30.69,NNW,338,6.9,6.9,56,0.00,,,0.00,VWS V14.01,2014-01-23 17:31:00,
2014-01-23 11:32:00,-0.5,-12.4,30.69,NNW,338,6.9,6.9,56,0.00,,,0.00,VWS V14.01,2014-01-23 17:32:00,
2014-01-23 11:33:00,-0.5,-12.4,30.69,WNW,292,8.9,8.9,56,0.00,,,0.00,VWS V14.01,2014-01-23 17:33:00,
2014-01-23 11:34:00,-0.5,-12.1,30.69,WNW,292,8.9,8.9,57,0.00,,,0.00,VWS V14.01,2014-01-23 17:34:00,
2014-01-23 11:35:00,-0.5,-12.1,30.69,WNW,292,8.9,8.9,57,0.00,,,0.00,VWS V14.01,2014-01-23 17:35:00,
2014-01-23 11:36:00,0.1,-11.5,30.69,WNW,292,10.9,10.9,57,0.00,,,0.00,VWS V14.01,2014-01-23 17:36:00,
2014-01-23 11:37:00,0.1,-11.5,30.69,WNW,292,10.9,10.9,57,0.00,,,0.00,VWS V14.01,2014-01-23 17:37:00,
2014-01-23 11:38:00,0.8,-10.9,30.69,WNW,292,0.0,10.9,57,0.00,,,0.00,VWS V14.01,2014-01-23 17:38:00,
2014-01-23 11:39:00,0.8,-10.9,30.69,WNW,292,0.0,0.0,57,0.00,,,0.00,VWS V14.01,2014-01-23 17:39:00,
2014-01-23 11:40:00,1.4,-10.3,30.69,North,0,9.1,9.1,57,0.00,,,0.00,VWS V14.01,2014-01-23 17:40:00,
2014-01-23 11:41:00,1.4,-10.3,30.69,North,0,9.1,9.1,57,0.00,,,0.00,VWS V14.01,2014-01-23 17:41:00,
2014-01-23 11:42:00,1.9,-10.2,30.69,WNW,292,7.8,9.1,56,0.00,,,0.00,VWS V14.01,2014-01-23 17:42:00,
2014-01-23 11:43:00,1.9,-10.2,30.69,WNW,292,7.8,7.8,56,0.00,,,0.00,VWS V14.01,2014-01-23 17:43:00,
2014-01-23 11:44:00,1.9,-10.5,30.69,West,270,10.9,10.9,55,0.00,,,0.00,VWS V14.01,2014-01-23 17:44:00,
2014-01-23 11:45:00,1.9,-10.5,30.69,West,270,10.9,10.9,55,0.00,,,0.00,VWS V14.01,2014-01-23 17:45:00,
2014-01-23 11:46:00,1.7,-10.7,30.69,West,270,0.0,10.9,55,0.00,,,0.00,VWS V14.01,2014-01-23 17:46:00,
2014-01-23 11:47:00,1.7,-10.7,30.69,West,270,0.0,0.0,55,0.00,,,0.00,VWS V14.01,2014-01-23 17:47:00,
2014-01-23 11:48:00,1.7,-10.7,30.69,WNW,292,15.4,15.4,55,0.00,,,0.00,VWS V14.01,2014-01-23 17:48:00,
2014-01-23 11:49:00,1.9,-10.5,30.69,WNW,292,15.4,15.4,55,0.00,,,0.00,VWS V14.01,2014-01-23 17:49:00,
2014-01-23 11:50:00,1.9,-10.5,30.69,WNW,292,15.4,15.4,55,0.00,,,0.00,VWS V14.01,2014-01-23 17:50:00,
2014-01-23 11:51:00,1.7,-10.7,30.69,WNW,292,12.9,15.4,55,0.00,,,0.00,VWS V14.01,2014-01-23 17:51:00,
2014-01-23 11:52:00,1.7,-10.7,30.69,WNW,292,12.9,12.9,55,0.00,,,0.00,VWS V14.01,2014-01-23 17:52:00,
2014-01-23 11:53:00,1.9,-10.5,30.69,West,270,6.0,12.9,55,0.00,,,0.00,VWS V14.01,2014-01-23 17:53:00,
2014-01-23 11:54:00,1.9,-10.5,30.69,West,270,6.0,6.0,55,0.00,,,0.00,VWS V14.01,2014-01-23 17:54:00,
2014-01-23 11:55:00,2.1,-10.4,30.69,NNW,338,8.5,8.5,55,0.00,,,0.00,VWS V14.01,2014-01-23 17:55:00,
2014-01-23 11:56:00,2.1,-10.4,30.69,NNW,338,8.5,8.5,55,0.00,,,0.00,VWS V14.01,2014-01-23 17:56:00,
2014-01-23 11:57:00,2.4,-10.1,30.69,NNW,338,11.1,11.1,55,0.00,,,0.00,VWS V14.01,2014-01-23 17:57:00,
2014-01-23 11:58:00,2.4,-10.1,30.69,NNW,338,11.1,11.1,55,0.00,,,0.00,VWS V14.01,2014-01-23 17:58:00,
2014-01-23 11:59:00,2.8,-9.7,30.69,WNW,292,10.7,10.7,55,0.00,,,0.00,VWS V14.01,2014-01-23 17:59:00,
2014-01-23 12:00:00,2.8,-9.7,30.69,WNW,292,10.7,10.7,55,0.00,,,0.00,VWS V14.01,2014-01-23 18:00:00,
2014-01-23 12:01:00,2.8,-10.1,30.69,WNW,292,9.1,10.7,54,0.00,,,0.00,VWS V14.01,2014-01-23 18:01:00,
2014-01-23 12:02:00,2.8,-10.1,30.69,WNW,292,9.1,9.1,54,0.00,,,0.00,VWS V14.01,2014-01-23 18:02:00,
2014-01-23 12:03:00,2.8,-10.1,30.69,WNW,292,9.1,9.1,54,0.00,,,0.00,VWS V14.01,2014-01-23 18:03:00,
2014-01-23 12:04:00,2.8,-10.1,30.69,NW,315,5.5,5.5,54,0.00,,,0.00,VWS V14.01,2014-01-23 18:04:00,
2014-01-23 12:05:00,2.8,-10.1,30.69,NW,315,5.5,5.5,54,0.00,,,0.00,VWS V14.01,2014-01-23 18:05:00,
2014-01-23 12:06:00,2.8,-10.1,30.69,WNW,292,6.4,6.4,54,0.00,,,0.00,VWS V14.01,2014-01-23 18:06:00,
2014-01-23 12:07:00,2.8,-10.1,30.69,WNW,292,6.4,6.4,54,0.00,,,0.00,VWS V14.01,2014-01-23 18:07:00,
2014-01-23 12:08:00,2.8,-10.1,30.69,North,0,4.9,6.4,54,0.00,,,0.00,VWS V14.01,2014-01-23 18:08:00,
2014-01-23 12:09:00,2.8,-10.1,30.69,North,0,4.9,4.9,54,0.00,,,0.00,VWS V14.01,2014-01-23 18:09:00,
2014-01-23 12:10:00,3.0,-9.9,30.69,WNW,292,5.1,5.1,54,0.00,,,0.00,VWS V14.01,2014-01-23 18:10:00,
2014-01-23 12:11:00,3.0,-9.9,30.69,WNW,292,5.1,5.1,54,0.00,,,0.00,VWS V14.01,2014-01-23 18:11:00,
2014-01-23 12:12:00,3.0,-9.9,30.69,WNW,292,6.9,6.9,54,0.00,,,0.00,VWS V14.01,2014-01-23 18:12:00,
2014-01-23 12:13:00,3.0,-9.9,30.69,WNW,292,6.9,6.9,54,0.00,,,0.00,VWS V14.01,2014-01-23 18:13:00,
2014-01-23 12:14:00,3.5,-9.4,30.69,WNW,292,5.1,5.1,54,0.00,,,0.00,VWS V14.01,2014-01-23 18:14:00,
2014-01-23 12:15:00,3.5,-9.4,30.69,WNW,292,5.1,5.1,54,0.00,,,0.00,VWS V14.01,2014-01-23 18:15:00,
2014-01-23 12:16:00,3.5,-9.4,30.69,WNW,292,5.1,5.1,54,0.00,,,0.00,VWS V14.01,2014-01-23 18:16:00,
2014-01-23 12:17:00,3.7,-9.2,30.69,West,270,0.0,5.1,54,0.00,,,0.00,VWS V14.01,2014-01-23 18:17:00,
2014-01-23 12:18:00,3.7,-9.2,30.69,NW,315,6.0,6.0,54,0.00,,,0.00,VWS V14.01,2014-01-23 18:18:00,
2014-01-23 12:19:00,4.1,-8.8,30.69,NW,315,6.0,6.0,54,0.00,,,0.00,VWS V14.01,2014-01-23 18:19:00,
2014-01-23 12:20:00,4.1,-8.8,30.69,NW,315,6.0,6.0,54,0.00,,,0.00,VWS V14.01,2014-01-23 18:20:00,
2014-01-23 12:21:00,4.2,-9.1,30.69,NNW,338,0.0,6.0,53,0.00,,,0.00,VWS V14.01,2014-01-23 18:21:00,
2014-01-23 12:22:00,4.2,-9.1,30.70,NNW,338,0.0,0.0,53,0.00,,,0.00,VWS V14.01,2014-01-23 18:22:00,
2014-01-23 12:23:00,4.6,-8.8,30.69,North,0,0.0,0.0,53,0.00,,,0.00,VWS V14.01,2014-01-23 18:23:00,
2014-01-23 12:24:00,4.6,-8.8,30.70,North,0,0.0,0.0,53,0.00,,,0.00,VWS V14.01,2014-01-23 18:24:00,
2014-01-23 12:25:00,5.1,-8.3,30.69,WNW,292,7.1,7.1,53,0.00,,,0.00,VWS V14.01,2014-01-23 18:25:00,
2014-01-23 12:26:00,5.1,-8.3,30.70,WNW,292,7.1,7.1,53,0.00,,,0.00,VWS V14.01,2014-01-23 18:26:00,
2014-01-23 12:27:00,4.4,-9.3,30.69,WNW,292,5.1,7.1,52,0.00,,,0.00,VWS V14.01,2014-01-23 18:27:00,
2014-01-23 12:28:00,4.4,-9.3,30.69,WNW,292,5.1,5.1,52,0.00,,,0.00,VWS V14.01,2014-01-23 18:28:00,
2014-01-23 12:29:00,3.5,-10.2,30.70,WNW,292,5.8,5.8,52,0.00,,,0.00,VWS V14.01,2014-01-23 18:29:00,
2014-01-23 12:30:00,3.5,-10.2,30.70,WNW,292,5.8,5.8,52,0.00,,,0.00,VWS V14.01,2014-01-23 18:30:00,
2014-01-23 12:31:00,3.5,-9.8,30.69,WNW,292,9.3,9.3,53,0.00,,,0.00,VWS V14.01,2014-01-23 18:31:00,
2014-01-23 12:32:00,3.3,-10.0,30.69,WNW,292,9.3,9.3,53,0.00,,,0.00,VWS V14.01,2014-01-23 18:32:00,
2014-01-23 12:33:00,3.3,-9.6,30.69,NW,315,2.4,9.3,54,0.00,,,0.00,VWS V14.01,2014-01-23 18:33:00,
2014-01-23 12:34:00,3.3,-9.6,30.70,NW,315,2.4,2.4,54,0.00,,,0.00,VWS V14.01,2014-01-23 18:34:00,
2014-01-23 12:35:00,3.3,-9.6,30.70,NW,315,2.4,2.4,54,0.00,,,0.00,VWS V14.01,2014-01-23 18:35:00,
2014-01-23 12:36:00,3.9,-9.0,30.69,WNW,292,4.4,4.4,54,0.00,,,0.00,VWS V14.01,2014-01-23 18:36:00,
2014-01-23 12:37:00,3.9,-9.0,30.69,WNW,292,4.4,4.4,54,0.00,,,0.00,VWS V14.01,2014-01-23 18:37:00,
2014-01-23 12:38:00,3.7,-9.6,30.69,WNW,292,11.1,11.1,53,0.00,,,0.00,VWS V14.01,2014-01-23 18:38:00,
2014-01-23 12:39:00,3.7,-9.6,30.69,WNW,292,11.1,11.1,53,0.00,,,0.00,VWS V14.01,2014-01-23 18:39:00,
2014-01-23 12:40:00,3.3,-10.0,30.69,NW,315,6.2,11.1,53,0.00,,,0.00,VWS V14.01,2014-01-23 18:40:00,
2014-01-23 12:41:00,3.3,-10.0,30.69,NW,315,6.2,6.2,53,0.00,,,0.00,VWS V14.01,2014-01-23 18:41:00,
2014-01-23 12:42:00,3.0,-9.9,30.69,WNW,292,4.2,6.2,54,0.00,,,0.00,VWS V14.01,2014-01-23 18:42:00,
2014-01-23 12:43:00,3.0,-9.9,30.69,WNW,292,4.2,4.2,54,0.00,,,0.00,VWS V14.01,2014-01-23 18:43:00,
2014-01-23 12:44:00,3.3,-9.6,30.69,North,0,6.4,6.4,54,0.00,,,0.00,VWS V14.01,2014-01-23 18:44:00,
2014-01-23 12:45:00,3.3,-9.6,30.69,North,0,6.4,6.4,54,0.00,,,0.00,VWS V14.01,2014-01-23 18:45:00,
2014-01-23 12:46:00,3.9,-9.0,30.69,WNW,292,8.9,8.9,54,0.00,,,0.00,VWS V14.01,2014-01-23 18:46:00,
2014-01-23 12:47:00,3.9,-9.0,30.69,WNW,292,8.9,8.9,54,0.00,,,0.00,VWS V14.01,2014-01-23 18:47:00,
2014-01-23 12:48:00,3.9,-9.0,30.69,WNW,292,6.4,8.9,54,0.00,,,0.00,VWS V14.01,2014-01-23 18:48:00,
2014-01-23 12:49:00,3.7,-9.6,30.69,WNW,292,6.4,6.4,53,0.00,,,0.00,VWS V14.01,2014-01-23 18:49:00,
2014-01-23 12:50:00,3.7,-9.6,30.69,WNW,292,6.4,6.4,53,0.00,,,0.00,VWS V14.01,2014-01-23 18:50:00,
2014-01-23 12:51:00,3.9,-9.4,30.69,NW,315,0.0,6.4,53,0.00,,,0.00,VWS V14.01,2014-01-23 18:51:00,
2014-01-23 12:52:00,3.9,-9.4,30.69,NW,315,0.0,0.0,53,0.00,,,0.00,VWS V14.01,2014-01-23 18:52:00,
2014-01-23 12:53:00,4.2,-9.1,30.69,WNW,292,4.6,4.6,53,0.00,,,0.00,VWS V14.01,2014-01-23 18:53:00,
2014-01-23 12:54:00,4.2,-9.1,30.69,WNW,292,4.6,4.6,53,0.00,,,0.00,VWS V14.01,2014-01-23 18:54:00,
2014-01-23 12:55:00,4.1,-9.2,30.69,NW,315,4.9,4.9,53,0.00,,,0.00,VWS V14.01,2014-01-23 18:55:00,
2014-01-23 12:56:00,4.1,-9.2,30.69,NW,315,4.9,4.9,53,0.00,,,0.00,VWS V14.01,2014-01-23 18:56:00,
2014-01-23 12:57:00,4.2,-9.1,30.69,WNW,292,5.8,5.8,53,0.00,,,0.00,VWS V14.01,2014-01-23 18:57:00,
2014-01-23 12:58:00,4.2,-9.1,30.69,WNW,292,5.8,5.8,53,0.00,,,0.00,VWS V14.01,2014-01-23 18:58:00,
2014-01-23 12:59:00,4.4,-8.9,30.69,WNW,292,4.0,5.8,53,0.00,,,0.00,VWS V14.01,2014-01-23 18:59:00,
2014-01-23 13:00:00,4.4,-8.9,30.69,WNW,292,4.0,4.0,53,0.00,,,0.00,VWS V14.01,2014-01-23 19:00:00,
2014-01-23 13:01:00,5.0,-8.4,30.69,NNW,338,0.2,4.0,53,0.00,,,0.00,VWS V14.01,2014-01-23 19:01:00,
2014-01-23 13:02:00,5.0,-8.4,30.69,NNW,338,0.2,0.2,53,0.00,,,0.00,VWS V14.01,2014-01-23 19:02:00,
2014-01-23 13:03:00,5.7,-7.7,30.69,WNW,292,4.0,4.0,53,0.00,,,0.00,VWS V14.01,2014-01-23 19:03:00,
2014-01-23 13:04:00,5.7,-7.7,30.69,WNW,292,4.0,4.0,53,0.00,,,0.00,VWS V14.01,2014-01-23 19:04:00,
2014-01-23 13:05:00,5.3,-8.1,30.69,WNW,292,16.3,16.3,53,0.00,,,0.00,VWS V14.01,2014-01-23 19:05:00,
2014-01-23 13:06:00,5.3,-8.1,30.69,WNW,292,16.3,16.3,53,0.00,,,0.00,VWS V14.01,2014-01-23 19:06:00,
2014-01-23 13:07:00,5.3,-8.1,30.69,WNW,292,16.3,16.3,53,0.00,,,0.00,VWS V14.01,2014-01-23 19:07:00,
2014-01-23 13:08:00,3.7,-10.0,30.68,West,270,7.1,16.3,52,0.00,,,0.00,VWS V14.01,2014-01-23 19:08:00,
2014-01-23 13:09:00,3.7,-10.0,30.68,West,270,7.1,7.1,52,0.00,,,0.00,VWS V14.01,2014-01-23 19:09:00,
2014-01-23 13:10:00,3.0,-9.5,30.68,WNW,292,6.7,7.1,55,0.00,,,0.00,VWS V14.01,2014-01-23 19:10:00,
2014-01-23 13:11:00,3.0,-9.5,30.69,WNW,292,6.7,6.7,55,0.00,,,0.00,VWS V14.01,2014-01-23 19:11:00,
2014-01-23 13:12:00,2.8,-9.7,30.69,WSW,248,5.5,6.7,55,0.00,,,0.00,VWS V14.01,2014-01-23 19:12:00,
2014-01-23 13:13:00,2.8,-9.7,30.69,WSW,248,5.5,5.5,55,0.00,,,0.00,VWS V14.01,2014-01-23 19:13:00,
2014-01-23 13:14:00,1.9,-10.2,30.68,WNW,292,4.4,5.5,56,0.00,,,0.00,VWS V14.01,2014-01-23 19:14:00,
2014-01-23 13:15:00,1.9,-10.2,30.69,WNW,292,4.4,4.4,56,0.00,,,0.00,VWS V14.01,2014-01-23 19:15:00,
2014-01-23 13:16:00,2.1,-9.6,30.69,WNW,292,5.3,5.3,57,0.00,,,0.00,VWS V14.01,2014-01-23 19:16:00,
2014-01-23 13:17:00,2.1,-9.6,30.69,WNW,292,5.3,5.3,57,0.00,,,0.00,VWS V14.01,2014-01-23 19:17:00,
2014-01-23 13:18:00,2.4,-9.3,30.69,WNW,292,2.2,5.3,57,0.00,,,0.00,VWS V14.01,2014-01-23 19:18:00,
2014-01-23 13:19:00,2.4,-9.3,30.69,WNW,292,2.2,2.2,57,0.00,,,0.00,VWS V14.01,2014-01-23 19:19:00,
2014-01-23 13:20:00,2.4,-9.3,30.69,WNW,292,4.2,4.2,57,0.00,,,0.00,VWS V14.01,2014-01-23 19:20:00,
2014-01-23 13:21:00,2.6,-9.1,30.69,WNW,292,4.2,4.2,57,0.00,,,0.00,VWS V14.01,2014-01-23 19:21:00,
2014-01-23 13:22:00,2.6,-9.1,30.69,WNW,292,4.2,4.2,57,0.00,,,0.00,VWS V14.01,2014-01-23 19:22:00,
2014-01-23 13:23:00,2.4,-9.3,30.69,WNW,292,5.5,5.5,57,0.00,,,0.00,VWS V14.01,2014-01-23 19:23:00,
2014-01-23 13:24:00,2.4,-9.3,30.69,WNW,292,5.5,5.5,57,0.00,,,0.00,VWS V14.01,2014-01-23 19:24:00,
2014-01-23 13:25:00,2.3,-9.4,30.69,West,270,5.3,5.5,57,0.00,,,0.00,VWS V14.01,2014-01-23 19:25:00,
2014-01-23 13:26:00,2.3,-9.4,30.69,West,270,5.3,5.3,57,0.00,,,0.00,VWS V14.01,2014-01-23 19:26:00,
2014-01-23 13:27:00,1.9,-9.5,30.69,WNW,292,5.5,5.5,58,0.00,,,0.00,VWS V14.01,2014-01-23 19:27:00,
2014-01-23 13:28:00,1.9,-9.5,30.69,WNW,292,5.5,5.5,58,0.00,,,0.00,VWS V14.01,2014-01-23 19:28:00,
2014-01-23 13:29:00,1.5,-9.8,30.69,WNW,292,4.9,5.5,58,0.00,,,0.00,VWS V14.01,2014-01-23 19:29:00,
2014-01-23 13:30:00,1.5,-9.8,30.69,WNW,292,4.9,4.9,58,0.00,,,0.00,VWS V14.01,2014-01-23 19:30:00,
2014-01-23 13:31:00,1.5,-9.5,30.69,WNW,292,14.3,14.3,59,0.00,,,0.00,VWS V14.01,2014-01-23 19:31:00,
2014-01-23 13:32:00,1.5,-9.5,30.69,WNW,292,14.3,14.3,59,0.00,,,0.00,VWS V14.01,2014-01-23 19:32:00,
2014-01-23 13:33:00,1.2,-9.8,30.69,WNW,292,10.0,14.3,59,0.00,,,0.00,VWS V14.01,2014-01-23 19:33:00,
2014-01-23 13:34:00,1.2,-9.8,30.69,WNW,292,10.0,10.0,59,0.00,,,0.00,VWS V14.01,2014-01-23 19:34:00,
2014-01-23 13:35:00,1.2,-9.8,30.69,WNW,292,8.0,10.0,59,0.00,,,0.00,VWS V14.01,2014-01-23 19:35:00,
2014-01-23 13:36:00,0.8,-10.2,30.69,WNW,292,8.0,8.0,59,0.00,,,0.00,VWS V14.01,2014-01-23 19:36:00,
2014-01-23 13:37:00,0.8,-10.2,30.69,WNW,292,8.0,8.0,59,0.00,,,0.00,VWS V14.01,2014-01-23 19:37:00,
2014-01-23 13:38:00,1.2,-9.4,30.69,WNW,292,16.5,16.5,60,0.00,,,0.00,VWS V14.01,2014-01-23 19:38:00,
2014-01-23 13:39:00,1.2,-9.4,30.69,WNW,292,16.5,16.5,60,0.00,,,0.00,VWS V14.01,2014-01-23 19:39:00,
2014-01-23 13:40:00,1.0,-10.0,30.69,West,270,5.3,16.5,59,0.00,,,0.00,VWS V14.01,2014-01-23 19:40:00,
2014-01-23 13:41:00,1.0,-10.0,30.69,West,270,5.3,5.3,59,0.00,,,0.00,VWS V14.01,2014-01-23 19:41:00,
2014-01-23 13:42:00,1.2,-9.4,30.69,WNW,292,4.2,5.3,60,0.00,,,0.00,VWS V14.01,2014-01-23 19:42:00,
2014-01-23 13:43:00,1.2,-9.4,30.69,WNW,292,4.2,4.2,60,0.00,,,0.00,VWS V14.01,2014-01-23 19:43:00,
2014-01-23 13:44:00,1.9,-9.1,30.69,West,270,4.9,4.9,59,0.00,,,0.00,VWS V14.01,2014-01-23 19:44:00,
2014-01-23 13:45:00,1.9,-9.1,30.69,West,270,4.9,4.9,59,0.00,,,0.00,VWS V14.01,2014-01-23 19:45:00,
2014-01-23 13:46:00,1.7,-9.3,30.69,WNW,292,7.1,7.1,59,0.00,,,0.00,VWS V14.01,2014-01-23 19:46:00,
2014-01-23 13:47:00,1.7,-9.3,30.69,WNW,292,7.1,7.1,59,0.00,,,0.00,VWS V14.01,2014-01-23 19:47:00,
2014-01-23 13:48:00,1.2,-9.8,30.69,WNW,292,5.5,7.1,59,0.00,,,0.00,VWS V14.01,2014-01-23 19:48:00,
2014-01-23 13:49:00,1.2,-9.8,30.69,WNW,292,5.5,5.5,59,0.00,,,0.00,VWS V14.01,2014-01-23 19:49:00,
2014-01-23 13:50:00,1.2,-9.8,30.69,WNW,292,8.2,8.2,59,0.00,,,0.00,VWS V14.01,2014-01-23 19:50:00,
2014-01-23 13:51:00,1.2,-9.8,30.69,WNW,292,8.2,8.2,59,0.00,,,0.00,VWS V14.01,2014-01-23 19:51:00,
2014-01-23 13:52:00,1.2,-9.8,30.69,WNW,292,8.2,8.2,59,0.00,,,0.00,VWS V14.01,2014-01-23 19:52:00,
2014-01-23 13:53:00,0.8,-10.2,30.69,WNW,292,7.3,8.2,59,0.00,,,0.00,VWS V14.01,2014-01-23 19:53:00,
2014-01-23 13:54:00,0.8,-10.2,30.69,WNW,292,7.3,7.3,59,0.00,,,0.00,VWS V14.01,2014-01-23 19:54:00,
2014-01-23 13:55:00,0.5,-10.1,30.69,WNW,292,9.1,9.1,60,0.00,,,0.00,VWS V14.01,2014-01-23 19:55:00,
2014-01-23 13:56:00,0.5,-10.1,30.69,WNW,292,9.1,9.1,60,0.00,,,0.00,VWS V14.01,2014-01-23 19:56:00,
2014-01-23 13:57:00,0.1,-10.5,30.69,WNW,292,14.3,14.3,60,0.00,,,0.00,VWS V14.01,2014-01-23 19:57:00,
2014-01-23 13:58:00,0.1,-10.5,30.69,WNW,292,14.3,14.3,60,0.00,,,0.00,VWS V14.01,2014-01-23 19:58:00,
2014-01-23 13:59:00,0.1,-10.5,30.69,WNW,292,14.3,14.3,60,0.00,,,0.00,VWS V14.01,2014-01-23 19:59:00,
2014-01-23 14:00:00,0.1,-10.5,30.69,WNW,292,14.3,14.3,60,0.00,,,0.00,VWS V14.01,2014-01-23 20:00:00,
2014-01-23 14:01:00,0.1,-10.5,30.69,WNW,292,14.3,14.3,60,0.00,,,0.00,VWS V14.01,2014-01-23 20:01:00,
2014-01-23 14:02:00,0.1,-10.5,30.69,WNW,292,14.3,14.3,60,0.00,,,0.00,VWS V14.01,2014-01-23 20:02:00,
2014-01-23 14:03:00,0.1,-10.5,30.69,WNW,292,14.3,14.3,60,0.00,,,0.00,VWS V14.01,2014-01-23 20:03:00,
2014-01-23 14:04:00,0.3,-9.6,30.68,WNW,292,10.9,10.9,62,0.00,,,0.00,VWS V14.01,2014-01-23 20:04:00,
2014-01-23 14:05:00,0.3,-10.0,30.68,West,270,6.7,10.9,61,0.00,,,0.00,VWS V14.01,2014-01-23 20:05:00,
2014-01-23 14:06:00,0.3,-10.0,30.68,West,270,6.7,6.7,61,0.00,,,0.00,VWS V14.01,2014-01-23 20:06:00,
2014-01-23 14:07:00,0.3,-10.0,30.68,West,270,6.7,6.7,61,0.00,,,0.00,VWS V14.01,2014-01-23 20:07:00,
2014-01-23 14:08:00,0.3,-10.0,30.68,WNW,292,14.5,14.5,61,0.00,,,0.00,VWS V14.01,2014-01-23 20:08:00,
2014-01-23 14:09:00,0.3,-10.0,30.68,WNW,292,14.5,14.5,61,0.00,,,0.00,VWS V14.01,2014-01-23 20:09:00,
2014-01-23 14:10:00,0.5,-9.8,30.68,West,270,9.8,14.5,61,0.00,,,0.00,VWS V14.01,2014-01-23 20:10:00,
2014-01-23 14:11:00,0.5,-9.8,30.68,West,270,9.8,9.8,61,0.00,,,0.00,VWS V14.01,2014-01-23 20:11:00,
2014-01-23 14:12:00,0.6,-9.7,30.68,WNW,292,10.9,10.9,61,0.00,,,0.00,VWS V14.01,2014-01-23 20:12:00,
2014-01-23 14:13:00,0.6,-9.7,30.68,WNW,292,10.9,10.9,61,0.00,,,0.00,VWS V14.01,2014-01-23 20:13:00,
2014-01-23 14:14:00,0.5,-9.8,30.68,WNW,292,14.0,14.0,61,0.00,,,0.00,VWS V14.01,2014-01-23 20:14:00,
2014-01-23 14:15:00,0.5,-9.8,30.68,WNW,292,14.0,14.0,61,0.00,,,0.00,VWS V14.01,2014-01-23 20:15:00,
2014-01-23 14:16:00,0.3,-10.0,30.68,West,270,6.0,14.0,61,0.00,,,0.00,VWS V14.01,2014-01-23 20:16:00,
2014-01-23 14:17:00,0.3,-10.0,30.68,West,270,6.0,6.0,61,0.00,,,0.00,VWS V14.01,2014-01-23 20:17:00,
2014-01-23 14:18:00,0.3,-10.0,30.68,West,270,6.0,6.0,61,0.00,,,0.00,VWS V14.01,2014-01-23 20:18:00,
2014-01-23 14:19:00,0.6,-9.7,30.68,WNW,292,6.9,6.9,61,0.00,,,0.00,VWS V14.01,2014-01-23 20:19:00,
2014-01-23 14:20:00,0.6,-10.0,30.68,WNW,292,5.1,6.9,60,0.00,,,0.00,VWS V14.01,2014-01-23 20:20:00,
2014-01-23 14:21:00,0.3,-10.3,30.68,WNW,292,5.1,5.1,60,0.00,,,0.00,VWS V14.01,2014-01-23 20:21:00,
2014-01-23 14:22:00,0.3,-10.3,30.69,WNW,292,5.1,5.1,60,0.00,,,0.00,VWS V14.01,2014-01-23 20:22:00,
2014-01-23 14:23:00,0.1,-10.1,30.68,WNW,292,7.6,7.6,61,0.00,,,0.00,VWS V14.01,2014-01-23 20:23:00,
2014-01-23 14:24:00,0.1,-10.1,30.69,WNW,292,7.6,7.6,61,0.00,,,0.00,VWS V14.01,2014-01-23 20:24:00,
2014-01-23 14:25:00,0.3,-10.0,30.69,West,270,7.6,7.6,61,0.00,,,0.00,VWS V14.01,2014-01-23 20:25:00,
2014-01-23 14:26:00,0.3,-10.0,30.69,West,270,7.6,7.6,61,0.00,,,0.00,VWS V14.01,2014-01-23 20:26:00,
2014-01-23 14:27:00,0.5,-9.8,30.68,WNW,292,14.0,14.0,61,0.00,,,0.00,VWS V14.01,2014-01-23 20:27:00,
2014-01-23 14:28:00,0.5,-9.8,30.68,WNW,292,14.0,14.0,61,0.00,,,0.00,VWS V14.01,2014-01-23 20:28:00,
2014-01-23 14:29:00,0.3,-10.0,30.68,WNW,292,6.2,14.0,61,0.00,,,0.00,VWS V14.01,2014-01-23 20:29:00,
2014-01-23 14:30:00,0.3,-10.0,30.68,WNW,292,6.2,6.2,61,0.00,,,0.00,VWS V14.01,2014-01-23 20:30:00,
2014-01-23 14:31:00,-0.2,-10.4,30.68,NW,315,2.9,6.2,61,0.00,,,0.00,VWS V14.01,2014-01-23 20:31:00,
2014-01-23 14:32:00,-0.2,-10.4,30.69,NW,315,2.9,2.9,61,0.00,,,0.00,VWS V14.01,2014-01-23 20:32:00,
2014-01-23 14:33:00,-0.2,-10.1,30.69,WNW,292,10.9,10.9,62,0.00,,,0.00,VWS V14.01,2014-01-23 20:33:00,
2014-01-23 14:34:00,-0.2,-10.1,30.69,WNW,292,10.9,10.9,62,0.00,,,0.00,VWS V14.01,2014-01-23 20:34:00,
2014-01-23 14:35:00,-0.5,-10.4,30.69,West,270,8.7,10.9,62,0.00,,,0.00,VWS V14.01,2014-01-23 20:35:00,
2014-01-23 14:36:00,-0.5,-10.4,30.69,West,270,8.7,8.7,62,0.00,,,0.00,VWS V14.01,2014-01-23 20:36:00,
2014-01-23 14:37:00,-0.5,-10.4,30.69,West,270,8.7,8.7,62,0.00,,,0.00,VWS V14.01,2014-01-23 20:37:00,
2014-01-23 14:38:00,-0.7,-10.6,30.69,WNW,292,13.6,13.6,62,0.00,,,0.00,VWS V14.01,2014-01-23 20:38:00,
2014-01-23 14:39:00,-0.7,-10.6,30.69,WNW,292,13.6,13.6,62,0.00,,,0.00,VWS V14.01,2014-01-23 20:39:00,
2014-01-23 14:40:00,-0.5,-10.1,30.69,West,270,10.9,13.6,63,0.00,,,0.00,VWS V14.01,2014-01-23 20:40:00,
2014-01-23 14:41:00,-0.5,-10.1,30.69,West,270,10.9,10.9,63,0.00,,,0.00,VWS V14.01,2014-01-23 20:41:00,
2014-01-23 14:42:00,-0.7,-10.3,30.69,WNW,292,8.5,10.9,63,0.00,,,0.00,VWS V14.01,2014-01-23 20:42:00,
2014-01-23 14:43:00,-0.7,-10.3,30.69,WNW,292,8.5,8.5,63,0.00,,,0.00,VWS V14.01,2014-01-23 20:43:00,
2014-01-23 14:44:00,-0.5,-10.1,30.69,WNW,292,8.2,8.5,63,0.00,,,0.00,VWS V14.01,2014-01-23 20:44:00,
2014-01-23 14:45:00,-0.5,-10.1,30.69,WNW,292,8.2,8.2,63,0.00,,,0.00,VWS V14.01,2014-01-23 20:45:00,
2014-01-23 14:46:00,-0.5,-10.1,30.69,WNW,292,5.1,8.2,63,0.00,,,0.00,VWS V14.01,2014-01-23 20:46:00,
2014-01-23 14:47:00,-0.5,-10.1,30.69,WNW,292,5.1,5.1,63,0.00,,,0.00,VWS V14.01,2014-01-23 20:47:00,
2014-01-23 14:48:00,-0.5,-10.4,30.69,WNW,292,5.8,5.8,62,0.00,,,0.00,VWS V14.01,2014-01-23 20:48:00,
2014-01-23 14:49:00,-0.5,-10.4,30.69,WNW,292,5.8,5.8,62,0.00,,,0.00,VWS V14.01,2014-01-23 20:49:00,
2014-01-23 14:50:00,-0.2,-9.8,30.69,WNW,292,6.9,6.9,63,0.00,,,0.00,VWS V14.01,2014-01-23 20:50:00,
2014-01-23 14:51:00,-0.2,-9.8,30.69,WNW,292,6.9,6.9,63,0.00,,,0.00,VWS V14.01,2014-01-23 20:51:00,
2014-01-23 14:52:00,-0.2,-9.8,30.69,WNW,292,6.9,6.9,63,0.00,,,0.00,VWS V14.01,2014-01-23 20:52:00,
2014-01-23 14:53:00,-0.5,-10.4,30.69,West,270,5.8,6.9,62,0.00,,,0.00,VWS V14.01,2014-01-23 20:53:00,
2014-01-23 14:54:00,-0.5,-10.4,30.69,West,270,5.8,5.8,62,0.00,,,0.00,VWS V14.01,2014-01-23 20:54:00,
2014-01-23 14:55:00,-0.5,-10.4,30.69,WNW,292,6.7,6.7,62,0.00,,,0.00,VWS V14.01,2014-01-23 20:55:00,
2014-01-23 14:56:00,-0.5,-10.4,30.69,WNW,292,6.7,6.7,62,0.00,,,0.00,VWS V14.01,2014-01-23 20:56:00,
2014-01-23 14:57:00,-0.5,-10.1,30.69,WNW,292,14.7,14.7,63,0.00,,,0.00,VWS V14.01,2014-01-23 20:57:00,
2014-01-23 14:58:00,-0.5,-10.1,30.69,WNW,292,14.7,14.7,63,0.00,,,0.00,VWS V14.01,2014-01-23 20:58:00,
2014-01-23 14:59:00,-0.5,-10.1,30.69,NW,315,12.9,14.7,63,0.00,,,0.00,VWS V14.01,2014-01-23 20:59:00,
2014-01-23 15:00:00,-0.5,-10.1,30.69,NW,315,12.9,12.9,63,0.00,,,0.00,VWS V14.01,2014-01-23 21:00:00,
2014-01-23 15:01:00,-0.7,-10.6,30.69,West,270,6.0,12.9,62,0.00,,,0.00,VWS V14.01,2014-01-23 21:01:00,
2014-01-23 15:02:00,-0.7,-10.6,30.69,West,270,6.0,6.0,62,0.00,,,0.00,VWS V14.01,2014-01-23 21:02:00,
2014-01-23 15:03:00,-0.7,-10.6,30.69,WNW,292,9.6,9.6,62,0.00,,,0.00,VWS V14.01,2014-01-23 21:03:00,
2014-01-23 15:04:00,-0.7,-10.6,30.69,WNW,292,9.6,9.6,62,0.00,,,0.00,VWS V14.01,2014-01-23 21:04:00,
2014-01-23 15:05:00,-0.7,-10.6,30.69,West,270,11.8,11.8,62,0.00,,,0.00,VWS V14.01,2014-01-23 21:05:00,
2014-01-23 15:06:00,-0.7,-10.6,30.69,West,270,11.8,11.8,62,0.00,,,0.00,VWS V14.01,2014-01-23 21:06:00,
2014-01-23 15:07:00,-1.1,-11.0,30.69,WNW,292,10.9,11.8,62,0.00,,,0.00,VWS V14.01,2014-01-23 21:07:00,
2014-01-23 15:08:00,-1.1,-11.0,30.69,WNW,292,10.9,10.9,62,0.00,,,0.00,VWS V14.01,2014-01-23 21:08:00,
2014-01-23 15:09:00,-1.1,-11.0,30.69,WNW,292,10.9,10.9,62,0.00,,,0.00,VWS V14.01,2014-01-23 21:09:00,
2014-01-23 15:10:00,-1.3,-11.1,30.69,WNW,292,6.9,10.9,62,0.00,,,0.00,VWS V14.01,2014-01-23 21:10:00,
2014-01-23 15:11:00,-1.3,-11.1,30.69,WNW,292,6.9,6.9,62,0.00,,,0.00,VWS V14.01,2014-01-23 21:11:00,
2014-01-23 15:12:00,-1.6,-11.4,30.69,WNW,292,10.9,10.9,62,0.00,,,0.00,VWS V14.01,2014-01-23 21:12:00,
2014-01-23 15:13:00,-1.6,-11.4,30.69,WNW,292,10.9,10.9,62,0.00,,,0.00,VWS V14.01,2014-01-23 21:13:00,
2014-01-23 15:14:00,-1.4,-11.2,30.70,West,270,14.0,14.0,62,0.00,,,0.00,VWS V14.01,2014-01-23 21:14:00,
2014-01-23 15:15:00,-1.4,-10.9,30.69,West,270,14.0,14.0,63,0.00,,,0.00,VWS V14.01,2014-01-23 21:15:00,
2014-01-23 15:16:00,-1.1,-10.6,30.69,WNW,292,14.0,14.0,63,0.00,,,0.00,VWS V14.01,2014-01-23 21:16:00,
2014-01-23 15:17:00,-1.1,-10.6,30.70,WNW,292,14.0,14.0,63,0.00,,,0.00,VWS V14.01,2014-01-23 21:17:00,
2014-01-23 15:18:00,-1.1,-10.6,30.69,WNW,292,8.2,14.0,63,0.00,,,0.00,VWS V14.01,2014-01-23 21:18:00,
2014-01-23 15:19:00,-1.1,-10.6,30.69,WNW,292,8.2,8.2,63,0.00,,,0.00,VWS V14.01,2014-01-23 21:19:00,
2014-01-23 15:20:00,-0.9,-10.4,30.70,WNW,292,11.4,11.4,63,0.00,,,0.00,VWS V14.01,2014-01-23 21:20:00,
2014-01-23 15:21:00,-0.9,-10.4,30.70,WNW,292,11.4,11.4,63,0.00,,,0.00,VWS V14.01,2014-01-23 21:21:00,
2014-01-23 15:22:00,-0.9,-10.4,30.70,WNW,292,11.4,11.4,63,0.00,,,0.00,VWS V14.01,2014-01-23 21:22:00,
2014-01-23 15:23:00,-1.1,-11.0,30.70,WNW,292,12.3,12.3,62,0.00,,,0.00,VWS V14.01,2014-01-23 21:23:00,
2014-01-23 15:24:00,-1.1,-11.0,30.70,WNW,292,12.3,12.3,62,0.00,,,0.00,VWS V14.01,2014-01-23 21:24:00,
2014-01-23 15:25:00,-1.1,-10.6,30.70,West,270,5.1,12.3,63,0.00,,,0.00,VWS V14.01,2014-01-23 21:25:00,
2014-01-23 15:26:00,-1.1,-10.6,30.70,West,270,5.1,5.1,63,0.00,,,0.00,VWS V14.01,2014-01-23 21:26:00,
2014-01-23 15:27:00,-1.3,-10.8,30.70,WNW,292,11.8,11.8,63,0.00,,,0.00,VWS V14.01,2014-01-23 21:27:00,
2014-01-23 15:28:00,-1.3,-10.8,30.70,WNW,292,11.8,11.8,63,0.00,,,0.00,VWS V14.01,2014-01-23 21:28:00,
2014-01-23 15:29:00,-1.1,-10.3,30.70,WNW,292,12.3,12.3,64,0.00,,,0.00,VWS V14.01,2014-01-23 21:29:00,
2014-01-23 15:30:00,-1.1,-10.3,30.70,WNW,292,12.3,12.3,64,0.00,,,0.00,VWS V14.01,2014-01-23 21:30:00,
2014-01-23 15:31:00,-1.3,-10.8,30.70,WNW,292,9.3,12.3,63,0.00,,,0.00,VWS V14.01,2014-01-23 21:31:00,
2014-01-23 15:32:00,-1.3,-10.8,30.70,WNW,292,9.3,9.3,63,0.00,,,0.00,VWS V14.01,2014-01-23 21:32:00,
2014-01-23 15:33:00,-1.4,-10.9,30.70,WNW,292,14.9,14.9,63,0.00,,,0.00,VWS V14.01,2014-01-23 21:33:00,
2014-01-23 15:34:00,-1.4,-10.9,30.70,WNW,292,14.9,14.9,63,0.00,,,0.00,VWS V14.01,2014-01-23 21:34:00,
2014-01-23 15:35:00,-1.4,-10.6,30.70,WNW,292,14.9,14.9,64,0.00,,,0.00,VWS V14.01,2014-01-23 21:35:00,
2014-01-23 15:36:00,-1.4,-10.6,30.70,WNW,292,8.0,14.9,64,0.00,,,0.00,VWS V14.01,2014-01-23 21:36:00,
2014-01-23 15:37:00,-1.4,-10.6,30.70,WNW,292,8.0,8.0,64,0.00,,,0.00,VWS V14.01,2014-01-23 21:37:00,
2014-01-23 15:38:00,-1.4,-10.9,30.70,WNW,292,15.4,15.4,63,0.00,,,0.00,VWS V14.01,2014-01-23 21:38:00,
2014-01-23 15:39:00,-1.4,-10.9,30.70,WNW,292,15.4,15.4,63,0.00,,,0.00,VWS V14.01,2014-01-23 21:39:00,
2014-01-23 15:40:00,-1.4,-10.9,30.70,WNW,292,12.9,15.4,63,0.00,,,0.00,VWS V14.01,2014-01-23 21:40:00,
2014-01-23 15:41:00,-1.4,-10.9,30.70,WNW,292,12.9,12.9,63,0.00,,,0.00,VWS V14.01,2014-01-23 21:41:00,
2014-01-23 15:42:00,-1.4,-10.9,30.70,West,270,10.9,12.9,63,0.00,,,0.00,VWS V14.01,2014-01-23 21:42:00,
2014-01-23 15:43:00,-1.4,-10.9,30.70,West,270,10.9,10.9,63,0.00,,,0.00,VWS V14.01,2014-01-23 21:43:00,
2014-01-23 15:44:00,-1.4,-10.9,30.70,WNW,292,6.4,10.9,63,0.00,,,0.00,VWS V14.01,2014-01-23 21:44:00,
2014-01-23 15:45:00,-1.4,-10.9,30.70,WNW,292,6.4,6.4,63,0.00,,,0.00,VWS V14.01,2014-01-23 21:45:00,
2014-01-23 15:46:00,-1.4,-10.6,30.70,West,270,1.3,6.4,64,0.00,,,0.00,VWS V14.01,2014-01-23 21:46:00,
2014-01-23 15:47:00,-1.4,-10.6,30.70,West,270,1.3,1.3,64,0.00,,,0.00,VWS V14.01,2014-01-23 21:47:00,
2014-01-23 15:48:00,-1.4,-10.6,30.70,WNW,292,11.8,11.8,64,0.00,,,0.00,VWS V14.01,2014-01-23 21:48:00,
2014-01-23 15:49:00,-1.4,-10.6,30.70,WNW,292,11.8,11.8,64,0.00,,,0.00,VWS V14.01,2014-01-23 21:49:00,
2014-01-23 15:50:00,-1.4,-10.6,30.70,WNW,292,6.2,11.8,64,0.00,,,0.00,VWS V14.01,2014-01-23 21:50:00,
2014-01-23 15:51:00,-1.4,-10.6,30.70,WNW,292,6.2,6.2,64,0.00,,,0.00,VWS V14.01,2014-01-23 21:51:00,
2014-01-23 15:52:00,-1.4,-10.6,30.70,WNW,292,6.2,6.2,64,0.00,,,0.00,VWS V14.01,2014-01-23 21:52:00,
2014-01-23 15:53:00,-1.4,-10.6,30.70,WNW,292,10.2,10.2,64,0.00,,,0.00,VWS V14.01,2014-01-23 21:53:00,
2014-01-23 15:54:00,-1.4,-10.6,30.70,WNW,292,10.2,10.2,64,0.00,,,0.00,VWS V14.01,2014-01-23 21:54:00,
2014-01-23 15:55:00,-1.3,-10.8,30.70,WNW,292,8.0,10.2,63,0.00,,,0.00,VWS V14.01,2014-01-23 21:55:00,
2014-01-23 15:56:00,-1.3,-10.8,30.70,WNW,292,8.0,8.0,63,0.00,,,0.00,VWS V14.01,2014-01-23 21:56:00,
2014-01-23 15:57:00,-1.6,-11.1,30.70,WNW,292,5.8,8.0,63,0.00,,,0.00,VWS V14.01,2014-01-23 21:57:00,
2014-01-23 15:58:00,-1.6,-11.1,30.70,WNW,292,5.8,5.8,63,0.00,,,0.00,VWS V14.01,2014-01-23 21:58:00,
2014-01-23 15:59:00,-1.6,-10.8,30.70,WSW,248,6.7,6.7,64,0.00,,,0.00,VWS V14.01,2014-01-23 21:59:00,
2014-01-23 16:00:00,-1.6,-10.8,30.70,WSW,248,6.7,6.7,64,0.00,,,0.00,VWS V14.01,2014-01-23 22:00:00,
2014-01-23 16:01:00,-1.6,-10.8,30.70,West,270,10.5,10.5,64,0.00,,,0.00,VWS V14.01,2014-01-23 22:01:00,
2014-01-23 16:02:00,-1.6,-10.8,30.71,West,270,10.5,10.5,64,0.00,,,0.00,VWS V14.01,2014-01-23 22:02:00,
2014-01-23 16:03:00,-1.8,-11.0,30.70,WNW,292,8.7,10.5,64,0.00,,,0.00,VWS V14.01,2014-01-23 22:03:00,
2014-01-23 16:04:00,-1.8,-11.0,30.70,WNW,292,8.7,8.7,64,0.00,,,0.00,VWS V14.01,2014-01-23 22:04:00,
2014-01-23 16:05:00,-2.3,-11.5,30.70,WNW,292,10.9,10.9,64,0.00,,,0.00,VWS V14.01,2014-01-23 22:05:00,
2014-01-23 16:06:00,-2.3,-11.5,30.70,WNW,292,10.9,10.9,64,0.00,,,0.00,VWS V14.01,2014-01-23 22:06:00,
2014-01-23 16:07:00,-2.3,-11.5,30.71,WNW,292,6.9,10.9,64,0.00,,,0.00,VWS V14.01,2014-01-23 22:07:00,
2014-01-23 16:08:00,-2.7,-11.5,30.71,WNW,292,6.9,6.9,65,0.00,,,0.00,VWS V14.01,2014-01-23 22:08:00,
2014-01-23 16:09:00,-2.7,-11.5,30.70,WNW,292,6.9,6.9,65,0.00,,,0.00,VWS V14.01,2014-01-23 22:09:00,
2014-01-23 16:10:00,-3.1,-11.9,30.71,WNW,292,5.3,6.9,65,0.00,,,0.00,VWS V14.01,2014-01-23 22:10:00,
2014-01-23 16:11:00,-3.1,-11.9,30.71,WNW,292,5.3,5.3,65,0.00,,,0.00,VWS V14.01,2014-01-23 22:11:00,
2014-01-23 16:12:00,-3.2,-11.7,30.71,WNW,292,8.5,8.5,66,0.00,,,0.00,VWS V14.01,2014-01-23 22:12:00,
2014-01-23 16:13:00,-3.2,-11.7,30.71,WNW,292,8.5,8.5,66,0.00,,,0.00,VWS V14.01,2014-01-23 22:13:00,
2014-01-23 16:14:00,-3.4,-11.9,30.71,WNW,292,7.8,8.5,66,0.00,,,0.00,VWS V14.01,2014-01-23 22:14:00,
2014-01-23 16:15:00,-3.4,-11.9,30.71,WNW,292,7.8,7.8,66,0.00,,,0.00,VWS V14.01,2014-01-23 22:15:00,
2014-01-23 16:16:00,-3.4,-11.6,30.71,West,270,2.2,7.8,67,0.00,,,0.00,VWS V14.01,2014-01-23 22:16:00,
2014-01-23 16:17:00,-3.4,-11.6,30.71,West,270,2.2,2.2,67,0.00,,,0.00,VWS V14.01,2014-01-23 22:17:00,
2014-01-23 16:18:00,-3.6,-11.8,30.71,WNW,292,5.5,5.5,67,0.00,,,0.00,VWS V14.01,2014-01-23 22:18:00,
2014-01-23 16:19:00,-3.6,-11.8,30.71,WNW,292,5.5,5.5,67,0.00,,,0.00,VWS V14.01,2014-01-23 22:19:00,
2014-01-23 16:20:00,-3.8,-12.0,30.71,WNW,292,9.1,9.1,67,0.00,,,0.00,VWS V14.01,2014-01-23 22:20:00,
2014-01-23 16:21:00,-3.8,-12.0,30.71,WNW,292,9.1,9.1,67,0.00,,,0.00,VWS V14.01,2014-01-23 22:21:00,
2014-01-23 16:22:00,-3.8,-12.0,30.71,WNW,292,9.1,9.1,67,0.00,,,0.00,VWS V14.01,2014-01-23 22:22:00,
2014-01-23 16:23:00,-3.8,-12.0,30.71,WNW,292,4.6,9.1,67,0.00,,,0.00,VWS V14.01,2014-01-23 22:23:00,
2014-01-23 16:24:00,-3.8,-12.0,30.71,WNW,292,4.6,4.6,67,0.00,,,0.00,VWS V14.01,2014-01-23 22:24:00,
2014-01-23 16:25:00,-3.8,-12.0,30.71,WNW,292,5.5,5.5,67,0.00,,,0.00,VWS V14.01,2014-01-23 22:25:00,
2014-01-23 16:26:00,-3.8,-12.0,30.71,WNW,292,5.5,5.5,67,0.00,,,0.00,VWS V14.01,2014-01-23 22:26:00,
2014-01-23 16:27:00,-3.8,-12.0,30.71,West,270,4.0,5.5,67,0.00,,,0.00,VWS V14.01,2014-01-23 22:27:00,
2014-01-23 16:28:00,-3.8,-12.0,30.71,West,270,4.0,4.0,67,0.00,,,0.00,VWS V14.01,2014-01-23 22:28:00,
2014-01-23 16:29:00,-4.1,-12.3,30.71,WNW,292,4.2,4.2,67,0.00,,,0.00,VWS V14.01,2014-01-23 22:29:00,
2014-01-23 16:30:00,-4.1,-12.3,30.71,WNW,292,4.2,4.2,67,0.00,,,0.00,VWS V14.01,2014-01-23 22:30:00,
2014-01-23 16:31:00,-4.1,-12.0,30.71,WNW,292,7.8,7.8,68,0.00,,,0.00,VWS V14.01,2014-01-23 22:31:00,
2014-01-23 16:32:00,-4.1,-12.0,30.71,WNW,292,7.8,7.8,68,0.00,,,0.00,VWS V14.01,2014-01-23 22:32:00,
2014-01-23 16:33:00,-4.1,-12.0,30.71,WNW,292,10.5,10.5,68,0.00,,,0.00,VWS V14.01,2014-01-23 22:33:00,
2014-01-23 16:34:00,-4.1,-12.0,30.71,WNW,292,10.5,10.5,68,0.00,,,0.00,VWS V14.01,2014-01-23 22:34:00,
2014-01-23 16:35:00,-4.1,-12.0,30.71,West,270,9.1,10.5,68,0.00,,,0.00,VWS V14.01,2014-01-23 22:35:00,
2014-01-23 16:36:00,-4.1,-12.0,30.71,West,270,9.1,9.1,68,0.00,,,0.00,VWS V14.01,2014-01-23 22:36:00,
2014-01-23 16:37:00,-4.1,-12.0,30.70,WNW,292,18.5,18.5,68,0.00,,,0.00,VWS V14.01,2014-01-23 22:37:00,
2014-01-23 16:38:00,-4.1,-12.0,30.70,WNW,292,18.5,18.5,68,0.00,,,0.00,VWS V14.01,2014-01-23 22:38:00,
2014-01-23 16:39:00,-4.1,-12.0,30.71,WNW,292,18.5,18.5,68,0.00,,,0.00,VWS V14.01,2014-01-23 22:39:00,
2014-01-23 16:40:00,-4.1,-12.0,30.70,West,270,4.2,18.5,68,0.00,,,0.00,VWS V14.01,2014-01-23 22:40:00,
2014-01-23 16:41:00,-4.1,-12.0,30.70,West,270,4.2,4.2,68,0.00,,,0.00,VWS V14.01,2014-01-23 22:41:00,
2014-01-23 16:42:00,-4.3,-12.2,30.70,West,270,10.5,10.5,68,0.00,,,0.00,VWS V14.01,2014-01-23 22:42:00,
2014-01-23 16:43:00,-4.3,-12.2,30.71,West,270,10.5,10.5,68,0.00,,,0.00,VWS V14.01,2014-01-23 22:43:00,
2014-01-23 16:44:00,-4.3,-12.2,30.71,WNW,292,12.5,12.5,68,0.00,,,0.00,VWS V14.01,2014-01-23 22:44:00,
2014-01-23 16:45:00,-4.3,-12.2,30.71,WNW,292,12.5,12.5,68,0.00,,,0.00,VWS V14.01,2014-01-23 22:45:00,
2014-01-23 16:46:00,-4.3,-12.2,30.70,West,270,9.1,12.5,68,0.00,,,0.00,VWS V14.01,2014-01-23 22:46:00,
2014-01-23 16:47:00,-4.3,-12.2,30.71,West,270,9.1,9.1,68,0.00,,,0.00,VWS V14.01,2014-01-23 22:47:00,
2014-01-23 16:48:00,-4.3,-12.2,30.70,WNW,292,7.3,9.1,68,0.00,,,0.00,VWS V14.01,2014-01-23 22:48:00,
2014-01-23 16:49:00,-4.3,-12.2,30.70,WNW,292,7.3,7.3,68,0.00,,,0.00,VWS V14.01,2014-01-23 22:49:00,
2014-01-23 16:50:00,-4.3,-12.2,30.71,West,270,13.8,13.8,68,0.00,,,0.00,VWS V14.01,2014-01-23 22:50:00,
2014-01-23 16:51:00,-4.3,-12.2,30.71,West,270,13.8,13.8,68,0.00,,,0.00,VWS V14.01,2014-01-23 22:51:00,
2014-01-23 16:52:00,-4.3,-12.2,30.71,West,270,13.8,13.8,68,0.00,,,0.00,VWS V14.01,2014-01-23 22:52:00,
2014-01-23 16:53:00,-4.3,-12.2,30.71,WNW,292,5.5,13.8,68,0.00,,,0.00,VWS V14.01,2014-01-23 22:53:00,
2014-01-23 16:54:00,-4.3,-11.9,30.71,WNW,292,5.5,5.5,69,0.00,,,0.00,VWS V14.01,2014-01-23 22:54:00,
2014-01-23 16:55:00,-4.7,-12.3,30.71,WNW,292,6.4,6.4,69,0.00,,,0.00,VWS V14.01,2014-01-23 22:55:00,
2014-01-23 16:56:00,-4.7,-12.3,30.71,WNW,292,6.4,6.4,69,0.00,,,0.00,VWS V14.01,2014-01-23 22:56:00,
2014-01-23 16:57:00,-4.7,-12.3,30.71,WNW,292,8.9,8.9,69,0.00,,,0.00,VWS V14.01,2014-01-23 22:57:00,
2014-01-23 16:58:00,-4.7,-12.3,30.71,WNW,292,8.9,8.9,69,0.00,,,0.00,VWS V14.01,2014-01-23 22:58:00,
2014-01-23 16:59:00,-4.7,-12.3,30.71,WNW,292,8.9,8.9,69,0.00,,,0.00,VWS V14.01,2014-01-23 22:59:00,
2014-01-23 17:00:00,-4.7,-12.3,30.71,WNW,292,7.8,8.9,69,0.00,,,0.00,VWS V14.01,2014-01-23 23:00:00,
2014-01-23 17:01:00,-4.7,-12.3,30.71,WNW,292,9.3,9.3,69,0.00,,,0.00,VWS V14.01,2014-01-23 23:01:00,
2014-01-23 17:02:00,-4.7,-12.3,30.71,WNW,292,9.3,9.3,69,0.00,,,0.00,VWS V14.01,2014-01-23 23:02:00,
2014-01-23 17:03:00,-4.9,-12.4,30.71,West,270,11.8,11.8,69,0.00,,,0.00,VWS V14.01,2014-01-23 23:03:00,
2014-01-23 17:04:00,-4.9,-12.4,30.71,West,270,11.8,11.8,69,0.00,,,0.00,VWS V14.01,2014-01-23 23:04:00,
2014-01-23 17:05:00,-4.9,-12.4,30.71,WNW,292,7.6,11.8,69,0.00,,,0.00,VWS V14.01,2014-01-23 23:05:00,
2014-01-23 17:06:00,-4.9,-12.4,30.71,WNW,292,7.6,7.6,69,0.00,,,0.00,VWS V14.01,2014-01-23 23:06:00,
2014-01-23 17:07:00,-4.9,-12.4,30.72,WNW,292,3.1,7.6,69,0.00,,,0.00,VWS V14.01,2014-01-23 23:07:00,
2014-01-23 17:08:00,-5.0,-12.6,30.72,WNW,292,3.1,3.1,69,0.00,,,0.00,VWS V14.01,2014-01-23 23:08:00,
2014-01-23 17:09:00,-5.0,-12.6,30.72,WNW,292,3.1,3.1,69,0.00,,,0.00,VWS V14.01,2014-01-23 23:09:00,
2014-01-23 17:10:00,-5.0,-12.6,30.72,WNW,292,9.6,9.6,69,0.00,,,0.00,VWS V14.01,2014-01-23 23:10:00,
2014-01-23 17:11:00,-5.0,-12.6,30.72,WNW,292,9.6,9.6,69,0.00,,,0.00,VWS V14.01,2014-01-23 23:11:00,
2014-01-23 17:12:00,-5.0,-12.3,30.72,WNW,292,6.4,9.6,70,0.00,,,0.00,VWS V14.01,2014-01-23 23:12:00,
2014-01-23 17:13:00,-5.0,-12.3,30.72,WNW,292,6.4,6.4,70,0.00,,,0.00,VWS V14.01,2014-01-23 23:13:00,
2014-01-23 17:14:00,-5.2,-12.5,30.72,WNW,292,4.0,6.4,70,0.00,,,0.00,VWS V14.01,2014-01-23 23:14:00,
2014-01-23 17:15:00,-5.2,-12.5,30.72,WNW,292,4.0,4.0,70,0.00,,,0.00,VWS V14.01,2014-01-23 23:15:00,
2014-01-23 17:16:00,-5.2,-12.5,30.72,WNW,292,8.9,8.9,70,0.00,,,0.00,VWS V14.01,2014-01-23 23:16:00,
2014-01-23 17:17:00,-5.2,-12.5,30.71,WNW,292,8.9,8.9,70,0.00,,,0.00,VWS V14.01,2014-01-23 23:17:00,
2014-01-23 17:18:00,-5.2,-12.5,30.71,WNW,292,9.8,9.8,70,0.00,,,0.00,VWS V14.01,2014-01-23 23:18:00,
2014-01-23 17:19:00,-5.2,-12.5,30.71,WNW,292,9.8,9.8,70,0.00,,,0.00,VWS V14.01,2014-01-23 23:19:00,
2014-01-23 17:20:00,-5.2,-12.5,30.71,WNW,292,10.9,10.9,70,0.00,,,0.00,VWS V14.01,2014-01-23 23:20:00,
2014-01-23 17:21:00,-5.2,-12.5,30.71,WNW,292,10.9,10.9,70,0.00,,,0.00,VWS V14.01,2014-01-23 23:21:00,
2014-01-23 17:22:00,-5.0,-12.3,30.72,WNW,292,10.9,10.9,70,0.00,,,0.00,VWS V14.01,2014-01-23 23:22:00,
2014-01-23 17:23:00,-5.0,-12.3,30.71,WNW,292,10.9,10.9,70,0.00,,,0.00,VWS V14.01,2014-01-23 23:23:00,
2014-01-23 17:24:00,-5.0,-12.3,30.71,WNW,292,10.9,10.9,70,0.00,,,0.00,VWS V14.01,2014-01-23 23:24:00,
2014-01-23 17:25:00,-5.2,-12.5,30.71,West,270,8.7,10.9,70,0.00,,,0.00,VWS V14.01,2014-01-23 23:25:00,
2014-01-23 17:26:00,-5.2,-12.5,30.71,West,270,8.7,8.7,70,0.00,,,0.00,VWS V14.01,2014-01-23 23:26:00,
2014-01-23 17:27:00,-5.0,-12.6,30.71,West,270,6.9,8.7,69,0.00,,,0.00,VWS V14.01,2014-01-23 23:27:00,
2014-01-23 17:28:00,-5.0,-12.6,30.71,West,270,6.9,6.9,69,0.00,,,0.00,VWS V14.01,2014-01-23 23:28:00,
2014-01-23 17:29:00,-5.0,-12.6,30.71,West,270,5.3,6.9,69,0.00,,,0.00,VWS V14.01,2014-01-23 23:29:00,
2014-01-23 17:30:00,-5.0,-12.6,30.71,West,270,5.3,5.3,69,0.00,,,0.00,VWS V14.01,2014-01-23 23:30:00,
2014-01-23 17:31:00,-5.2,-12.7,30.71,West,270,12.7,12.7,69,0.00,,,0.00,VWS V14.01,2014-01-23 23:31:00,
2014-01-23 17:32:00,-5.2,-12.7,30.71,West,270,12.7,12.7,69,0.00,,,0.00,VWS V14.01,2014-01-23 23:32:00,
2014-01-23 17:33:00,-5.0,-12.6,30.71,WNW,292,12.5,12.7,69,0.00,,,0.00,VWS V14.01,2014-01-23 23:33:00,
2014-01-23 17:34:00,-5.0,-12.6,30.71,WNW,292,12.5,12.5,69,0.00,,,0.00,VWS V14.01,2014-01-23 23:34:00,
2014-01-23 17:35:00,-5.0,-12.6,30.71,WNW,292,11.6,12.5,69,0.00,,,0.00,VWS V14.01,2014-01-23 23:35:00,
2014-01-23 17:36:00,-5.0,-12.6,30.71,WNW,292,11.6,11.6,69,0.00,,,0.00,VWS V14.01,2014-01-23 23:36:00,
2014-01-23 17:37:00,-5.0,-12.6,30.71,WNW,292,10.7,11.6,69,0.00,,,0.00,VWS V14.01,2014-01-23 23:37:00,
2014-01-23 17:38:00,-5.0,-12.6,30.71,WNW,292,10.7,10.7,69,0.00,,,0.00,VWS V14.01,2014-01-23 23:38:00,
2014-01-23 17:39:00,-5.0,-12.6,30.71,WNW,292,10.7,10.7,69,0.00,,,0.00,VWS V14.01,2014-01-23 23:39:00,
2014-01-23 17:40:00,-5.0,-12.6,30.71,NW,315,7.6,10.7,69,0.00,,,0.00,VWS V14.01,2014-01-23 23:40:00,
2014-01-23 17:41:00,-5.0,-12.6,30.71,NW,315,7.6,7.6,69,0.00,,,0.00,VWS V14.01,2014-01-23 23:41:00,
2014-01-23 17:42:00,-5.0,-12.6,30.71,West,270,0.0,7.6,69,0.00,,,0.00,VWS V14.01,2014-01-23 23:42:00,
2014-01-23 17:43:00,-5.0,-12.6,30.71,West,270,0.0,0.0,69,0.00,,,0.00,VWS V14.01,2014-01-23 23:43:00,
2014-01-23 17:44:00,-5.2,-12.7,30.71,WNW,292,8.2,8.2,69,0.00,,,0.00,VWS V14.01,2014-01-23 23:44:00,
2014-01-23 17:45:00,-5.2,-12.7,30.71,WNW,292,8.2,8.2,69,0.00,,,0.00,VWS V14.01,2014-01-23 23:45:00,
2014-01-23 17:46:00,-5.2,-12.7,30.71,West,270,12.5,12.5,69,0.00,,,0.00,VWS V14.01,2014-01-23 23:46:00,
2014-01-23 17:47:00,-5.2,-12.7,30.71,West,270,12.5,12.5,69,0.00,,,0.00,VWS V14.01,2014-01-23 23:47:00,
2014-01-23 17:48:00,-5.2,-12.7,30.71,WNW,292,11.8,12.5,69,0.00,,,0.00,VWS V14.01,2014-01-23 23:48:00,
2014-01-23 17:49:00,-5.2,-12.7,30.71,WNW,292,11.8,11.8,69,0.00,,,0.00,VWS V14.01,2014-01-23 23:49:00,
2014-01-23 17:50:00,-5.2,-12.7,30.71,WNW,292,5.5,11.8,69,0.00,,,0.00,VWS V14.01,2014-01-23 23:50:00,
2014-01-23 17:51:00,-5.2,-12.7,30.71,WNW,292,5.5,5.5,69,0.00,,,0.00,VWS V14.01,2014-01-23 23:51:00,
2014-01-23 17:52:00,-5.2,-12.7,30.71,WNW,292,12.3,12.3,69,0.00,,,0.00,VWS V14.01,2014-01-23 23:52:00,
2014-01-23 17:53:00,-5.2,-12.7,30.71,WNW,292,12.3,12.3,69,0.00,,,0.00,VWS V14.01,2014-01-23 23:53:00,
2014-01-23 17:54:00,-5.2,-12.7,30.71,WNW,292,12.3,12.3,69,0.00,,,0.00,VWS V14.01,2014-01-23 23:54:00,
2014-01-23 17:55:00,-5.2,-12.7,30.71,WNW,292,10.2,12.3,69,0.00,,,0.00,VWS V14.01,2014-01-23 23:55:00,
2014-01-23 17:56:00,-5.2,-12.7,30.71,WNW,292,10.2,10.2,69,0.00,,,0.00,VWS V14.01,2014-01-23 23:56:00,
2014-01-23 17:57:00,-5.2,-12.7,30.71,West,270,5.1,10.2,69,0.00,,,0.00,VWS V14.01,2014-01-23 23:57:00,
2014-01-23 17:58:00,-5.2,-12.7,30.71,West,270,5.1,5.1,69,0.00,,,0.00,VWS V14.01,2014-01-23 23:58:00,
2014-01-23 17:59:00,-5.4,-12.9,30.71,WNW,292,3.5,5.1,69,0.00,,,0.00,VWS V14.01,2014-01-23 23:59:00,
2014-01-23 18:00:00,-5.4,-12.9,30.71,WNW,292,3.5,3.5,69,0.00,,,0.00,VWS V14.01,2014-01-24 00:00:00,
2014-01-23 18:01:00,-5.4,-12.9,30.71,WNW,292,8.9,8.9,69,0.00,,,0.00,VWS V14.01,2014-01-24 00:01:00,
2014-01-23 18:02:00,-5.4,-12.9,30.71,WNW,292,8.9,8.9,69,0.00,,,0.00,VWS V14.01,2014-01-24 00:02:00,
2014-01-23 18:03:00,-5.6,-13.1,30.70,NW,315,4.6,8.9,69,0.00,,,0.00,VWS V14.01,2014-01-24 00:03:00,
2014-01-23 18:04:00,-5.6,-13.1,30.71,NW,315,4.6,4.6,69,0.00,,,0.00,VWS V14.01,2014-01-24 00:04:00,
2014-01-23 18:05:00,-5.6,-13.1,30.71,WNW,292,7.6,7.6,69,0.00,,,0.00,VWS V14.01,2014-01-24 00:05:00,
2014-01-23 18:06:00,-5.6,-13.1,30.71,WNW,292,7.6,7.6,69,0.00,,,0.00,VWS V14.01,2014-01-24 00:06:00,
2014-01-23 18:07:00,-5.6,-13.1,30.71,WNW,292,8.0,8.0,69,0.00,,,0.00,VWS V14.01,2014-01-24 00:07:00,
2014-01-23 18:08:00,-5.6,-13.1,30.71,WNW,292,8.0,8.0,69,0.00,,,0.00,VWS V14.01,2014-01-24 00:08:00,
2014-01-23 18:09:00,-5.6,-13.1,30.71,WNW,292,8.0,8.0,69,0.00,,,0.00,VWS V14.01,2014-01-24 00:09:00,
2014-01-23 18:10:00,-5.6,-13.1,30.71,WNW,292,6.9,8.0,69,0.00,,,0.00,VWS V14.01,2014-01-24 00:10:00,
2014-01-23 18:11:00,-5.6,-13.1,30.71,WNW,292,6.9,6.9,69,0.00,,,0.00,VWS V14.01,2014-01-24 00:11:00,
2014-01-23 18:12:00,-5.6,-13.1,30.71,WNW,292,10.5,10.5,69,0.00,,,0.00,VWS V14.01,2014-01-24 00:12:00,
2014-01-23 18:13:00,-5.6,-13.1,30.71,WNW,292,10.5,10.5,69,0.00,,,0.00,VWS V14.01,2014-01-24 00:13:00,
2014-01-23 18:14:00,-5.6,-13.1,30.71,WNW,292,4.6,10.5,69,0.00,,,0.00,VWS V14.01,2014-01-24 00:14:00,
2014-01-23 18:15:00,-5.6,-13.1,30.71,WNW,292,4.6,4.6,69,0.00,,,0.00,VWS V14.01,2014-01-24 00:15:00,
2014-01-23 18:16:00,-5.8,-13.0,30.71,WNW,292,5.1,5.1,70,0.00,,,0.00,VWS V14.01,2014-01-24 00:16:00,
2014-01-23 18:17:00,-5.8,-13.0,30.71,WNW,292,5.1,5.1,70,0.00,,,0.00,VWS V14.01,2014-01-24 00:17:00,
2014-01-23 18:18:00,-5.8,-13.0,30.71,WNW,292,8.2,8.2,70,0.00,,,0.00,VWS V14.01,2014-01-24 00:18:00,
2014-01-23 18:19:00,-5.8,-13.0,30.71,WNW,292,8.2,8.2,70,0.00,,,0.00,VWS V14.01,2014-01-24 00:19:00,
2014-01-23 18:20:00,-5.9,-13.1,30.71,WNW,292,5.1,8.2,70,0.00,,,0.00,VWS V14.01,2014-01-24 00:20:00,
2014-01-23 18:21:00,-5.9,-13.1,30.71,WNW,292,5.1,5.1,70,0.00,,,0.00,VWS V14.01,2014-01-24 00:21:00,
2014-01-23 18:22:00,-5.9,-13.1,30.71,WNW,292,7.6,7.6,70,0.00,,,0.00,VWS V14.01,2014-01-24 00:22:00,
2014-01-23 18:23:00,-5.9,-13.1,30.71,WNW,292,7.6,7.6,70,0.00,,,0.00,VWS V14.01,2014-01-24 00:23:00,
2014-01-23 18:24:00,-5.9,-13.1,30.71,WNW,292,7.6,7.6,70,0.00,,,0.00,VWS V14.01,2014-01-24 00:24:00,
2014-01-23 18:25:00,-5.9,-13.1,30.71,WNW,292,5.5,7.6,70,0.00,,,0.00,VWS V14.01,2014-01-24 00:25:00,
2014-01-23 18:26:00,-5.9,-13.1,30.71,WNW,292,5.5,5.5,70,0.00,,,0.00,VWS V14.01,2014-01-24 00:26:00,
2014-01-23 18:27:00,-5.9,-13.1,30.71,WNW,292,2.6,5.5,70,0.00,,,0.00,VWS V14.01,2014-01-24 00:27:00,
2014-01-23 18:28:00,-5.9,-13.1,30.71,WNW,292,2.6,2.6,70,0.00,,,0.00,VWS V14.01,2014-01-24 00:28:00,
2014-01-23 18:29:00,-6.1,-13.3,30.71,WNW,292,5.3,5.3,70,0.00,,,0.00,VWS V14.01,2014-01-24 00:29:00,
2014-01-23 18:30:00,-6.1,-13.3,30.71,WNW,292,5.3,5.3,70,0.00,,,0.00,VWS V14.01,2014-01-24 00:30:00,
2014-01-23 18:31:00,-6.1,-13.3,30.71,WNW,292,1.5,5.3,70,0.00,,,0.00,VWS V14.01,2014-01-24 00:31:00,
2014-01-23 18:32:00,-6.1,-13.3,30.71,WNW,292,1.5,1.5,70,0.00,,,0.00,VWS V14.01,2014-01-24 00:32:00,
2014-01-23 18:33:00,-6.3,-13.5,30.71,WNW,292,7.3,7.3,70,0.00,,,0.00,VWS V14.01,2014-01-24 00:33:00,
2014-01-23 18:34:00,-6.3,-13.5,30.71,WNW,292,7.3,7.3,70,0.00,,,0.00,VWS V14.01,2014-01-24 00:34:00,
2014-01-23 18:35:00,-6.5,-13.7,30.71,WNW,292,5.8,7.3,70,0.00,,,0.00,VWS V14.01,2014-01-24 00:35:00,
2014-01-23 18:36:00,-6.5,-13.7,30.71,WNW,292,5.8,5.8,70,0.00,,,0.00,VWS V14.01,2014-01-24 00:36:00,
2014-01-23 18:37:00,-6.5,-13.7,30.70,North,0,0.0,5.8,70,0.00,,,0.00,VWS V14.01,2014-01-24 00:37:00,
2014-01-23 18:38:00,-6.5,-13.7,30.70,WNW,292,0.0,0.0,70,0.00,,,0.00,VWS V14.01,2014-01-24 00:38:00,
2014-01-23 18:39:00,-6.5,-13.7,30.70,WNW,292,0.0,0.0,70,0.00,,,0.00,VWS V14.01,2014-01-24 00:39:00,
2014-01-23 18:40:00,-6.5,-13.7,30.71,WNW,292,1.7,1.7,70,0.00,,,0.00,VWS V14.01,2014-01-24 00:40:00,
2014-01-23 18:41:00,-6.5,-13.7,30.71,WNW,292,1.7,1.7,70,0.00,,,0.00,VWS V14.01,2014-01-24 00:41:00,
2014-01-23 18:42:00,-6.5,-13.7,30.71,West,270,3.8,3.8,70,0.00,,,0.00,VWS V14.01,2014-01-24 00:42:00,
2014-01-23 18:43:00,-6.5,-13.7,30.71,West,270,3.8,3.8,70,0.00,,,0.00,VWS V14.01,2014-01-24 00:43:00,
2014-01-23 18:44:00,-6.5,-13.4,30.71,WNW,292,3.1,3.8,71,0.00,,,0.00,VWS V14.01,2014-01-24 00:44:00,
2014-01-23 18:45:00,-6.5,-13.4,30.72,WNW,292,3.1,3.1,71,0.00,,,0.00,VWS V14.01,2014-01-24 00:45:00,
2014-01-23 18:46:00,-6.5,-13.4,30.72,West,270,0.8,3.1,71,0.00,,,0.00,VWS V14.01,2014-01-24 00:46:00,
2014-01-23 18:47:00,-6.5,-13.4,30.72,West,270,0.8,0.8,71,0.00,,,0.00,VWS V14.01,2014-01-24 00:47:00,
2014-01-23 18:48:00,-6.5,-13.4,30.72,West,270,0.8,0.8,71,0.00,,,0.00,VWS V14.01,2014-01-24 00:48:00,
2014-01-23 18:49:00,-6.7,-13.6,30.72,WNW,292,5.1,5.1,71,0.00,,,0.00,VWS V14.01,2014-01-24 00:49:00,
2014-01-23 18:50:00,-6.7,-13.6,30.72,SW,225,0.0,5.1,71,0.00,,,0.00,VWS V14.01,2014-01-24 00:50:00,
2014-01-23 18:51:00,-6.7,-13.6,30.71,SW,225,0.0,0.0,71,0.00,,,0.00,VWS V14.01,2014-01-24 00:51:00,
2014-01-23 18:52:00,-6.8,-13.7,30.71,West,270,0.0,0.0,71,0.00,,,0.00,VWS V14.01,2014-01-24 00:52:00,
2014-01-23 18:53:00,-6.8,-13.7,30.71,West,270,0.0,0.0,71,0.00,,,0.00,VWS V14.01,2014-01-24 00:53:00,
2014-01-23 18:54:00,-6.8,-13.7,30.71,West,270,0.0,0.0,71,0.00,,,0.00,VWS V14.01,2014-01-24 00:54:00,
2014-01-23 18:55:00,-6.8,-13.7,30.71,WNW,292,0.0,0.0,71,0.00,,,0.00,VWS V14.01,2014-01-24 00:55:00,
2014-01-23 18:56:00,-6.8,-13.7,30.71,WNW,292,0.0,0.0,71,0.00,,,0.00,VWS V14.01,2014-01-24 00:56:00,
2014-01-23 18:57:00,-7.0,-13.9,30.70,SW,225,0.0,0.0,71,0.00,,,0.00,VWS V14.01,2014-01-24 00:57:00,
2014-01-23 18:58:00,-7.0,-13.9,30.70,SW,225,0.0,0.0,71,0.00,,,0.00,VWS V14.01,2014-01-24 00:58:00,
2014-01-23 18:59:00,-7.4,-14.6,30.70,SW,225,0.0,0.0,70,0.00,,,0.00,VWS V14.01,2014-01-24 00:59:00,
2014-01-23 19:00:00,-7.4,-14.6,30.71,SW,225,0.0,0.0,70,0.00,,,0.00,VWS V14.01,2014-01-24 01:00:00,
2014-01-23 19:01:00,-7.9,-15.1,30.70,SW,225,0.0,0.0,70,0.00,,,0.00,VWS V14.01,2014-01-24 01:01:00,
2014-01-23 19:02:00,-7.9,-15.1,30.70,SW,225,0.0,0.0,70,0.00,,,0.00,VWS V14.01,2014-01-24 01:02:00,
2014-01-23 19:03:00,-7.9,-15.1,30.70,SW,225,0.0,0.0,70,0.00,,,0.00,VWS V14.01,2014-01-24 01:03:00,
2014-01-23 19:04:00,-8.3,-15.4,30.70,WSW,248,0.0,0.0,70,0.00,,,0.00,VWS V14.01,2014-01-24 01:04:00,
2014-01-23 19:05:00,-8.5,-15.6,30.70,WNW,292,0.0,0.0,70,0.00,,,0.00,VWS V14.01,2014-01-24 01:05:00,
2014-01-23 19:06:00,-8.5,-15.6,30.70,WNW,292,0.0,0.0,70,0.00,,,0.00,VWS V14.01,2014-01-24 01:06:00,
2014-01-23 19:07:00,-8.5,-15.4,30.70,West,270,0.0,0.0,71,0.00,,,0.00,VWS V14.01,2014-01-24 01:07:00,
2014-01-23 19:08:00,-8.5,-15.4,30.70,West,270,0.0,0.0,71,0.00,,,0.00,VWS V14.01,2014-01-24 01:08:00,
2014-01-23 19:09:00,-8.6,-15.4,30.70,West,270,0.0,0.0,71,0.00,,,0.00,VWS V14.01,2014-01-24 01:09:00,
2014-01-23 19:10:00,-8.8,-15.6,30.70,West,270,0.0,0.0,71,0.00,,,0.00,VWS V14.01,2014-01-24 01:10:00,
2014-01-23 19:11:00,-8.8,-15.6,30.71,West,270,0.0,0.0,71,0.00,,,0.00,VWS V14.01,2014-01-24 01:11:00,
2014-01-23 19:12:00,-8.8,-15.6,30.70,WSW,248,0.0,0.0,71,0.00,,,0.00,VWS V14.01,2014-01-24 01:12:00,
2014-01-23 19:13:00,-8.8,-15.6,30.70,WSW,248,0.0,0.0,71,0.00,,,0.00,VWS V14.01,2014-01-24 01:13:00,
2014-01-23 19:14:00,-8.8,-15.6,30.71,WNW,292,0.0,0.0,71,0.00,,,0.00,VWS V14.01,2014-01-24 01:14:00,
2014-01-23 19:15:00,-8.8,-15.6,30.71,WNW,292,0.0,0.0,71,0.00,,,0.00,VWS V14.01,2014-01-24 01:15:00,
2014-01-23 19:16:00,-8.8,-15.4,30.71,West,270,0.0,0.0,72,0.00,,,0.00,VWS V14.01,2014-01-24 01:16:00,
2014-01-23 19:17:00,-8.8,-15.4,30.70,West,270,0.0,0.0,72,0.00,,,0.00,VWS V14.01,2014-01-24 01:17:00,
2014-01-23 19:18:00,-8.8,-15.4,30.70,West,270,0.0,0.0,72,0.00,,,0.00,VWS V14.01,2014-01-24 01:18:00,
2014-01-23 19:19:00,-8.6,-15.2,30.70,WNW,292,0.0,0.0,72,0.00,,,0.00,VWS V14.01,2014-01-24 01:19:00,
2014-01-23 19:20:00,-8.6,-15.2,30.70,WNW,292,3.3,3.3,72,0.00,,,0.00,VWS V14.01,2014-01-24 01:20:00,
2014-01-23 19:21:00,-8.6,-15.2,30.70,WNW,292,3.3,3.3,72,0.00,,,0.00,VWS V14.01,2014-01-24 01:21:00,
2014-01-23 19:22:00,-8.6,-14.9,30.70,West,270,0.0,3.3,73,0.00,,,0.00,VWS V14.01,2014-01-24 01:22:00,
2014-01-23 19:23:00,-8.6,-14.9,30.70,West,270,0.0,0.0,73,0.00,,,0.00,VWS V14.01,2014-01-24 01:23:00,
2014-01-23 19:24:00,-8.6,-14.9,30.70,West,270,0.0,0.0,73,0.00,,,0.00,VWS V14.01,2014-01-24 01:24:00,
2014-01-23 19:25:00,-8.6,-14.9,30.70,West,270,0.0,0.0,73,0.00,,,0.00,VWS V14.01,2014-01-24 01:25:00,
2014-01-23 19:26:00,-8.6,-14.9,30.70,West,270,0.0,0.0,73,0.00,,,0.00,VWS V14.01,2014-01-24 01:26:00,
2014-01-23 19:27:00,-8.6,-14.9,30.70,West,270,0.4,0.4,73,0.00,,,0.00,VWS V14.01,2014-01-24 01:27:00,
2014-01-23 19:28:00,-8.6,-14.9,30.70,West,270,0.4,0.4,73,0.00,,,0.00,VWS V14.01,2014-01-24 01:28:00,
2014-01-23 19:29:00,-8.5,-14.8,30.70,West,270,0.0,0.4,73,0.00,,,0.00,VWS V14.01,2014-01-24 01:29:00,
2014-01-23 19:30:00,-8.5,-14.8,30.70,West,270,0.0,0.0,73,0.00,,,0.00,VWS V14.01,2014-01-24 01:30:00,
2014-01-23 19:31:00,-8.3,-14.4,30.70,WNW,292,3.3,3.3,74,0.00,,,0.00,VWS V14.01,2014-01-24 01:31:00,
2014-01-23 19:32:00,-8.3,-14.4,30.70,WNW,292,3.3,3.3,74,0.00,,,0.00,VWS V14.01,2014-01-24 01:32:00,
2014-01-23 19:33:00,-8.3,-14.4,30.70,WNW,292,3.3,3.3,74,0.00,,,0.00,VWS V14.01,2014-01-24 01:33:00,
2014-01-23 19:34:00,-8.3,-14.4,30.70,WNW,292,3.1,3.1,74,0.00,,,0.00,VWS V14.01,2014-01-24 01:34:00,
2014-01-23 19:35:00,-7.9,-14.0,30.70,WNW,292,5.5,5.5,74,0.00,,,0.00,VWS V14.01,2014-01-24 01:35:00,
2014-01-23 19:36:00,-7.9,-14.0,30.70,WNW,292,5.5,5.5,74,0.00,,,0.00,VWS V14.01,2014-01-24 01:36:00,
2014-01-23 19:37:00,-7.9,-14.0,30.70,WSW,248,0.0,5.5,74,0.00,,,0.00,VWS V14.01,2014-01-24 01:37:00,
2014-01-23 19:38:00,-7.9,-14.0,30.70,WSW,248,0.0,0.0,74,0.00,,,0.00,VWS V14.01,2014-01-24 01:38:00,
2014-01-23 19:39:00,-7.9,-14.0,30.70,WSW,248,0.0,0.0,74,0.00,,,0.00,VWS V14.01,2014-01-24 01:39:00,
2014-01-23 19:40:00,-7.9,-14.0,30.70,West,270,2.0,2.0,74,0.00,,,0.00,VWS V14.01,2014-01-24 01:40:00,
2014-01-23 19:41:00,-7.9,-14.0,30.69,West,270,2.0,2.0,74,0.00,,,0.00,VWS V14.01,2014-01-24 01:41:00,
2014-01-23 19:42:00,-7.7,-13.8,30.70,West,270,5.3,5.3,74,0.00,,,0.00,VWS V14.01,2014-01-24 01:42:00,
2014-01-23 19:43:00,-7.7,-13.8,30.70,West,270,5.3,5.3,74,0.00,,,0.00,VWS V14.01,2014-01-24 01:43:00,
2014-01-23 19:44:00,-7.4,-13.5,30.70,WNW,292,6.9,6.9,74,0.00,,,0.00,VWS V14.01,2014-01-24 01:44:00,
2014-01-23 19:45:00,-7.4,-13.5,30.70,WNW,292,6.9,6.9,74,0.00,,,0.00,VWS V14.01,2014-01-24 01:45:00,
2014-01-23 19:46:00,-7.4,-13.5,30.69,WNW,292,7.1,7.1,74,0.00,,,0.00,VWS V14.01,2014-01-24 01:46:00,
2014-01-23 19:47:00,-7.4,-13.5,30.69,WNW,292,7.1,7.1,74,0.00,,,0.00,VWS V14.01,2014-01-24 01:47:00,
2014-01-23 19:48:00,-7.4,-13.5,30.69,WNW,292,7.1,7.1,74,0.00,,,0.00,VWS V14.01,2014-01-24 01:48:00,
2014-01-23 19:49:00,-7.4,-13.5,30.70,West,270,4.6,4.6,74,0.00,,,0.00,VWS V14.01,2014-01-24 01:49:00,
2014-01-23 19:50:00,-7.4,-13.5,30.70,WNW,292,4.6,4.6,74,0.00,,,0.00,VWS V14.01,2014-01-24 01:50:00,
2014-01-23 19:51:00,-7.4,-13.5,30.70,WNW,292,4.6,4.6,74,0.00,,,0.00,VWS V14.01,2014-01-24 01:51:00,
2014-01-23 19:52:00,-7.4,-13.5,30.70,WNW,292,0.0,4.6,74,0.00,,,0.00,VWS V14.01,2014-01-24 01:52:00,
2014-01-23 19:53:00,-7.4,-13.5,30.70,WNW,292,0.0,0.0,74,0.00,,,0.00,VWS V14.01,2014-01-24 01:53:00,
2014-01-23 19:54:00,-7.4,-13.5,30.70,WNW,292,0.0,0.0,74,0.00,,,0.00,VWS V14.01,2014-01-24 01:54:00,
2014-01-23 19:55:00,-7.4,-13.5,30.70,West,270,2.4,2.4,74,0.00,,,0.00,VWS V14.01,2014-01-24 01:55:00,
2014-01-23 19:56:00,-7.4,-13.5,30.70,West,270,2.4,2.4,74,0.00,,,0.00,VWS V14.01,2014-01-24 01:56:00,
2014-01-23 19:57:00,-7.7,-13.8,30.70,WNW,292,3.3,3.3,74,0.00,,,0.00,VWS V14.01,2014-01-24 01:57:00,
2014-01-23 19:58:00,-7.7,-13.8,30.70,WNW,292,3.3,3.3,74,0.00,,,0.00,VWS V14.01,2014-01-24 01:58:00,
2014-01-23 19:59:00,-7.7,-13.8,30.69,West,270,0.0,3.3,74,0.00,,,0.00,VWS V14.01,2014-01-24 01:59:00,
2014-01-23 20:00:00,-7.7,-13.8,30.69,West,270,0.0,0.0,74,0.00,,,0.00,VWS V14.01,2014-01-24 02:00:00,
2014-01-23 20:01:00,-7.7,-13.8,30.69,WNW,292,5.3,5.3,74,0.00,,,0.00,VWS V14.01,2014-01-24 02:01:00,
2014-01-23 20:02:00,-7.7,-13.8,30.70,WNW,292,5.3,5.3,74,0.00,,,0.00,VWS V14.01,2014-01-24 02:02:00,
2014-01-23 20:03:00,-7.7,-13.8,30.70,WNW,292,5.3,5.3,74,0.00,,,0.00,VWS V14.01,2014-01-24 02:03:00,
2014-01-23 20:04:00,-7.7,-13.8,30.70,WSW,248,0.0,0.0,74,0.00,,,0.00,VWS V14.01,2014-01-24 02:04:00,
2014-01-23 20:05:00,-7.9,-14.0,30.70,WNW,292,0.0,0.0,74,0.00,,,0.00,VWS V14.01,2014-01-24 02:05:00,
2014-01-23 20:06:00,-7.9,-14.0,30.70,WNW,292,0.0,0.0,74,0.00,,,0.00,VWS V14.01,2014-01-24 02:06:00,
2014-01-23 20:07:00,-8.1,-14.1,30.69,WSW,248,0.0,0.0,74,0.00,,,0.00,VWS V14.01,2014-01-24 02:07:00,
2014-01-23 20:08:00,-8.1,-14.1,30.69,WSW,248,0.0,0.0,74,0.00,,,0.00,VWS V14.01,2014-01-24 02:08:00,
2014-01-23 20:09:00,-8.1,-14.1,30.69,WSW,248,0.0,0.0,74,0.00,,,0.00,VWS V14.01,2014-01-24 02:09:00,
2014-01-23 20:10:00,-8.3,-14.4,30.69,West,270,0.0,0.0,74,0.00,,,0.00,VWS V14.01,2014-01-24 02:10:00,
2014-01-23 20:11:00,-8.3,-14.4,30.69,West,270,0.0,0.0,74,0.00,,,0.00,VWS V14.01,2014-01-24 02:11:00,
2014-01-23 20:12:00,-8.5,-14.5,30.69,WSW,248,0.0,0.0,74,0.00,,,0.00,VWS V14.01,2014-01-24 02:12:00,
2014-01-23 20:13:00,-8.5,-14.5,30.69,WSW,248,0.0,0.0,74,0.00,,,0.00,VWS V14.01,2014-01-24 02:13:00,
2014-01-23 20:14:00,-8.6,-14.9,30.68,SW,225,0.0,0.0,73,0.00,,,0.00,VWS V14.01,2014-01-24 02:14:00,
2014-01-23 20:15:00,-8.6,-14.9,30.68,SW,225,0.0,0.0,73,0.00,,,0.00,VWS V14.01,2014-01-24 02:15:00,
2014-01-23 20:16:00,-8.8,-15.1,30.68,SW,225,0.0,0.0,73,0.00,,,0.00,VWS V14.01,2014-01-24 02:16:00,
2014-01-23 20:17:00,-8.8,-15.1,30.68,SW,225,0.0,0.0,73,0.00,,,0.00,VWS V14.01,2014-01-24 02:17:00,
2014-01-23 20:18:00,-8.8,-15.1,30.68,SW,225,0.0,0.0,73,0.00,,,0.00,VWS V14.01,2014-01-24 02:18:00,
2014-01-23 20:19:00,-9.0,-15.3,30.68,SW,225,0.0,0.0,73,0.00,,,0.00,VWS V14.01,2014-01-24 02:19:00,
2014-01-23 20:20:00,-9.2,-15.5,30.68,SW,225,0.0,0.0,73,0.00,,,0.00,VWS V14.01,2014-01-24 02:20:00,
2014-01-23 20:21:00,-9.2,-15.5,30.68,SW,225,0.0,0.0,73,0.00,,,0.00,VWS V14.01,2014-01-24 02:21:00,
2014-01-23 20:22:00,-9.4,-15.7,30.68,WSW,248,0.0,0.0,73,0.00,,,0.00,VWS V14.01,2014-01-24 02:22:00,
2014-01-23 20:23:00,-9.4,-15.7,30.68,WSW,248,0.0,0.0,73,0.00,,,0.00,VWS V14.01,2014-01-24 02:23:00,
2014-01-23 20:24:00,-9.4,-15.7,30.67,WSW,248,0.0,0.0,73,0.00,,,0.00,VWS V14.01,2014-01-24 02:24:00,
2014-01-23 20:25:00,-9.5,-15.8,30.67,SW,225,0.0,0.0,73,0.00,,,0.00,VWS V14.01,2014-01-24 02:25:00,
2014-01-23 20:26:00,-9.5,-15.8,30.67,SW,225,0.0,0.0,73,0.00,,,0.00,VWS V14.01,2014-01-24 02:26:00,
2014-01-23 20:27:00,-9.7,-16.0,30.67,SW,225,0.0,0.0,73,0.00,,,0.00,VWS V14.01,2014-01-24 02:27:00,
2014-01-23 20:28:00,-9.7,-16.0,30.67,SW,225,0.0,0.0,73,0.00,,,0.00,VWS V14.01,2014-01-24 02:28:00,
2014-01-23 20:29:00,-9.7,-15.7,30.68,SW,225,0.0,0.0,74,0.00,,,0.00,VWS V14.01,2014-01-24 02:29:00,
2014-01-23 20:30:00,-9.7,-15.7,30.68,SW,225,0.0,0.0,74,0.00,,,0.00,VWS V14.01,2014-01-24 02:30:00,
2014-01-23 20:31:00,-9.9,-15.9,30.68,SW,225,0.0,0.0,74,0.00,,,0.00,VWS V14.01,2014-01-24 02:31:00,
2014-01-23 20:32:00,-9.9,-15.9,30.67,SW,225,0.0,0.0,74,0.00,,,0.00,VWS V14.01,2014-01-24 02:32:00,
2014-01-23 20:33:00,-9.9,-15.9,30.67,SW,225,0.0,0.0,74,0.00,,,0.00,VWS V14.01,2014-01-24 02:33:00,
2014-01-23 20:34:00,-9.9,-15.9,30.67,SW,225,0.0,0.0,74,0.00,,,0.00,VWS V14.01,2014-01-24 02:34:00,
2014-01-23 20:35:00,-9.9,-15.9,30.67,SW,225,2.0,2.0,74,0.00,,,0.00,VWS V14.01,2014-01-24 02:35:00,
2014-01-23 20:36:00,-9.9,-15.9,30.67,SW,225,2.0,2.0,74,0.00,,,0.00,VWS V14.01,2014-01-24 02:36:00,
2014-01-23 20:37:00,-9.9,-15.9,30.67,SW,225,0.0,2.0,74,0.00,,,0.00,VWS V14.01,2014-01-24 02:37:00,
2014-01-23 20:38:00,-9.9,-15.9,30.67,SW,225,0.0,0.0,74,0.00,,,0.00,VWS V14.01,2014-01-24 02:38:00,
2014-01-23 20:39:00,-9.9,-15.9,30.67,SW,225,0.0,0.0,74,0.00,,,0.00,VWS V14.01,2014-01-24 02:39:00,
2014-01-23 20:40:00,-9.9,-15.9,30.67,SW,225,0.0,0.0,74,0.00,,,0.00,VWS V14.01,2014-01-24 02:40:00,
2014-01-23 20:41:00,-9.9,-15.9,30.67,SW,225,0.0,0.0,74,0.00,,,0.00,VWS V14.01,2014-01-24 02:41:00,
2014-01-23 20:42:00,-9.7,-15.4,30.66,SW,225,0.0,0.0,75,0.00,,,0.00,VWS V14.01,2014-01-24 02:42:00,
2014-01-23 20:43:00,-9.7,-15.4,30.66,SW,225,0.0,0.0,75,0.00,,,0.00,VWS V14.01,2014-01-24 02:43:00,
2014-01-23 20:44:00,-9.7,-15.4,30.66,SW,225,0.0,0.0,75,0.00,,,0.00,VWS V14.01,2014-01-24 02:44:00,
2014-01-23 20:45:00,-9.7,-15.4,30.66,SW,225,0.0,0.0,75,0.00,,,0.00,VWS V14.01,2014-01-24 02:45:00,
2014-01-23 20:46:00,-9.5,-15.2,30.66,SW,225,0.0,0.0,75,0.00,,,0.00,VWS V14.01,2014-01-24 02:46:00,
2014-01-23 20:47:00,-9.5,-15.2,30.66,SW,225,0.0,0.0,75,0.00,,,0.00,VWS V14.01,2014-01-24 02:47:00,
2014-01-23 20:48:00,-9.5,-15.2,30.66,SW,225,0.0,0.0,75,0.00,,,0.00,VWS V14.01,2014-01-24 02:48:00,
2014-01-23 20:49:00,-9.5,-15.2,30.66,SW,225,0.0,0.0,75,0.00,,,0.00,VWS V14.01,2014-01-24 02:49:00,
2014-01-23 20:50:00,-9.5,-15.2,30.66,SW,225,0.0,0.0,75,0.00,,,0.00,VWS V14.01,2014-01-24 02:50:00,
2014-01-23 20:51:00,-9.5,-15.2,30.66,SW,225,0.0,0.0,75,0.00,,,0.00,VWS V14.01,2014-01-24 02:51:00,
2014-01-23 20:52:00,-9.5,-15.2,30.66,SW,225,0.0,0.0,75,0.00,,,0.00,VWS V14.01,2014-01-24 02:52:00,
2014-01-23 20:53:00,-9.5,-15.2,30.66,SW,225,0.0,0.0,75,0.00,,,0.00,VWS V14.01,2014-01-24 02:53:00,
2014-01-23 20:54:00,-9.5,-15.2,30.66,SW,225,0.0,0.0,75,0.00,,,0.00,VWS V14.01,2014-01-24 02:54:00,
2014-01-23 20:55:00,-9.5,-15.2,30.66,SW,225,0.0,0.0,75,0.00,,,0.00,VWS V14.01,2014-01-24 02:55:00,
2014-01-23 20:56:00,-9.5,-15.2,30.66,SW,225,0.0,0.0,75,0.00,,,0.00,VWS V14.01,2014-01-24 02:56:00,
2014-01-23 20:57:00,-9.4,-15.1,30.66,SW,225,0.0,0.0,75,0.00,,,0.00,VWS V14.01,2014-01-24 02:57:00,
2014-01-23 20:58:00,-9.4,-15.1,30.66,SW,225,0.0,0.0,75,0.00,,,0.00,VWS V14.01,2014-01-24 02:58:00,
2014-01-23 20:59:00,-9.4,-15.1,30.66,SW,225,0.0,0.0,75,0.00,,,0.00,VWS V14.01,2014-01-24 02:59:00,
2014-01-23 21:00:00,-9.4,-15.1,30.66,SW,225,0.0,0.0,75,0.00,,,0.00,VWS V14.01,2014-01-24 03:00:00,
2014-01-23 21:01:00,-9.4,-15.1,30.66,SW,225,0.8,0.8,75,0.00,,,0.00,VWS V14.01,2014-01-24 03:01:00,
2014-01-23 21:02:00,-9.4,-15.1,30.66,SW,225,0.8,0.8,75,0.00,,,0.00,VWS V14.01,2014-01-24 03:02:00,
2014-01-23 21:03:00,-9.4,-15.1,30.66,SW,225,0.8,0.8,75,0.00,,,0.00,VWS V14.01,2014-01-24 03:03:00,
2014-01-23 21:04:00,-9.4,-15.1,30.66,SW,225,0.0,0.0,75,0.00,,,0.00,VWS V14.01,2014-01-24 03:04:00,
2014-01-23 21:05:00,-9.4,-15.1,30.66,SW,225,0.0,0.0,75,0.00,,,0.00,VWS V14.01,2014-01-24 03:05:00,
2014-01-23 21:06:00,-9.4,-15.1,30.66,SW,225,0.0,0.0,75,0.00,,,0.00,VWS V14.01,2014-01-24 03:06:00,
2014-01-23 21:07:00,-9.4,-15.1,30.66,SW,225,0.0,0.0,75,0.00,,,0.00,VWS V14.01,2014-01-24 03:07:00,
2014-01-23 21:08:00,-9.4,-15.1,30.66,SW,225,0.0,0.0,75,0.00,,,0.00,VWS V14.01,2014-01-24 03:08:00,
2014-01-23 21:09:00,-9.4,-15.1,30.66,SW,225,0.0,0.0,75,0.00,,,0.00,VWS V14.01,2014-01-24 03:09:00,
2014-01-23 21:10:00,-9.4,-15.1,30.65,SW,225,0.0,0.0,75,0.00,,,0.00,VWS V14.01,2014-01-24 03:10:00,
2014-01-23 21:11:00,-9.4,-15.1,30.65,SW,225,0.0,0.0,75,0.00,,,0.00,VWS V14.01,2014-01-24 03:11:00,
2014-01-23 21:12:00,-9.4,-15.1,30.65,SW,225,0.0,0.0,75,0.00,,,0.00,VWS V14.01,2014-01-24 03:12:00,
2014-01-23 21:13:00,-9.4,-15.1,30.65,SW,225,0.0,0.0,75,0.00,,,0.00,VWS V14.01,2014-01-24 03:13:00,
2014-01-23 21:14:00,-9.4,-15.1,30.65,SW,225,0.0,0.0,75,0.00,,,0.00,VWS V14.01,2014-01-24 03:14:00,
2014-01-23 21:15:00,-9.4,-15.1,30.65,SW,225,0.0,0.0,75,0.00,,,0.00,VWS V14.01,2014-01-24 03:15:00,
2014-01-23 21:16:00,-9.4,-15.1,30.65,SW,225,0.0,0.0,75,0.00,,,0.00,VWS V14.01,2014-01-24 03:16:00,
2014-01-23 21:17:00,-9.4,-15.1,30.65,SW,225,0.0,0.0,75,0.00,,,0.00,VWS V14.01,2014-01-24 03:17:00,
2014-01-23 21:18:00,-9.4,-15.1,30.65,SW,225,0.0,0.0,75,0.00,,,0.00,VWS V14.01,2014-01-24 03:18:00,
2014-01-23 21:19:00,-9.4,-15.1,30.66,SW,225,0.0,0.0,75,0.00,,,0.00,VWS V14.01,2014-01-24 03:19:00,
2014-01-23 21:20:00,-9.5,-15.2,30.66,SW,225,0.0,0.0,75,0.00,,,0.00,VWS V14.01,2014-01-24 03:20:00,
2014-01-23 21:21:00,-9.5,-15.2,30.65,SW,225,0.0,0.0,75,0.00,,,0.00,VWS V14.01,2014-01-24 03:21:00,
2014-01-23 21:22:00,-9.5,-15.2,30.66,SW,225,0.0,0.0,75,0.00,,,0.00,VWS V14.01,2014-01-24 03:22:00,
2014-01-23 21:23:00,-9.5,-15.2,30.66,SW,225,0.0,0.0,75,0.00,,,0.00,VWS V14.01,2014-01-24 03:23:00,
2014-01-23 21:24:00,-9.5,-15.2,30.66,SW,225,0.0,0.0,75,0.00,,,0.00,VWS V14.01,2014-01-24 03:24:00,
2014-01-23 21:25:00,-9.5,-15.2,30.66,SW,225,0.0,0.0,75,0.00,,,0.00,VWS V14.01,2014-01-24 03:25:00,
2014-01-23 21:26:00,-9.5,-15.2,30.66,SW,225,0.0,0.0,75,0.00,,,0.00,VWS V14.01,2014-01-24 03:26:00,
2014-01-23 21:27:00,-9.7,-15.4,30.66,SW,225,0.0,0.0,75,0.00,,,0.00,VWS V14.01,2014-01-24 03:27:00,
2014-01-23 21:28:00,-9.7,-15.4,30.66,SW,225,0.0,0.0,75,0.00,,,0.00,VWS V14.01,2014-01-24 03:28:00,
2014-01-23 21:29:00,-9.7,-15.4,30.65,SW,225,0.0,0.0,75,0.00,,,0.00,VWS V14.01,2014-01-24 03:29:00,
2014-01-23 21:30:00,-9.7,-15.4,30.65,SW,225,0.0,0.0,75,0.00,,,0.00,VWS V14.01,2014-01-24 03:30:00,
2014-01-23 21:31:00,-9.7,-15.4,30.65,SW,225,0.0,0.0,75,0.00,,,0.00,VWS V14.01,2014-01-24 03:31:00,
2014-01-23 21:32:00,-9.7,-15.4,30.65,SW,225,0.0,0.0,75,0.00,,,0.00,VWS V14.01,2014-01-24 03:32:00,
2014-01-23 21:33:00,-9.7,-15.4,30.65,SW,225,0.0,0.0,75,0.00,,,0.00,VWS V14.01,2014-01-24 03:33:00,
2014-01-23 21:34:00,-9.7,-15.4,30.66,SW,225,0.0,0.0,75,0.00,,,0.00,VWS V14.01,2014-01-24 03:34:00,
2014-01-23 21:35:00,-9.9,-15.6,30.65,SW,225,0.0,0.0,75,0.00,,,0.00,VWS V14.01,2014-01-24 03:35:00,
2014-01-23 21:36:00,-9.9,-15.6,30.65,SW,225,0.0,0.0,75,0.00,,,0.00,VWS V14.01,2014-01-24 03:36:00,
2014-01-23 21:37:00,-10.1,-15.8,30.65,SW,225,0.0,0.0,75,0.00,,,0.00,VWS V14.01,2014-01-24 03:37:00,
2014-01-23 21:38:00,-10.1,-15.8,30.65,SW,225,0.0,0.0,75,0.00,,,0.00,VWS V14.01,2014-01-24 03:38:00,
2014-01-23 21:39:00,-10.1,-15.8,30.65,SW,225,0.0,0.0,75,0.00,,,0.00,VWS V14.01,2014-01-24 03:39:00,
2014-01-23 21:40:00,-10.1,-15.8,30.65,SW,225,0.0,0.0,75,0.00,,,0.00,VWS V14.01,2014-01-24 03:40:00,
2014-01-23 21:41:00,-10.1,-15.8,30.65,SW,225,0.0,0.0,75,0.00,,,0.00,VWS V14.01,2014-01-24 03:41:00,
2014-01-23 21:42:00,-10.3,-16.0,30.65,SW,225,0.0,0.0,75,0.00,,,0.00,VWS V14.01,2014-01-24 03:42:00,
2014-01-23 21:43:00,-10.3,-16.0,30.65,SW,225,0.0,0.0,75,0.00,,,0.00,VWS V14.01,2014-01-24 03:43:00,
2014-01-23 21:44:00,-10.4,-16.1,30.65,SW,225,0.0,0.0,75,0.00,,,0.00,VWS V14.01,2014-01-24 03:44:00,
2014-01-23 21:45:00,-10.4,-16.1,30.65,SW,225,0.0,0.0,75,0.00,,,0.00,VWS V14.01,2014-01-24 03:45:00,
2014-01-23 21:46:00,-10.4,-16.1,30.65,SW,225,0.0,0.0,75,0.00,,,0.00,VWS V14.01,2014-01-24 03:46:00,
2014-01-23 21:47:00,-10.4,-16.1,30.65,SW,225,0.0,0.0,75,0.00,,,0.00,VWS V14.01,2014-01-24 03:47:00,
2014-01-23 21:48:00,-10.4,-16.1,30.65,SW,225,0.0,0.0,75,0.00,,,0.00,VWS V14.01,2014-01-24 03:48:00,
2014-01-23 21:49:00,-10.4,-16.1,30.64,SW,225,0.0,0.0,75,0.00,,,0.00,VWS V14.01,2014-01-24 03:49:00,
2014-01-23 21:50:00,-10.4,-15.9,30.65,SW,225,0.0,0.0,76,0.00,,,0.00,VWS V14.01,2014-01-24 03:50:00,
2014-01-23 21:51:00,-10.4,-15.9,30.65,SW,225,0.0,0.0,76,0.00,,,0.00,VWS V14.01,2014-01-24 03:51:00,
2014-01-23 21:52:00,-10.4,-15.9,30.64,SW,225,0.0,0.0,76,0.00,,,0.00,VWS V14.01,2014-01-24 03:52:00,
2014-01-23 21:53:00,-10.4,-15.9,30.64,SW,225,0.0,0.0,76,0.00,,,0.00,VWS V14.01,2014-01-24 03:53:00,
2014-01-23 21:54:00,-10.4,-15.9,30.64,SW,225,0.0,0.0,76,0.00,,,0.00,VWS V14.01,2014-01-24 03:54:00,
2014-01-23 21:55:00,-10.4,-15.9,30.64,SW,225,0.0,0.0,76,0.00,,,0.00,VWS V14.01,2014-01-24 03:55:00,
2014-01-23 21:56:00,-10.4,-15.9,30.65,SW,225,0.0,0.0,76,0.00,,,0.00,VWS V14.01,2014-01-24 03:56:00,
2014-01-23 21:57:00,-10.4,-15.9,30.64,SW,225,0.0,0.0,76,0.00,,,0.00,VWS V14.01,2014-01-24 03:57:00,
2014-01-23 21:58:00,-10.4,-15.9,30.64,SW,225,0.0,0.0,76,0.00,,,0.00,VWS V14.01,2014-01-24 03:58:00,
2014-01-23 21:59:00,-10.3,-15.8,30.64,SW,225,0.0,0.0,76,0.00,,,0.00,VWS V14.01,2014-01-24 03:59:00,
2014-01-23 22:00:00,-10.3,-15.8,30.64,SW,225,0.0,0.0,76,0.00,,,0.00,VWS V14.01,2014-01-24 04:00:00,
2014-01-23 22:01:00,-10.3,-15.8,30.64,SW,225,0.0,0.0,76,0.00,,,0.00,VWS V14.01,2014-01-24 04:01:00,
2014-01-23 22:02:00,-10.3,-15.8,30.64,SW,225,0.0,0.0,76,0.00,,,0.00,VWS V14.01,2014-01-24 04:02:00,
2014-01-23 22:03:00,-10.3,-15.8,30.64,SW,225,0.0,0.0,76,0.00,,,0.00,VWS V14.01,2014-01-24 04:03:00,
2014-01-23 22:04:00,-10.3,-15.8,30.64,SW,225,0.0,0.0,76,0.00,,,0.00,VWS V14.01,2014-01-24 04:04:00,
2014-01-23 22:05:00,-10.3,-15.8,30.64,SW,225,0.0,0.0,76,0.00,,,0.00,VWS V14.01,2014-01-24 04:05:00,
2014-01-23 22:06:00,-10.3,-15.8,30.64,SW,225,0.0,0.0,76,0.00,,,0.00,VWS V14.01,2014-01-24 04:06:00,
2014-01-23 22:07:00,-10.3,-15.8,30.64,SW,225,0.0,0.0,76,0.00,,,0.00,VWS V14.01,2014-01-24 04:07:00,
2014-01-23 22:08:00,-10.3,-15.8,30.64,SW,225,0.0,0.0,76,0.00,,,0.00,VWS V14.01,2014-01-24 04:08:00,
2014-01-23 22:09:00,-10.3,-15.8,30.64,SW,225,0.0,0.0,76,0.00,,,0.00,VWS V14.01,2014-01-24 04:09:00,
2014-01-23 22:10:00,-10.3,-15.8,30.64,SW,225,0.0,0.0,76,0.00,,,0.00,VWS V14.01,2014-01-24 04:10:00,
2014-01-23 22:11:00,-10.3,-15.8,30.64,SW,225,0.0,0.0,76,0.00,,,0.00,VWS V14.01,2014-01-24 04:11:00,
2014-01-23 22:12:00,-10.3,-15.8,30.64,SW,225,0.0,0.0,76,0.00,,,0.00,VWS V14.01,2014-01-24 04:12:00,
2014-01-23 22:13:00,-10.3,-15.8,30.64,SW,225,0.0,0.0,76,0.00,,,0.00,VWS V14.01,2014-01-24 04:13:00,
2014-01-23 22:14:00,-10.3,-15.8,30.64,SW,225,0.0,0.0,76,0.00,,,0.00,VWS V14.01,2014-01-24 04:14:00,
2014-01-23 22:15:00,-10.3,-15.8,30.64,SW,225,0.0,0.0,76,0.00,,,0.00,VWS V14.01,2014-01-24 04:15:00,
2014-01-23 22:16:00,-10.3,-15.8,30.64,SW,225,0.0,0.0,76,0.00,,,0.00,VWS V14.01,2014-01-24 04:16:00,
2014-01-23 22:17:00,-10.3,-15.8,30.64,SW,225,0.0,0.0,76,0.00,,,0.00,VWS V14.01,2014-01-24 04:17:00,
2014-01-23 22:18:00,-10.3,-15.8,30.64,SW,225,0.0,0.0,76,0.00,,,0.00,VWS V14.01,2014-01-24 04:18:00,
2014-01-23 22:19:00,-10.3,-15.8,30.63,SW,225,0.0,0.0,76,0.00,,,0.00,VWS V14.01,2014-01-24 04:19:00,
2014-01-23 22:20:00,-10.3,-15.8,30.63,SW,225,0.0,0.0,76,0.00,,,0.00,VWS V14.01,2014-01-24 04:20:00,
2014-01-23 22:21:00,-10.3,-15.8,30.63,SW,225,0.0,0.0,76,0.00,,,0.00,VWS V14.01,2014-01-24 04:21:00,
2014-01-23 22:22:00,-10.3,-15.8,30.63,SW,225,0.0,0.0,76,0.00,,,0.00,VWS V14.01,2014-01-24 04:22:00,
2014-01-23 22:23:00,-10.3,-15.8,30.63,SW,225,0.0,0.0,76,0.00,,,0.00,VWS V14.01,2014-01-24 04:23:00,
2014-01-23 22:24:00,-10.1,-15.3,30.63,SW,225,0.0,0.0,77,0.00,,,0.00,VWS V14.01,2014-01-24 04:24:00,
2014-01-23 22:25:00,-10.1,-15.3,30.63,SW,225,0.0,0.0,77,0.00,,,0.00,VWS V14.01,2014-01-24 04:25:00,
2014-01-23 22:26:00,-10.1,-15.3,30.63,SW,225,0.0,0.0,77,0.00,,,0.00,VWS V14.01,2014-01-24 04:26:00,
2014-01-23 22:27:00,-9.7,-14.9,30.63,SW,225,0.0,0.0,77,0.00,,,0.00,VWS V14.01,2014-01-24 04:27:00,
2014-01-23 22:28:00,-9.7,-14.9,30.63,SW,225,0.0,0.0,77,0.00,,,0.00,VWS V14.01,2014-01-24 04:28:00,
2014-01-23 22:29:00,-9.7,-14.9,30.63,SW,225,0.0,0.0,77,0.00,,,0.00,VWS V14.01,2014-01-24 04:29:00,
2014-01-23 22:30:00,-9.7,-14.9,30.63,SW,225,0.0,0.0,77,0.00,,,0.00,VWS V14.01,2014-01-24 04:30:00,
2014-01-23 22:31:00,-9.7,-14.9,30.63,SW,225,0.0,0.0,77,0.00,,,0.00,VWS V14.01,2014-01-24 04:31:00,
2014-01-23 22:32:00,-9.7,-14.9,30.63,SW,225,0.0,0.0,77,0.00,,,0.00,VWS V14.01,2014-01-24 04:32:00,
2014-01-23 22:33:00,-9.7,-14.9,30.63,SW,225,0.0,0.0,77,0.00,,,0.00,VWS V14.01,2014-01-24 04:33:00,
2014-01-23 22:34:00,-9.7,-14.9,30.62,SW,225,0.0,0.0,77,0.00,,,0.00,VWS V14.01,2014-01-24 04:34:00,
2014-01-23 22:35:00,-9.7,-14.9,30.62,SW,225,0.0,0.0,77,0.00,,,0.00,VWS V14.01,2014-01-24 04:35:00,
2014-01-23 22:36:00,-9.7,-14.9,30.62,SW,225,0.0,0.0,77,0.00,,,0.00,VWS V14.01,2014-01-24 04:36:00,
2014-01-23 22:37:00,-9.7,-14.9,30.62,SW,225,0.0,0.0,77,0.00,,,0.00,VWS V14.01,2014-01-24 04:37:00,
2014-01-23 22:38:00,-9.7,-14.9,30.62,SW,225,0.0,0.0,77,0.00,,,0.00,VWS V14.01,2014-01-24 04:38:00,
2014-01-23 22:39:00,-9.5,-14.7,30.62,SW,225,0.0,0.0,77,0.00,,,0.00,VWS V14.01,2014-01-24 04:39:00,
2014-01-23 22:40:00,-9.5,-14.7,30.62,SW,225,0.0,0.0,77,0.00,,,0.00,VWS V14.01,2014-01-24 04:40:00,
2014-01-23 22:41:00,-9.5,-14.7,30.62,SW,225,0.0,0.0,77,0.00,,,0.00,VWS V14.01,2014-01-24 04:41:00,
2014-01-23 22:42:00,-9.5,-14.7,30.62,SW,225,0.6,0.6,77,0.00,,,0.00,VWS V14.01,2014-01-24 04:42:00,
2014-01-23 22:43:00,-9.5,-14.7,30.62,SW,225,0.6,0.6,77,0.00,,,0.00,VWS V14.01,2014-01-24 04:43:00,
2014-01-23 22:44:00,-9.5,-14.7,30.62,SW,225,0.0,0.6,77,0.00,,,0.00,VWS V14.01,2014-01-24 04:44:00,
2014-01-23 22:45:00,-9.5,-14.7,30.62,SW,225,0.0,0.0,77,0.00,,,0.00,VWS V14.01,2014-01-24 04:45:00,
2014-01-23 22:46:00,-9.5,-14.7,30.61,SW,225,0.0,0.0,77,0.00,,,0.00,VWS V14.01,2014-01-24 04:46:00,
2014-01-23 22:47:00,-9.5,-14.7,30.61,SW,225,0.0,0.0,77,0.00,,,0.00,VWS V14.01,2014-01-24 04:47:00,
2014-01-23 22:48:00,-9.5,-14.7,30.61,SW,225,0.0,0.0,77,0.00,,,0.00,VWS V14.01,2014-01-24 04:48:00,
2014-01-23 22:49:00,-9.5,-14.7,30.61,SW,225,0.0,0.0,77,0.00,,,0.00,VWS V14.01,2014-01-24 04:49:00,
2014-01-23 22:50:00,-9.4,-14.6,30.62,SW,225,0.0,0.0,77,0.00,,,0.00,VWS V14.01,2014-01-24 04:50:00,
2014-01-23 22:51:00,-9.4,-14.6,30.62,SW,225,0.0,0.0,77,0.00,,,0.00,VWS V14.01,2014-01-24 04:51:00,
2014-01-23 22:52:00,-9.2,-14.4,30.61,SW,225,0.0,0.0,77,0.00,,,0.00,VWS V14.01,2014-01-24 04:52:00,
2014-01-23 22:53:00,-9.2,-14.4,30.61,SW,225,0.0,0.0,77,0.00,,,0.00,VWS V14.01,2014-01-24 04:53:00,
2014-01-23 22:54:00,-9.2,-14.4,30.61,SW,225,0.0,0.0,77,0.00,,,0.00,VWS V14.01,2014-01-24 04:54:00,
2014-01-23 22:55:00,-9.2,-14.4,30.61,SW,225,0.0,0.0,77,0.00,,,0.00,VWS V14.01,2014-01-24 04:55:00,
2014-01-23 22:56:00,-9.2,-14.4,30.61,SW,225,0.0,0.0,77,0.00,,,0.00,VWS V14.01,2014-01-24 04:56:00,
2014-01-23 22:57:00,-9.2,-14.4,30.61,SW,225,0.0,0.0,77,0.00,,,0.00,VWS V14.01,2014-01-24 04:57:00,
2014-01-23 22:58:00,-9.2,-14.4,30.61,SW,225,0.0,0.0,77,0.00,,,0.00,VWS V14.01,2014-01-24 04:58:00,
2014-01-23 22:59:00,-9.2,-14.4,30.61,SW,225,0.0,0.0,77,0.00,,,0.00,VWS V14.01,2014-01-24 04:59:00,
2014-01-23 23:00:00,-9.2,-14.4,30.61,SW,225,0.0,0.0,77,0.00,,,0.00,VWS V14.01,2014-01-24 05:00:00,
2014-01-23 23:01:00,-9.2,-14.4,30.61,SW,225,0.0,0.0,77,0.00,,,0.00,VWS V14.01,2014-01-24 05:01:00,
2014-01-23 23:02:00,-9.4,-14.6,30.61,SW,225,0.0,0.0,77,0.00,,,0.00,VWS V14.01,2014-01-24 05:02:00,
2014-01-23 23:03:00,-9.4,-14.6,30.61,SW,225,0.0,0.0,77,0.00,,,0.00,VWS V14.01,2014-01-24 05:03:00,
2014-01-23 23:04:00,-9.4,-14.6,30.61,SW,225,0.0,0.0,77,0.00,,,0.00,VWS V14.01,2014-01-24 05:04:00,
2014-01-23 23:05:00,-9.5,-14.7,30.61,SW,225,0.0,0.0,77,0.00,,,0.00,VWS V14.01,2014-01-24 05:05:00,
2014-01-23 23:06:00,-9.5,-14.7,30.61,SW,225,0.0,0.0,77,0.00,,,0.00,VWS V14.01,2014-01-24 05:06:00,
2014-01-23 23:07:00,-9.5,-14.7,30.61,SW,225,0.0,0.0,77,0.00,,,0.00,VWS V14.01,2014-01-24 05:07:00,
2014-01-23 23:08:00,-9.5,-14.7,30.61,SW,225,0.0,0.0,77,0.00,,,0.00,VWS V14.01,2014-01-24 05:08:00,
2014-01-23 23:09:00,-9.5,-14.7,30.61,SW,225,0.0,0.0,77,0.00,,,0.00,VWS V14.01,2014-01-24 05:09:00,
2014-01-23 23:10:00,-9.5,-14.7,30.60,SW,225,0.0,0.0,77,0.00,,,0.00,VWS V14.01,2014-01-24 05:10:00,
2014-01-23 23:11:00,-9.5,-14.7,30.60,SW,225,0.0,0.0,77,0.00,,,0.00,VWS V14.01,2014-01-24 05:11:00,
2014-01-23 23:12:00,-9.4,-14.6,30.60,SW,225,0.0,0.0,77,0.00,,,0.00,VWS V14.01,2014-01-24 05:12:00,
2014-01-23 23:13:00,-9.4,-14.6,30.60,SW,225,0.0,0.0,77,0.00,,,0.00,VWS V14.01,2014-01-24 05:13:00,
2014-01-23 23:14:00,-9.4,-14.6,30.60,SW,225,0.0,0.0,77,0.00,,,0.00,VWS V14.01,2014-01-24 05:14:00,
2014-01-23 23:15:00,-9.4,-14.6,30.60,SW,225,0.0,0.0,77,0.00,,,0.00,VWS V14.01,2014-01-24 05:15:00,
2014-01-23 23:16:00,-9.4,-14.6,30.60,SW,225,0.0,0.0,77,0.00,,,0.00,VWS V14.01,2014-01-24 05:16:00,
2014-01-23 23:17:00,-9.4,-14.6,30.60,SW,225,0.0,0.0,77,0.00,,,0.00,VWS V14.01,2014-01-24 05:17:00,
2014-01-23 23:18:00,-9.4,-14.6,30.60,SW,225,0.0,0.0,77,0.00,,,0.00,VWS V14.01,2014-01-24 05:18:00,
2014-01-23 23:19:00,-9.4,-14.6,30.60,SW,225,0.0,0.0,77,0.00,,,0.00,VWS V14.01,2014-01-24 05:19:00,
2014-01-23 23:20:00,-9.4,-14.6,30.60,SW,225,0.0,0.0,77,0.00,,,0.00,VWS V14.01,2014-01-24 05:20:00,
2014-01-23 23:21:00,-9.4,-14.6,30.60,SW,225,0.0,0.0,77,0.00,,,0.00,VWS V14.01,2014-01-24 05:21:00,
2014-01-23 23:22:00,-9.4,-14.6,30.60,SW,225,0.0,0.0,77,0.00,,,0.00,VWS V14.01,2014-01-24 05:22:00,
2014-01-23 23:23:00,-9.4,-14.6,30.60,SW,225,0.0,0.0,77,0.00,,,0.00,VWS V14.01,2014-01-24 05:23:00,
2014-01-23 23:24:00,-9.4,-14.6,30.60,SW,225,0.0,0.0,77,0.00,,,0.00,VWS V14.01,2014-01-24 05:24:00,
2014-01-23 23:25:00,-9.4,-14.6,30.60,SW,225,0.0,0.0,77,0.00,,,0.00,VWS V14.01,2014-01-24 05:25:00,
2014-01-23 23:26:00,-9.4,-14.6,30.60,SW,225,0.0,0.0,77,0.00,,,0.00,VWS V14.01,2014-01-24 05:26:00,
2014-01-23 23:27:00,-9.4,-14.6,30.60,SW,225,0.0,0.0,77,0.00,,,0.00,VWS V14.01,2014-01-24 05:27:00,
2014-01-23 23:28:00,-9.4,-14.6,30.60,SW,225,0.0,0.0,77,0.00,,,0.00,VWS V14.01,2014-01-24 05:28:00,
2014-01-23 23:29:00,-9.5,-14.7,30.60,SW,225,0.0,0.0,77,0.00,,,0.00,VWS V14.01,2014-01-24 05:29:00,
2014-01-23 23:30:00,-9.5,-14.7,30.60,SW,225,0.0,0.0,77,0.00,,,0.00,VWS V14.01,2014-01-24 05:30:00,
2014-01-23 23:31:00,-9.5,-14.5,30.60,SW,225,0.0,0.0,78,0.00,,,0.00,VWS V14.01,2014-01-24 05:31:00,
2014-01-23 23:32:00,-9.5,-14.5,30.60,SW,225,0.0,0.0,78,0.00,,,0.00,VWS V14.01,2014-01-24 05:32:00,
2014-01-23 23:33:00,-9.4,-14.4,30.60,SW,225,0.0,0.0,78,0.00,,,0.00,VWS V14.01,2014-01-24 05:33:00,
2014-01-23 23:34:00,-9.4,-14.4,30.60,SW,225,0.0,0.0,78,0.00,,,0.00,VWS V14.01,2014-01-24 05:34:00,
2014-01-23 23:35:00,-9.5,-14.5,30.60,SW,225,0.0,0.0,78,0.00,,,0.00,VWS V14.01,2014-01-24 05:35:00,
2014-01-23 23:36:00,-9.5,-14.5,30.59,SW,225,0.0,0.0,78,0.00,,,0.00,VWS V14.01,2014-01-24 05:36:00,
2014-01-23 23:37:00,-9.5,-14.5,30.59,SW,225,0.0,0.0,78,0.00,,,0.00,VWS V14.01,2014-01-24 05:37:00,
2014-01-23 23:38:00,-9.5,-14.5,30.59,SW,225,0.0,0.0,78,0.00,,,0.00,VWS V14.01,2014-01-24 05:38:00,
2014-01-23 23:39:00,-9.5,-14.5,30.59,SW,225,0.0,0.0,78,0.00,,,0.00,VWS V14.01,2014-01-24 05:39:00,
2014-01-23 23:40:00,-9.5,-14.5,30.59,SW,225,0.0,0.0,78,0.00,,,0.00,VWS V14.01,2014-01-24 05:40:00,
2014-01-23 23:41:00,-9.5,-14.5,30.59,SW,225,0.0,0.0,78,0.00,,,0.00,VWS V14.01,2014-01-24 05:41:00,
2014-01-23 23:42:00,-9.5,-14.5,30.59,SW,225,0.0,0.0,78,0.00,,,0.00,VWS V14.01,2014-01-24 05:42:00,
2014-01-23 23:43:00,-9.5,-14.5,30.59,SW,225,0.0,0.0,78,0.00,,,0.00,VWS V14.01,2014-01-24 05:43:00,
2014-01-23 23:44:00,-9.5,-14.5,30.59,SW,225,0.0,0.0,78,0.00,,,0.00,VWS V14.01,2014-01-24 05:44:00,
2014-01-23 23:45:00,-9.5,-14.5,30.59,SW,225,0.0,0.0,78,0.00,,,0.00,VWS V14.01,2014-01-24 05:45:00,
2014-01-23 23:46:00,-9.5,-14.5,30.59,SW,225,0.0,0.0,78,0.00,,,0.00,VWS V14.01,2014-01-24 05:46:00,
2014-01-23 23:47:00,-9.5,-14.5,30.59,SW,225,0.0,0.0,78,0.00,,,0.00,VWS V14.01,2014-01-24 05:47:00,
2014-01-23 23:48:00,-9.5,-14.5,30.59,SW,225,0.0,0.0,78,0.00,,,0.00,VWS V14.01,2014-01-24 05:48:00,
2014-01-23 23:49:00,-9.5,-14.5,30.59,SW,225,0.0,0.0,78,0.00,,,0.00,VWS V14.01,2014-01-24 05:49:00,
2014-01-23 23:50:00,-9.5,-14.5,30.59,SW,225,0.0,0.0,78,0.00,,,0.00,VWS V14.01,2014-01-24 05:50:00,
2014-01-23 23:51:00,-9.5,-14.5,30.59,SW,225,0.0,0.0,78,0.00,,,0.00,VWS V14.01,2014-01-24 05:51:00,
2014-01-23 23:52:00,-9.5,-14.5,30.59,SW,225,0.0,0.0,78,0.00,,,0.00,VWS V14.01,2014-01-24 05:52:00,
2014-01-23 23:53:00,-9.5,-14.5,30.59,SW,225,0.0,0.0,78,0.00,,,0.00,VWS V14.01,2014-01-24 05:53:00,
2014-01-23 23:54:00,-9.5,-14.5,30.59,SW,225,0.0,0.0,78,0.00,,,0.00,VWS V14.01,2014-01-24 05:54:00,
2014-01-23 23:55:00,-9.5,-14.5,30.59,SW,225,0.0,0.0,78,0.00,,,0.00,VWS V14.01,2014-01-24 05:55:00,
2014-01-23 23:56:00,-9.5,-14.5,30.59,SW,225,0.0,0.0,78,0.00,,,0.00,VWS V14.01,2014-01-24 05:56:00,
2014-01-23 23:57:00,-9.5,-14.5,30.59,SW,225,0.0,0.0,78,0.00,,,0.00,VWS V14.01,2014-01-24 05:57:00,
2014-01-23 23:58:00,-9.5,-14.5,30.58,SW,225,0.0,0.0,78,0.00,,,0.00,VWS V14.01,2014-01-24 05:58:00,
2014-01-23 23:59:00,-9.5,-14.5,30.58,SW,225,0.0,0.0,78,0.00,,,0.00,VWS V14.01,2014-01-24 05:59:00,